<?xml version="1.0" encoding="UTF-8" standalone="no" ?>
<gpx xmlns="http://www.topografix.com/GPX/1/1" xmlns:xsi="http://www.w3.org/2001/XMLSchema-instance" xsi:schemaLocation="http://www.topografix.com/GPX/1/1 http://www.topografix.com/GPX/1/1/gpx.xsd" version="1.1" creator="VisuGPX - https://www.visugpx.com">
  <metadata>
    <name>VTT bergonne boudes st herent</name>
    <desc><![CDATA[circuit sympa vues imprenables]]></desc>
  </metadata>
  <wpt lat="45.45821" lon="3.15163">
    <ele>592</ele>
    <name><![CDATA[WPT001]]></name>
    <desc><![CDATA[]]></desc>
    <type><![CDATA[Photo]]></type>
  </wpt>
  <wpt lat="45.44531" lon="3.17896">
    <ele>466</ele>
    <name><![CDATA[WPT002]]></name>
    <desc><![CDATA[]]></desc>
    <type><![CDATA[Photo]]></type>
  </wpt>
  <trk>
    <name><![CDATA[2012-08-08 11:33]]></name>
    <desc><![CDATA[<h1>OruxMaps</h1><br /><hr align="center" width="480" style="height: 2px; width: 517px"/><h2>Nom: 2012-08-08 11:33</h2><br /><p>Temps de départ: 08/08/2012 11:33</p><p>Temps d'arrivée: 08/08/2012 13:32</p><p>Distance: 33,6 km (01:56)</p><p>Temps déplacement: 01:41</p><p>Vitesse moyenne: 17,2 km/h</p><p>Vitesse moyenne: 19,9 km/h</p><p>Vitess Max.: 47,1 km/h</p><p>Altitude minimale: 405 m</p><p>Altitude maximale: 630 m</p><p>Vitesse d'élévation: 603,9 m/h</p><p>Vitesse de descente: -775,2 m/h</p><p>Gain Altitude: 522 m</p><p>Perte Altitude: -542 m</p><p>Temps d'élévation: 00:51</p><p>Temps de descente: 00:42</p><hr align="center" width="480" style="height: 2px; width: 517px"/>]]></desc>
    <trkseg>
      <trkpt lat="45.50614" lon="3.22479">
        <ele>537</ele>
        <time>2012-08-08T09:35:58Z</time>
      </trkpt>
      <trkpt lat="45.50612" lon="3.22508">
        <ele>537</ele>
        <time>2012-08-08T09:36:04Z</time>
      </trkpt>
      <trkpt lat="45.5061" lon="3.22535">
        <ele>537</ele>
        <time>2012-08-08T09:36:09Z</time>
      </trkpt>
      <trkpt lat="45.50609" lon="3.22561">
        <ele>537</ele>
        <time>2012-08-08T09:36:12Z</time>
      </trkpt>
      <trkpt lat="45.50609" lon="3.2259">
        <ele>537</ele>
        <time>2012-08-08T09:36:17Z</time>
      </trkpt>
      <trkpt lat="45.50605" lon="3.2262">
        <ele>538</ele>
        <time>2012-08-08T09:36:22Z</time>
      </trkpt>
      <trkpt lat="45.50604" lon="3.22649">
        <ele>537</ele>
        <time>2012-08-08T09:36:27Z</time>
      </trkpt>
      <trkpt lat="45.50594" lon="3.22729">
        <ele>541</ele>
        <time>2012-08-08T09:36:43Z</time>
      </trkpt>
      <trkpt lat="45.50586" lon="3.22755">
        <ele>542</ele>
        <time>2012-08-08T09:36:52Z</time>
      </trkpt>
      <trkpt lat="45.50578" lon="3.22779">
        <ele>544</ele>
        <time>2012-08-08T09:37:00Z</time>
      </trkpt>
      <trkpt lat="45.50575" lon="3.22806">
        <ele>546</ele>
        <time>2012-08-08T09:37:09Z</time>
      </trkpt>
      <trkpt lat="45.50572" lon="3.22832">
        <ele>548</ele>
        <time>2012-08-08T09:37:19Z</time>
      </trkpt>
      <trkpt lat="45.50554" lon="3.22812">
        <ele>546</ele>
        <time>2012-08-08T09:37:30Z</time>
      </trkpt>
      <trkpt lat="45.50543" lon="3.22791">
        <ele>545</ele>
        <time>2012-08-08T09:37:37Z</time>
      </trkpt>
      <trkpt lat="45.5054" lon="3.22765">
        <ele>543</ele>
        <time>2012-08-08T09:37:42Z</time>
      </trkpt>
      <trkpt lat="45.50519" lon="3.22747">
        <ele>537</ele>
        <time>2012-08-08T09:37:45Z</time>
      </trkpt>
      <trkpt lat="45.50503" lon="3.22724">
        <ele>536</ele>
        <time>2012-08-08T09:37:47Z</time>
      </trkpt>
      <trkpt lat="45.50453" lon="3.22673">
        <ele>535</ele>
        <time>2012-08-08T09:37:54Z</time>
      </trkpt>
      <trkpt lat="45.50377" lon="3.2252">
        <ele>522</ele>
        <time>2012-08-08T09:38:19Z</time>
      </trkpt>
      <trkpt lat="45.50358" lon="3.22516">
        <ele>522</ele>
        <time>2012-08-08T09:38:22Z</time>
      </trkpt>
      <trkpt lat="45.50339" lon="3.22507">
        <ele>521</ele>
        <time>2012-08-08T09:38:29Z</time>
      </trkpt>
      <trkpt lat="45.50321" lon="3.22499">
        <ele>518</ele>
        <time>2012-08-08T09:38:37Z</time>
      </trkpt>
      <trkpt lat="45.50237" lon="3.22383">
        <ele>507</ele>
        <time>2012-08-08T09:38:51Z</time>
      </trkpt>
      <trkpt lat="45.5021" lon="3.22372">
        <ele>506</ele>
        <time>2012-08-08T09:38:53Z</time>
      </trkpt>
      <trkpt lat="45.50191" lon="3.2236">
        <ele>506</ele>
        <time>2012-08-08T09:38:56Z</time>
      </trkpt>
      <trkpt lat="45.50178" lon="3.22336">
        <ele>504</ele>
        <time>2012-08-08T09:39:01Z</time>
      </trkpt>
      <trkpt lat="45.50158" lon="3.22319">
        <ele>500</ele>
        <time>2012-08-08T09:39:05Z</time>
      </trkpt>
      <trkpt lat="45.5014" lon="3.2231">
        <ele>498</ele>
        <time>2012-08-08T09:39:07Z</time>
      </trkpt>
      <trkpt lat="45.5012" lon="3.22293">
        <ele>497</ele>
        <time>2012-08-08T09:39:10Z</time>
      </trkpt>
      <trkpt lat="45.50106" lon="3.22276">
        <ele>496</ele>
        <time>2012-08-08T09:39:12Z</time>
      </trkpt>
      <trkpt lat="45.50093" lon="3.22256">
        <ele>494</ele>
        <time>2012-08-08T09:39:14Z</time>
      </trkpt>
      <trkpt lat="45.50081" lon="3.22227">
        <ele>489</ele>
        <time>2012-08-08T09:39:16Z</time>
      </trkpt>
      <trkpt lat="45.5007" lon="3.22199">
        <ele>487</ele>
        <time>2012-08-08T09:39:18Z</time>
      </trkpt>
      <trkpt lat="45.50059" lon="3.22175">
        <ele>487</ele>
        <time>2012-08-08T09:39:21Z</time>
      </trkpt>
      <trkpt lat="45.5004" lon="3.22181">
        <ele>486</ele>
        <time>2012-08-08T09:39:31Z</time>
      </trkpt>
      <trkpt lat="45.50021" lon="3.2218">
        <ele>485</ele>
        <time>2012-08-08T09:39:35Z</time>
      </trkpt>
      <trkpt lat="45.49998" lon="3.22177">
        <ele>482</ele>
        <time>2012-08-08T09:39:39Z</time>
      </trkpt>
      <trkpt lat="45.49977" lon="3.22173">
        <ele>482</ele>
        <time>2012-08-08T09:39:42Z</time>
      </trkpt>
      <trkpt lat="45.49957" lon="3.2217">
        <ele>482</ele>
        <time>2012-08-08T09:39:45Z</time>
      </trkpt>
      <trkpt lat="45.49937" lon="3.22172">
        <ele>481</ele>
        <time>2012-08-08T09:39:48Z</time>
      </trkpt>
      <trkpt lat="45.49916" lon="3.22172">
        <ele>479</ele>
        <time>2012-08-08T09:39:51Z</time>
      </trkpt>
      <trkpt lat="45.4989" lon="3.22167">
        <ele>480</ele>
        <time>2012-08-08T09:39:54Z</time>
      </trkpt>
      <trkpt lat="45.49866" lon="3.22165">
        <ele>476</ele>
        <time>2012-08-08T09:39:57Z</time>
      </trkpt>
      <trkpt lat="45.49844" lon="3.22171">
        <ele>478</ele>
        <time>2012-08-08T09:40:02Z</time>
      </trkpt>
      <trkpt lat="45.49826" lon="3.22176">
        <ele>477</ele>
        <time>2012-08-08T09:40:04Z</time>
      </trkpt>
      <trkpt lat="45.49805" lon="3.22186">
        <ele>478</ele>
        <time>2012-08-08T09:40:08Z</time>
      </trkpt>
      <trkpt lat="45.49784" lon="3.22196">
        <ele>478</ele>
        <time>2012-08-08T09:40:12Z</time>
      </trkpt>
      <trkpt lat="45.49762" lon="3.22199">
        <ele>478</ele>
        <time>2012-08-08T09:40:16Z</time>
      </trkpt>
      <trkpt lat="45.49741" lon="3.22197">
        <ele>477</ele>
        <time>2012-08-08T09:40:20Z</time>
      </trkpt>
      <trkpt lat="45.49721" lon="3.22191">
        <ele>477</ele>
        <time>2012-08-08T09:40:24Z</time>
      </trkpt>
      <trkpt lat="45.49701" lon="3.2219">
        <ele>477</ele>
        <time>2012-08-08T09:40:28Z</time>
      </trkpt>
      <trkpt lat="45.49678" lon="3.22188">
        <ele>476</ele>
        <time>2012-08-08T09:40:32Z</time>
      </trkpt>
      <trkpt lat="45.49655" lon="3.22187">
        <ele>476</ele>
        <time>2012-08-08T09:40:36Z</time>
      </trkpt>
      <trkpt lat="45.49632" lon="3.22183">
        <ele>476</ele>
        <time>2012-08-08T09:40:40Z</time>
      </trkpt>
      <trkpt lat="45.49608" lon="3.22188">
        <ele>476</ele>
        <time>2012-08-08T09:40:44Z</time>
      </trkpt>
      <trkpt lat="45.49585" lon="3.22187">
        <ele>475</ele>
        <time>2012-08-08T09:40:47Z</time>
      </trkpt>
      <trkpt lat="45.49561" lon="3.22189">
        <ele>475</ele>
        <time>2012-08-08T09:40:52Z</time>
      </trkpt>
      <trkpt lat="45.49541" lon="3.22194">
        <ele>475</ele>
        <time>2012-08-08T09:40:56Z</time>
      </trkpt>
      <trkpt lat="45.49524" lon="3.22202">
        <ele>475</ele>
        <time>2012-08-08T09:41:01Z</time>
      </trkpt>
      <trkpt lat="45.495" lon="3.22197">
        <ele>474</ele>
        <time>2012-08-08T09:41:05Z</time>
      </trkpt>
      <trkpt lat="45.49478" lon="3.22201">
        <ele>473</ele>
        <time>2012-08-08T09:41:09Z</time>
      </trkpt>
      <trkpt lat="45.49454" lon="3.22201">
        <ele>473</ele>
        <time>2012-08-08T09:41:13Z</time>
      </trkpt>
      <trkpt lat="45.49434" lon="3.22206">
        <ele>473</ele>
        <time>2012-08-08T09:41:17Z</time>
      </trkpt>
      <trkpt lat="45.49412" lon="3.22214">
        <ele>472</ele>
        <time>2012-08-08T09:41:21Z</time>
      </trkpt>
      <trkpt lat="45.49393" lon="3.22221">
        <ele>473</ele>
        <time>2012-08-08T09:41:25Z</time>
      </trkpt>
      <trkpt lat="45.49373" lon="3.22227">
        <ele>473</ele>
        <time>2012-08-08T09:41:29Z</time>
      </trkpt>
      <trkpt lat="45.49353" lon="3.22235">
        <ele>473</ele>
        <time>2012-08-08T09:41:34Z</time>
      </trkpt>
      <trkpt lat="45.49332" lon="3.22241">
        <ele>474</ele>
        <time>2012-08-08T09:41:40Z</time>
      </trkpt>
      <trkpt lat="45.49312" lon="3.22248">
        <ele>473</ele>
        <time>2012-08-08T09:41:45Z</time>
      </trkpt>
      <trkpt lat="45.49302" lon="3.22269">
        <ele>476</ele>
        <time>2012-08-08T09:41:50Z</time>
      </trkpt>
      <trkpt lat="45.49296" lon="3.22294">
        <ele>477</ele>
        <time>2012-08-08T09:41:55Z</time>
      </trkpt>
      <trkpt lat="45.49297" lon="3.22323">
        <ele>478</ele>
        <time>2012-08-08T09:42:02Z</time>
      </trkpt>
      <trkpt lat="45.49278" lon="3.22339">
        <ele>482</ele>
        <time>2012-08-08T09:42:11Z</time>
      </trkpt>
      <trkpt lat="45.49259" lon="3.22337">
        <ele>481</ele>
        <time>2012-08-08T09:42:16Z</time>
      </trkpt>
      <trkpt lat="45.49241" lon="3.22338">
        <ele>480</ele>
        <time>2012-08-08T09:42:20Z</time>
      </trkpt>
      <trkpt lat="45.49221" lon="3.22338">
        <ele>480</ele>
        <time>2012-08-08T09:42:24Z</time>
      </trkpt>
      <trkpt lat="45.492" lon="3.22344">
        <ele>480</ele>
        <time>2012-08-08T09:42:29Z</time>
      </trkpt>
      <trkpt lat="45.49179" lon="3.22351">
        <ele>479</ele>
        <time>2012-08-08T09:42:32Z</time>
      </trkpt>
      <trkpt lat="45.49159" lon="3.2236">
        <ele>478</ele>
        <time>2012-08-08T09:42:37Z</time>
      </trkpt>
      <trkpt lat="45.49138" lon="3.22363">
        <ele>478</ele>
        <time>2012-08-08T09:42:41Z</time>
      </trkpt>
      <trkpt lat="45.49118" lon="3.22367">
        <ele>477</ele>
        <time>2012-08-08T09:42:45Z</time>
      </trkpt>
      <trkpt lat="45.49099" lon="3.22369">
        <ele>477</ele>
        <time>2012-08-08T09:42:49Z</time>
      </trkpt>
      <trkpt lat="45.49076" lon="3.22372">
        <ele>474</ele>
        <time>2012-08-08T09:42:53Z</time>
      </trkpt>
      <trkpt lat="45.49053" lon="3.22374">
        <ele>474</ele>
        <time>2012-08-08T09:42:56Z</time>
      </trkpt>
      <trkpt lat="45.49032" lon="3.22378">
        <ele>473</ele>
        <time>2012-08-08T09:42:59Z</time>
      </trkpt>
      <trkpt lat="45.49013" lon="3.22384">
        <ele>473</ele>
        <time>2012-08-08T09:43:02Z</time>
      </trkpt>
      <trkpt lat="45.48993" lon="3.2239">
        <ele>472</ele>
        <time>2012-08-08T09:43:05Z</time>
      </trkpt>
      <trkpt lat="45.48975" lon="3.22393">
        <ele>471</ele>
        <time>2012-08-08T09:43:08Z</time>
      </trkpt>
      <trkpt lat="45.48956" lon="3.2239">
        <ele>471</ele>
        <time>2012-08-08T09:43:14Z</time>
      </trkpt>
      <trkpt lat="45.48934" lon="3.22385">
        <ele>470</ele>
        <time>2012-08-08T09:44:50Z</time>
      </trkpt>
      <trkpt lat="45.48914" lon="3.22377">
        <ele>468</ele>
        <time>2012-08-08T09:44:54Z</time>
      </trkpt>
      <trkpt lat="45.48894" lon="3.2237">
        <ele>467</ele>
        <time>2012-08-08T09:44:57Z</time>
      </trkpt>
      <trkpt lat="45.48874" lon="3.22366">
        <ele>467</ele>
        <time>2012-08-08T09:45:00Z</time>
      </trkpt>
      <trkpt lat="45.48851" lon="3.22362">
        <ele>466</ele>
        <time>2012-08-08T09:45:03Z</time>
      </trkpt>
      <trkpt lat="45.48827" lon="3.22354">
        <ele>464</ele>
        <time>2012-08-08T09:45:06Z</time>
      </trkpt>
      <trkpt lat="45.48801" lon="3.22343">
        <ele>463</ele>
        <time>2012-08-08T09:45:09Z</time>
      </trkpt>
      <trkpt lat="45.48776" lon="3.22335">
        <ele>462</ele>
        <time>2012-08-08T09:45:12Z</time>
      </trkpt>
      <trkpt lat="45.48751" lon="3.22328">
        <ele>458</ele>
        <time>2012-08-08T09:45:15Z</time>
      </trkpt>
      <trkpt lat="45.48733" lon="3.22325">
        <ele>455</ele>
        <time>2012-08-08T09:45:17Z</time>
      </trkpt>
      <trkpt lat="45.48714" lon="3.22323">
        <ele>454</ele>
        <time>2012-08-08T09:45:19Z</time>
      </trkpt>
      <trkpt lat="45.48696" lon="3.2232">
        <ele>453</ele>
        <time>2012-08-08T09:45:21Z</time>
      </trkpt>
      <trkpt lat="45.48671" lon="3.22315">
        <ele>453</ele>
        <time>2012-08-08T09:45:24Z</time>
      </trkpt>
      <trkpt lat="45.48647" lon="3.22308">
        <ele>450</ele>
        <time>2012-08-08T09:45:27Z</time>
      </trkpt>
      <trkpt lat="45.48621" lon="3.22303">
        <ele>450</ele>
        <time>2012-08-08T09:45:30Z</time>
      </trkpt>
      <trkpt lat="45.48602" lon="3.22298">
        <ele>449</ele>
        <time>2012-08-08T09:45:32Z</time>
      </trkpt>
      <trkpt lat="45.48576" lon="3.22283">
        <ele>447</ele>
        <time>2012-08-08T09:45:35Z</time>
      </trkpt>
      <trkpt lat="45.48559" lon="3.22272">
        <ele>447</ele>
        <time>2012-08-08T09:45:37Z</time>
      </trkpt>
      <trkpt lat="45.4854" lon="3.2226">
        <ele>446</ele>
        <time>2012-08-08T09:45:40Z</time>
      </trkpt>
      <trkpt lat="45.48528" lon="3.22239">
        <ele>442</ele>
        <time>2012-08-08T09:45:43Z</time>
      </trkpt>
      <trkpt lat="45.48527" lon="3.22207">
        <ele>441</ele>
        <time>2012-08-08T09:45:46Z</time>
      </trkpt>
      <trkpt lat="45.48525" lon="3.22177">
        <ele>440</ele>
        <time>2012-08-08T09:45:49Z</time>
      </trkpt>
      <trkpt lat="45.48522" lon="3.22144">
        <ele>439</ele>
        <time>2012-08-08T09:45:52Z</time>
      </trkpt>
      <trkpt lat="45.48521" lon="3.22112">
        <ele>439</ele>
        <time>2012-08-08T09:45:55Z</time>
      </trkpt>
      <trkpt lat="45.48518" lon="3.22081">
        <ele>438</ele>
        <time>2012-08-08T09:45:58Z</time>
      </trkpt>
      <trkpt lat="45.48515" lon="3.22054">
        <ele>438</ele>
        <time>2012-08-08T09:46:01Z</time>
      </trkpt>
      <trkpt lat="45.48496" lon="3.22044">
        <ele>434</ele>
        <time>2012-08-08T09:46:06Z</time>
      </trkpt>
      <trkpt lat="45.48474" lon="3.22052">
        <ele>434</ele>
        <time>2012-08-08T09:46:10Z</time>
      </trkpt>
      <trkpt lat="45.48455" lon="3.22061">
        <ele>433</ele>
        <time>2012-08-08T09:46:13Z</time>
      </trkpt>
      <trkpt lat="45.48433" lon="3.2207">
        <ele>433</ele>
        <time>2012-08-08T09:46:16Z</time>
      </trkpt>
      <trkpt lat="45.48411" lon="3.22079">
        <ele>431</ele>
        <time>2012-08-08T09:46:19Z</time>
      </trkpt>
      <trkpt lat="45.48388" lon="3.22088">
        <ele>432</ele>
        <time>2012-08-08T09:46:22Z</time>
      </trkpt>
      <trkpt lat="45.48364" lon="3.22097">
        <ele>432</ele>
        <time>2012-08-08T09:46:25Z</time>
      </trkpt>
      <trkpt lat="45.48342" lon="3.22104">
        <ele>432</ele>
        <time>2012-08-08T09:46:28Z</time>
      </trkpt>
      <trkpt lat="45.48319" lon="3.22105">
        <ele>432</ele>
        <time>2012-08-08T09:46:31Z</time>
      </trkpt>
      <trkpt lat="45.48299" lon="3.22104">
        <ele>432</ele>
        <time>2012-08-08T09:46:34Z</time>
      </trkpt>
      <trkpt lat="45.48277" lon="3.22099">
        <ele>432</ele>
        <time>2012-08-08T09:46:37Z</time>
      </trkpt>
      <trkpt lat="45.48259" lon="3.22095">
        <ele>431</ele>
        <time>2012-08-08T09:46:40Z</time>
      </trkpt>
      <trkpt lat="45.48239" lon="3.22089">
        <ele>431</ele>
        <time>2012-08-08T09:46:42Z</time>
      </trkpt>
      <trkpt lat="45.48218" lon="3.22085">
        <ele>432</ele>
        <time>2012-08-08T09:46:46Z</time>
      </trkpt>
      <trkpt lat="45.48197" lon="3.22086">
        <ele>432</ele>
        <time>2012-08-08T09:46:49Z</time>
      </trkpt>
      <trkpt lat="45.48172" lon="3.22084">
        <ele>430</ele>
        <time>2012-08-08T09:46:52Z</time>
      </trkpt>
      <trkpt lat="45.48148" lon="3.22088">
        <ele>430</ele>
        <time>2012-08-08T09:46:55Z</time>
      </trkpt>
      <trkpt lat="45.48123" lon="3.22093">
        <ele>431</ele>
        <time>2012-08-08T09:46:57Z</time>
      </trkpt>
      <trkpt lat="45.48101" lon="3.22095">
        <ele>430</ele>
        <time>2012-08-08T09:47:01Z</time>
      </trkpt>
      <trkpt lat="45.48081" lon="3.22091">
        <ele>429</ele>
        <time>2012-08-08T09:47:04Z</time>
      </trkpt>
      <trkpt lat="45.48062" lon="3.22075">
        <ele>426</ele>
        <time>2012-08-08T09:47:08Z</time>
      </trkpt>
      <trkpt lat="45.48077" lon="3.2206">
        <ele>426</ele>
        <time>2012-08-08T09:47:19Z</time>
      </trkpt>
      <trkpt lat="45.48098" lon="3.2205">
        <ele>426</ele>
        <time>2012-08-08T09:47:23Z</time>
      </trkpt>
      <trkpt lat="45.48112" lon="3.22027">
        <ele>425</ele>
        <time>2012-08-08T09:47:26Z</time>
      </trkpt>
      <trkpt lat="45.48114" lon="3.21995">
        <ele>421</ele>
        <time>2012-08-08T09:47:29Z</time>
      </trkpt>
      <trkpt lat="45.48105" lon="3.21972">
        <ele>421</ele>
        <time>2012-08-08T09:47:31Z</time>
      </trkpt>
      <trkpt lat="45.48097" lon="3.21938">
        <ele>420</ele>
        <time>2012-08-08T09:47:34Z</time>
      </trkpt>
      <trkpt lat="45.48084" lon="3.21908">
        <ele>419</ele>
        <time>2012-08-08T09:47:37Z</time>
      </trkpt>
      <trkpt lat="45.48067" lon="3.21885">
        <ele>419</ele>
        <time>2012-08-08T09:47:40Z</time>
      </trkpt>
      <trkpt lat="45.48053" lon="3.21857">
        <ele>420</ele>
        <time>2012-08-08T09:47:43Z</time>
      </trkpt>
      <trkpt lat="45.48035" lon="3.21842">
        <ele>420</ele>
        <time>2012-08-08T09:47:46Z</time>
      </trkpt>
      <trkpt lat="45.48017" lon="3.21829">
        <ele>421</ele>
        <time>2012-08-08T09:47:49Z</time>
      </trkpt>
      <trkpt lat="45.47994" lon="3.21822">
        <ele>421</ele>
        <time>2012-08-08T09:47:53Z</time>
      </trkpt>
      <trkpt lat="45.47975" lon="3.21826">
        <ele>421</ele>
        <time>2012-08-08T09:47:56Z</time>
      </trkpt>
      <trkpt lat="45.47953" lon="3.21823">
        <ele>422</ele>
        <time>2012-08-08T09:47:59Z</time>
      </trkpt>
      <trkpt lat="45.47937" lon="3.21811">
        <ele>422</ele>
        <time>2012-08-08T09:48:03Z</time>
      </trkpt>
      <trkpt lat="45.47917" lon="3.21806">
        <ele>422</ele>
        <time>2012-08-08T09:48:07Z</time>
      </trkpt>
      <trkpt lat="45.47901" lon="3.21788">
        <ele>422</ele>
        <time>2012-08-08T09:48:12Z</time>
      </trkpt>
      <trkpt lat="45.47883" lon="3.2177">
        <ele>422</ele>
        <time>2012-08-08T09:48:16Z</time>
      </trkpt>
      <trkpt lat="45.47865" lon="3.21764">
        <ele>422</ele>
        <time>2012-08-08T09:48:20Z</time>
      </trkpt>
      <trkpt lat="45.47844" lon="3.21753">
        <ele>424</ele>
        <time>2012-08-08T09:48:24Z</time>
      </trkpt>
      <trkpt lat="45.47825" lon="3.21743">
        <ele>425</ele>
        <time>2012-08-08T09:48:28Z</time>
      </trkpt>
      <trkpt lat="45.47803" lon="3.21733">
        <ele>425</ele>
        <time>2012-08-08T09:48:32Z</time>
      </trkpt>
      <trkpt lat="45.47782" lon="3.21721">
        <ele>425</ele>
        <time>2012-08-08T09:48:36Z</time>
      </trkpt>
      <trkpt lat="45.47761" lon="3.21711">
        <ele>425</ele>
        <time>2012-08-08T09:48:40Z</time>
      </trkpt>
      <trkpt lat="45.47743" lon="3.21702">
        <ele>424</ele>
        <time>2012-08-08T09:48:43Z</time>
      </trkpt>
      <trkpt lat="45.47725" lon="3.21684">
        <ele>424</ele>
        <time>2012-08-08T09:48:47Z</time>
      </trkpt>
      <trkpt lat="45.47706" lon="3.21689">
        <ele>424</ele>
        <time>2012-08-08T09:48:54Z</time>
      </trkpt>
      <trkpt lat="45.4769" lon="3.21674">
        <ele>424</ele>
        <time>2012-08-08T09:48:59Z</time>
      </trkpt>
      <trkpt lat="45.47673" lon="3.2166">
        <ele>427</ele>
        <time>2012-08-08T09:49:05Z</time>
      </trkpt>
      <trkpt lat="45.47656" lon="3.21645">
        <ele>428</ele>
        <time>2012-08-08T09:49:11Z</time>
      </trkpt>
      <trkpt lat="45.47638" lon="3.21631">
        <ele>429</ele>
        <time>2012-08-08T09:49:17Z</time>
      </trkpt>
      <trkpt lat="45.47623" lon="3.21616">
        <ele>430</ele>
        <time>2012-08-08T09:49:23Z</time>
      </trkpt>
      <trkpt lat="45.47604" lon="3.216">
        <ele>431</ele>
        <time>2012-08-08T09:49:29Z</time>
      </trkpt>
      <trkpt lat="45.47586" lon="3.21584">
        <ele>433</ele>
        <time>2012-08-08T09:49:35Z</time>
      </trkpt>
      <trkpt lat="45.47571" lon="3.2157">
        <ele>434</ele>
        <time>2012-08-08T09:49:40Z</time>
      </trkpt>
      <trkpt lat="45.47552" lon="3.21555">
        <ele>435</ele>
        <time>2012-08-08T09:49:45Z</time>
      </trkpt>
      <trkpt lat="45.47534" lon="3.2154">
        <ele>435</ele>
        <time>2012-08-08T09:49:50Z</time>
      </trkpt>
      <trkpt lat="45.47515" lon="3.21525">
        <ele>436</ele>
        <time>2012-08-08T09:49:55Z</time>
      </trkpt>
      <trkpt lat="45.47496" lon="3.2151">
        <ele>438</ele>
        <time>2012-08-08T09:50:00Z</time>
      </trkpt>
      <trkpt lat="45.47479" lon="3.21496">
        <ele>441</ele>
        <time>2012-08-08T09:50:05Z</time>
      </trkpt>
      <trkpt lat="45.47463" lon="3.21482">
        <ele>442</ele>
        <time>2012-08-08T09:50:10Z</time>
      </trkpt>
      <trkpt lat="45.47444" lon="3.21473">
        <ele>442</ele>
        <time>2012-08-08T09:50:16Z</time>
      </trkpt>
      <trkpt lat="45.47425" lon="3.21479">
        <ele>442</ele>
        <time>2012-08-08T09:50:22Z</time>
      </trkpt>
      <trkpt lat="45.47408" lon="3.21486">
        <ele>444</ele>
        <time>2012-08-08T09:50:28Z</time>
      </trkpt>
      <trkpt lat="45.47388" lon="3.21497">
        <ele>445</ele>
        <time>2012-08-08T09:50:34Z</time>
      </trkpt>
      <trkpt lat="45.47371" lon="3.21506">
        <ele>440</ele>
        <time>2012-08-08T09:50:39Z</time>
      </trkpt>
      <trkpt lat="45.47352" lon="3.21516">
        <ele>441</ele>
        <time>2012-08-08T09:50:44Z</time>
      </trkpt>
      <trkpt lat="45.47333" lon="3.21527">
        <ele>444</ele>
        <time>2012-08-08T09:50:49Z</time>
      </trkpt>
      <trkpt lat="45.47312" lon="3.21535">
        <ele>443</ele>
        <time>2012-08-08T09:50:53Z</time>
      </trkpt>
      <trkpt lat="45.47292" lon="3.21544">
        <ele>443</ele>
        <time>2012-08-08T09:50:57Z</time>
      </trkpt>
      <trkpt lat="45.47269" lon="3.21554">
        <ele>443</ele>
        <time>2012-08-08T09:51:01Z</time>
      </trkpt>
      <trkpt lat="45.47247" lon="3.21563">
        <ele>445</ele>
        <time>2012-08-08T09:51:05Z</time>
      </trkpt>
      <trkpt lat="45.47229" lon="3.21572">
        <ele>446</ele>
        <time>2012-08-08T09:51:09Z</time>
      </trkpt>
      <trkpt lat="45.4721" lon="3.21582">
        <ele>447</ele>
        <time>2012-08-08T09:51:13Z</time>
      </trkpt>
      <trkpt lat="45.47191" lon="3.21592">
        <ele>442</ele>
        <time>2012-08-08T09:51:17Z</time>
      </trkpt>
      <trkpt lat="45.47169" lon="3.216">
        <ele>443</ele>
        <time>2012-08-08T09:51:22Z</time>
      </trkpt>
      <trkpt lat="45.4715" lon="3.21609">
        <ele>446</ele>
        <time>2012-08-08T09:51:26Z</time>
      </trkpt>
      <trkpt lat="45.47133" lon="3.21616">
        <ele>446</ele>
        <time>2012-08-08T09:51:30Z</time>
      </trkpt>
      <trkpt lat="45.47111" lon="3.2162">
        <ele>447</ele>
        <time>2012-08-08T09:51:35Z</time>
      </trkpt>
      <trkpt lat="45.47093" lon="3.21625">
        <ele>447</ele>
        <time>2012-08-08T09:51:39Z</time>
      </trkpt>
      <trkpt lat="45.47074" lon="3.21632">
        <ele>451</ele>
        <time>2012-08-08T09:51:43Z</time>
      </trkpt>
      <trkpt lat="45.47055" lon="3.21639">
        <ele>452</ele>
        <time>2012-08-08T09:51:48Z</time>
      </trkpt>
      <trkpt lat="45.47038" lon="3.21647">
        <ele>453</ele>
        <time>2012-08-08T09:51:54Z</time>
      </trkpt>
      <trkpt lat="45.47018" lon="3.21655">
        <ele>453</ele>
        <time>2012-08-08T09:52:00Z</time>
      </trkpt>
      <trkpt lat="45.46999" lon="3.21663">
        <ele>454</ele>
        <time>2012-08-08T09:52:06Z</time>
      </trkpt>
      <trkpt lat="45.4698" lon="3.21673">
        <ele>453</ele>
        <time>2012-08-08T09:52:13Z</time>
      </trkpt>
      <trkpt lat="45.46961" lon="3.21684">
        <ele>454</ele>
        <time>2012-08-08T09:52:19Z</time>
      </trkpt>
      <trkpt lat="45.46941" lon="3.21697">
        <ele>455</ele>
        <time>2012-08-08T09:52:24Z</time>
      </trkpt>
      <trkpt lat="45.46922" lon="3.21708">
        <ele>454</ele>
        <time>2012-08-08T09:52:28Z</time>
      </trkpt>
      <trkpt lat="45.46903" lon="3.21719">
        <ele>456</ele>
        <time>2012-08-08T09:52:32Z</time>
      </trkpt>
      <trkpt lat="45.46886" lon="3.21729">
        <ele>456</ele>
        <time>2012-08-08T09:52:35Z</time>
      </trkpt>
      <trkpt lat="45.46867" lon="3.21737">
        <ele>456</ele>
        <time>2012-08-08T09:52:38Z</time>
      </trkpt>
      <trkpt lat="45.46845" lon="3.21747">
        <ele>454</ele>
        <time>2012-08-08T09:52:42Z</time>
      </trkpt>
      <trkpt lat="45.46821" lon="3.21758">
        <ele>451</ele>
        <time>2012-08-08T09:52:46Z</time>
      </trkpt>
      <trkpt lat="45.46803" lon="3.21763">
        <ele>451</ele>
        <time>2012-08-08T09:52:49Z</time>
      </trkpt>
      <trkpt lat="45.46779" lon="3.21767">
        <ele>451</ele>
        <time>2012-08-08T09:52:53Z</time>
      </trkpt>
      <trkpt lat="45.46759" lon="3.21768">
        <ele>452</ele>
        <time>2012-08-08T09:52:57Z</time>
      </trkpt>
      <trkpt lat="45.46738" lon="3.21767">
        <ele>453</ele>
        <time>2012-08-08T09:53:01Z</time>
      </trkpt>
      <trkpt lat="45.46718" lon="3.2177">
        <ele>452</ele>
        <time>2012-08-08T09:53:06Z</time>
      </trkpt>
      <trkpt lat="45.46697" lon="3.21768">
        <ele>453</ele>
        <time>2012-08-08T09:53:12Z</time>
      </trkpt>
      <trkpt lat="45.46677" lon="3.21767">
        <ele>454</ele>
        <time>2012-08-08T09:53:17Z</time>
      </trkpt>
      <trkpt lat="45.46659" lon="3.21768">
        <ele>455</ele>
        <time>2012-08-08T09:53:21Z</time>
      </trkpt>
      <trkpt lat="45.46638" lon="3.21769">
        <ele>454</ele>
        <time>2012-08-08T09:53:25Z</time>
      </trkpt>
      <trkpt lat="45.4662" lon="3.21766">
        <ele>454</ele>
        <time>2012-08-08T09:53:28Z</time>
      </trkpt>
      <trkpt lat="45.46598" lon="3.21765">
        <ele>454</ele>
        <time>2012-08-08T09:53:31Z</time>
      </trkpt>
      <trkpt lat="45.46578" lon="3.21763">
        <ele>455</ele>
        <time>2012-08-08T09:53:34Z</time>
      </trkpt>
      <trkpt lat="45.46558" lon="3.2176">
        <ele>454</ele>
        <time>2012-08-08T09:53:37Z</time>
      </trkpt>
      <trkpt lat="45.46536" lon="3.2176">
        <ele>454</ele>
        <time>2012-08-08T09:53:40Z</time>
      </trkpt>
      <trkpt lat="45.46513" lon="3.21755">
        <ele>455</ele>
        <time>2012-08-08T09:53:43Z</time>
      </trkpt>
      <trkpt lat="45.46492" lon="3.21753">
        <ele>455</ele>
        <time>2012-08-08T09:53:45Z</time>
      </trkpt>
      <trkpt lat="45.46471" lon="3.21752">
        <ele>454</ele>
        <time>2012-08-08T09:53:49Z</time>
      </trkpt>
      <trkpt lat="45.46451" lon="3.21751">
        <ele>454</ele>
        <time>2012-08-08T09:53:52Z</time>
      </trkpt>
      <trkpt lat="45.4643" lon="3.21748">
        <ele>457</ele>
        <time>2012-08-08T09:53:54Z</time>
      </trkpt>
      <trkpt lat="45.46411" lon="3.21746">
        <ele>456</ele>
        <time>2012-08-08T09:53:58Z</time>
      </trkpt>
      <trkpt lat="45.46393" lon="3.21742">
        <ele>457</ele>
        <time>2012-08-08T09:54:01Z</time>
      </trkpt>
      <trkpt lat="45.46372" lon="3.21741">
        <ele>457</ele>
        <time>2012-08-08T09:54:05Z</time>
      </trkpt>
      <trkpt lat="45.46351" lon="3.21739">
        <ele>457</ele>
        <time>2012-08-08T09:54:09Z</time>
      </trkpt>
      <trkpt lat="45.46332" lon="3.21737">
        <ele>457</ele>
        <time>2012-08-08T09:54:13Z</time>
      </trkpt>
      <trkpt lat="45.46314" lon="3.21737">
        <ele>458</ele>
        <time>2012-08-08T09:54:17Z</time>
      </trkpt>
      <trkpt lat="45.46294" lon="3.21738">
        <ele>458</ele>
        <time>2012-08-08T09:54:21Z</time>
      </trkpt>
      <trkpt lat="45.46274" lon="3.21738">
        <ele>458</ele>
        <time>2012-08-08T09:54:26Z</time>
      </trkpt>
      <trkpt lat="45.46251" lon="3.21737">
        <ele>458</ele>
        <time>2012-08-08T09:54:31Z</time>
      </trkpt>
      <trkpt lat="45.46231" lon="3.21735">
        <ele>459</ele>
        <time>2012-08-08T09:54:35Z</time>
      </trkpt>
      <trkpt lat="45.46211" lon="3.21733">
        <ele>460</ele>
        <time>2012-08-08T09:54:39Z</time>
      </trkpt>
      <trkpt lat="45.46191" lon="3.21729">
        <ele>460</ele>
        <time>2012-08-08T09:54:43Z</time>
      </trkpt>
      <trkpt lat="45.46171" lon="3.21729">
        <ele>460</ele>
        <time>2012-08-08T09:54:47Z</time>
      </trkpt>
      <trkpt lat="45.46149" lon="3.2173">
        <ele>460</ele>
        <time>2012-08-08T09:54:52Z</time>
      </trkpt>
      <trkpt lat="45.4613" lon="3.21728">
        <ele>460</ele>
        <time>2012-08-08T09:54:56Z</time>
      </trkpt>
      <trkpt lat="45.46109" lon="3.21727">
        <ele>460</ele>
        <time>2012-08-08T09:55:00Z</time>
      </trkpt>
      <trkpt lat="45.46089" lon="3.21725">
        <ele>460</ele>
        <time>2012-08-08T09:55:03Z</time>
      </trkpt>
      <trkpt lat="45.46065" lon="3.21726">
        <ele>459</ele>
        <time>2012-08-08T09:55:07Z</time>
      </trkpt>
      <trkpt lat="45.46045" lon="3.21726">
        <ele>459</ele>
        <time>2012-08-08T09:55:11Z</time>
      </trkpt>
      <trkpt lat="45.46025" lon="3.21726">
        <ele>459</ele>
        <time>2012-08-08T09:55:14Z</time>
      </trkpt>
      <trkpt lat="45.46005" lon="3.21725">
        <ele>458</ele>
        <time>2012-08-08T09:55:17Z</time>
      </trkpt>
      <trkpt lat="45.45985" lon="3.21725">
        <ele>455</ele>
        <time>2012-08-08T09:55:20Z</time>
      </trkpt>
      <trkpt lat="45.45965" lon="3.21724">
        <ele>454</ele>
        <time>2012-08-08T09:55:23Z</time>
      </trkpt>
      <trkpt lat="45.45945" lon="3.21721">
        <ele>453</ele>
        <time>2012-08-08T09:55:26Z</time>
      </trkpt>
      <trkpt lat="45.45922" lon="3.21718">
        <ele>453</ele>
        <time>2012-08-08T09:55:29Z</time>
      </trkpt>
      <trkpt lat="45.45902" lon="3.21707">
        <ele>445</ele>
        <time>2012-08-08T09:55:33Z</time>
      </trkpt>
      <trkpt lat="45.45886" lon="3.21694">
        <ele>444</ele>
        <time>2012-08-08T09:55:35Z</time>
      </trkpt>
      <trkpt lat="45.4587" lon="3.21679">
        <ele>443</ele>
        <time>2012-08-08T09:55:39Z</time>
      </trkpt>
      <trkpt lat="45.45856" lon="3.21656">
        <ele>446</ele>
        <time>2012-08-08T09:55:43Z</time>
      </trkpt>
      <trkpt lat="45.45844" lon="3.21633">
        <ele>447</ele>
        <time>2012-08-08T09:55:46Z</time>
      </trkpt>
      <trkpt lat="45.45828" lon="3.21615">
        <ele>440</ele>
        <time>2012-08-08T09:55:49Z</time>
      </trkpt>
      <trkpt lat="45.45809" lon="3.21599">
        <ele>440</ele>
        <time>2012-08-08T09:55:52Z</time>
      </trkpt>
      <trkpt lat="45.45791" lon="3.21587">
        <ele>438</ele>
        <time>2012-08-08T09:55:55Z</time>
      </trkpt>
      <trkpt lat="45.45772" lon="3.21575">
        <ele>441</ele>
        <time>2012-08-08T09:55:58Z</time>
      </trkpt>
      <trkpt lat="45.45752" lon="3.21561">
        <ele>441</ele>
        <time>2012-08-08T09:56:02Z</time>
      </trkpt>
      <trkpt lat="45.45734" lon="3.21547">
        <ele>434</ele>
        <time>2012-08-08T09:56:06Z</time>
      </trkpt>
      <trkpt lat="45.45716" lon="3.21541">
        <ele>433</ele>
        <time>2012-08-08T09:56:11Z</time>
      </trkpt>
      <trkpt lat="45.45698" lon="3.2156">
        <ele>431</ele>
        <time>2012-08-08T09:56:15Z</time>
      </trkpt>
      <trkpt lat="45.4568" lon="3.2158">
        <ele>428</ele>
        <time>2012-08-08T09:56:17Z</time>
      </trkpt>
      <trkpt lat="45.45663" lon="3.21601">
        <ele>424</ele>
        <time>2012-08-08T09:56:21Z</time>
      </trkpt>
      <trkpt lat="45.45645" lon="3.21619">
        <ele>423</ele>
        <time>2012-08-08T09:56:24Z</time>
      </trkpt>
      <trkpt lat="45.45629" lon="3.21638">
        <ele>422</ele>
        <time>2012-08-08T09:56:27Z</time>
      </trkpt>
      <trkpt lat="45.45614" lon="3.21653">
        <ele>422</ele>
        <time>2012-08-08T09:56:31Z</time>
      </trkpt>
      <trkpt lat="45.456" lon="3.21631">
        <ele>422</ele>
        <time>2012-08-08T09:56:37Z</time>
      </trkpt>
      <trkpt lat="45.45588" lon="3.21607">
        <ele>422</ele>
        <time>2012-08-08T09:56:41Z</time>
      </trkpt>
      <trkpt lat="45.45579" lon="3.21585">
        <ele>421</ele>
        <time>2012-08-08T09:56:45Z</time>
      </trkpt>
      <trkpt lat="45.45566" lon="3.21559">
        <ele>421</ele>
        <time>2012-08-08T09:56:49Z</time>
      </trkpt>
      <trkpt lat="45.45553" lon="3.21534">
        <ele>422</ele>
        <time>2012-08-08T09:56:53Z</time>
      </trkpt>
      <trkpt lat="45.4554" lon="3.21507">
        <ele>422</ele>
        <time>2012-08-08T09:56:57Z</time>
      </trkpt>
      <trkpt lat="45.45525" lon="3.21483">
        <ele>423</ele>
        <time>2012-08-08T09:57:01Z</time>
      </trkpt>
      <trkpt lat="45.45509" lon="3.2146">
        <ele>423</ele>
        <time>2012-08-08T09:57:05Z</time>
      </trkpt>
      <trkpt lat="45.45495" lon="3.21443">
        <ele>423</ele>
        <time>2012-08-08T09:57:08Z</time>
      </trkpt>
      <trkpt lat="45.45482" lon="3.21425">
        <ele>423</ele>
        <time>2012-08-08T09:57:11Z</time>
      </trkpt>
      <trkpt lat="45.4547" lon="3.21405">
        <ele>424</ele>
        <time>2012-08-08T09:57:14Z</time>
      </trkpt>
      <trkpt lat="45.45458" lon="3.21385">
        <ele>424</ele>
        <time>2012-08-08T09:57:17Z</time>
      </trkpt>
      <trkpt lat="45.45447" lon="3.21365">
        <ele>424</ele>
        <time>2012-08-08T09:57:20Z</time>
      </trkpt>
      <trkpt lat="45.45433" lon="3.21337">
        <ele>424</ele>
        <time>2012-08-08T09:57:24Z</time>
      </trkpt>
      <trkpt lat="45.4542" lon="3.21311">
        <ele>425</ele>
        <time>2012-08-08T09:57:28Z</time>
      </trkpt>
      <trkpt lat="45.45409" lon="3.21284">
        <ele>425</ele>
        <time>2012-08-08T09:57:32Z</time>
      </trkpt>
      <trkpt lat="45.45404" lon="3.21251">
        <ele>425</ele>
        <time>2012-08-08T09:57:36Z</time>
      </trkpt>
      <trkpt lat="45.45398" lon="3.21219">
        <ele>426</ele>
        <time>2012-08-08T09:57:40Z</time>
      </trkpt>
      <trkpt lat="45.4539" lon="3.21189">
        <ele>426</ele>
        <time>2012-08-08T09:57:43Z</time>
      </trkpt>
      <trkpt lat="45.45386" lon="3.21163">
        <ele>427</ele>
        <time>2012-08-08T09:57:47Z</time>
      </trkpt>
      <trkpt lat="45.45381" lon="3.21132">
        <ele>427</ele>
        <time>2012-08-08T09:57:51Z</time>
      </trkpt>
      <trkpt lat="45.45373" lon="3.211">
        <ele>428</ele>
        <time>2012-08-08T09:57:55Z</time>
      </trkpt>
      <trkpt lat="45.45366" lon="3.2107">
        <ele>429</ele>
        <time>2012-08-08T09:57:59Z</time>
      </trkpt>
      <trkpt lat="45.4536" lon="3.21045">
        <ele>429</ele>
        <time>2012-08-08T09:58:02Z</time>
      </trkpt>
      <trkpt lat="45.45353" lon="3.21016">
        <ele>429</ele>
        <time>2012-08-08T09:58:06Z</time>
      </trkpt>
      <trkpt lat="45.45345" lon="3.20985">
        <ele>431</ele>
        <time>2012-08-08T09:58:10Z</time>
      </trkpt>
      <trkpt lat="45.45338" lon="3.20957">
        <ele>432</ele>
        <time>2012-08-08T09:58:14Z</time>
      </trkpt>
      <trkpt lat="45.4533" lon="3.20925">
        <ele>431</ele>
        <time>2012-08-08T09:58:18Z</time>
      </trkpt>
      <trkpt lat="45.45324" lon="3.209">
        <ele>433</ele>
        <time>2012-08-08T09:58:21Z</time>
      </trkpt>
      <trkpt lat="45.45316" lon="3.20876">
        <ele>434</ele>
        <time>2012-08-08T09:58:24Z</time>
      </trkpt>
      <trkpt lat="45.4531" lon="3.20851">
        <ele>435</ele>
        <time>2012-08-08T09:58:27Z</time>
      </trkpt>
      <trkpt lat="45.45301" lon="3.20821">
        <ele>439</ele>
        <time>2012-08-08T09:58:31Z</time>
      </trkpt>
      <trkpt lat="45.45292" lon="3.2079">
        <ele>439</ele>
        <time>2012-08-08T09:58:35Z</time>
      </trkpt>
      <trkpt lat="45.45284" lon="3.20759">
        <ele>440</ele>
        <time>2012-08-08T09:58:39Z</time>
      </trkpt>
      <trkpt lat="45.45279" lon="3.20731">
        <ele>443</ele>
        <time>2012-08-08T09:58:42Z</time>
      </trkpt>
      <trkpt lat="45.45273" lon="3.20705">
        <ele>443</ele>
        <time>2012-08-08T09:58:45Z</time>
      </trkpt>
      <trkpt lat="45.45267" lon="3.2068">
        <ele>442</ele>
        <time>2012-08-08T09:58:47Z</time>
      </trkpt>
      <trkpt lat="45.45261" lon="3.20653">
        <ele>442</ele>
        <time>2012-08-08T09:58:51Z</time>
      </trkpt>
      <trkpt lat="45.45257" lon="3.20625">
        <ele>444</ele>
        <time>2012-08-08T09:58:54Z</time>
      </trkpt>
      <trkpt lat="45.45253" lon="3.206">
        <ele>442</ele>
        <time>2012-08-08T09:58:57Z</time>
      </trkpt>
      <trkpt lat="45.45248" lon="3.20575">
        <ele>437</ele>
        <time>2012-08-08T09:59:00Z</time>
      </trkpt>
      <trkpt lat="45.45244" lon="3.20542">
        <ele>436</ele>
        <time>2012-08-08T09:59:04Z</time>
      </trkpt>
      <trkpt lat="45.45239" lon="3.20516">
        <ele>437</ele>
        <time>2012-08-08T09:59:07Z</time>
      </trkpt>
      <trkpt lat="45.45235" lon="3.20482">
        <ele>437</ele>
        <time>2012-08-08T09:59:11Z</time>
      </trkpt>
      <trkpt lat="45.45233" lon="3.20454">
        <ele>437</ele>
        <time>2012-08-08T09:59:14Z</time>
      </trkpt>
      <trkpt lat="45.45231" lon="3.20428">
        <ele>437</ele>
        <time>2012-08-08T09:59:17Z</time>
      </trkpt>
      <trkpt lat="45.45232" lon="3.20402">
        <ele>438</ele>
        <time>2012-08-08T09:59:20Z</time>
      </trkpt>
      <trkpt lat="45.45232" lon="3.20375">
        <ele>438</ele>
        <time>2012-08-08T09:59:23Z</time>
      </trkpt>
      <trkpt lat="45.45232" lon="3.20347">
        <ele>438</ele>
        <time>2012-08-08T09:59:26Z</time>
      </trkpt>
      <trkpt lat="45.45235" lon="3.20315">
        <ele>438</ele>
        <time>2012-08-08T09:59:30Z</time>
      </trkpt>
      <trkpt lat="45.45234" lon="3.20281">
        <ele>438</ele>
        <time>2012-08-08T09:59:34Z</time>
      </trkpt>
      <trkpt lat="45.45235" lon="3.2025">
        <ele>439</ele>
        <time>2012-08-08T09:59:38Z</time>
      </trkpt>
      <trkpt lat="45.45234" lon="3.20216">
        <ele>438</ele>
        <time>2012-08-08T09:59:42Z</time>
      </trkpt>
      <trkpt lat="45.45235" lon="3.20189">
        <ele>439</ele>
        <time>2012-08-08T09:59:45Z</time>
      </trkpt>
      <trkpt lat="45.45237" lon="3.20162">
        <ele>440</ele>
        <time>2012-08-08T09:59:48Z</time>
      </trkpt>
      <trkpt lat="45.45236" lon="3.20137">
        <ele>439</ele>
        <time>2012-08-08T09:59:51Z</time>
      </trkpt>
      <trkpt lat="45.45239" lon="3.20111">
        <ele>439</ele>
        <time>2012-08-08T09:59:54Z</time>
      </trkpt>
      <trkpt lat="45.45244" lon="3.20086">
        <ele>440</ele>
        <time>2012-08-08T09:59:57Z</time>
      </trkpt>
      <trkpt lat="45.45248" lon="3.20059">
        <ele>439</ele>
        <time>2012-08-08T10:00:00Z</time>
      </trkpt>
      <trkpt lat="45.45255" lon="3.20033">
        <ele>443</ele>
        <time>2012-08-08T10:00:03Z</time>
      </trkpt>
      <trkpt lat="45.45261" lon="3.2">
        <ele>441</ele>
        <time>2012-08-08T10:00:07Z</time>
      </trkpt>
      <trkpt lat="45.45268" lon="3.19968">
        <ele>442</ele>
        <time>2012-08-08T10:00:11Z</time>
      </trkpt>
      <trkpt lat="45.45273" lon="3.19942">
        <ele>443</ele>
        <time>2012-08-08T10:00:14Z</time>
      </trkpt>
      <trkpt lat="45.45279" lon="3.19916">
        <ele>443</ele>
        <time>2012-08-08T10:00:17Z</time>
      </trkpt>
      <trkpt lat="45.45283" lon="3.1989">
        <ele>444</ele>
        <time>2012-08-08T10:00:20Z</time>
      </trkpt>
      <trkpt lat="45.45287" lon="3.19865">
        <ele>444</ele>
        <time>2012-08-08T10:00:23Z</time>
      </trkpt>
      <trkpt lat="45.45291" lon="3.19839">
        <ele>444</ele>
        <time>2012-08-08T10:00:26Z</time>
      </trkpt>
      <trkpt lat="45.45295" lon="3.19812">
        <ele>444</ele>
        <time>2012-08-08T10:00:29Z</time>
      </trkpt>
      <trkpt lat="45.45297" lon="3.19783">
        <ele>444</ele>
        <time>2012-08-08T10:00:32Z</time>
      </trkpt>
      <trkpt lat="45.453" lon="3.19757">
        <ele>445</ele>
        <time>2012-08-08T10:00:35Z</time>
      </trkpt>
      <trkpt lat="45.45303" lon="3.19731">
        <ele>444</ele>
        <time>2012-08-08T10:00:38Z</time>
      </trkpt>
      <trkpt lat="45.45308" lon="3.19705">
        <ele>444</ele>
        <time>2012-08-08T10:00:41Z</time>
      </trkpt>
      <trkpt lat="45.45313" lon="3.19678">
        <ele>445</ele>
        <time>2012-08-08T10:00:44Z</time>
      </trkpt>
      <trkpt lat="45.45323" lon="3.19652">
        <ele>445</ele>
        <time>2012-08-08T10:00:47Z</time>
      </trkpt>
      <trkpt lat="45.45333" lon="3.19627">
        <ele>445</ele>
        <time>2012-08-08T10:00:50Z</time>
      </trkpt>
      <trkpt lat="45.45343" lon="3.19602">
        <ele>449</ele>
        <time>2012-08-08T10:00:53Z</time>
      </trkpt>
      <trkpt lat="45.45351" lon="3.19578">
        <ele>448</ele>
        <time>2012-08-08T10:00:56Z</time>
      </trkpt>
      <trkpt lat="45.45359" lon="3.19553">
        <ele>449</ele>
        <time>2012-08-08T10:00:59Z</time>
      </trkpt>
      <trkpt lat="45.45365" lon="3.19528">
        <ele>449</ele>
        <time>2012-08-08T10:01:02Z</time>
      </trkpt>
      <trkpt lat="45.45373" lon="3.19502">
        <ele>449</ele>
        <time>2012-08-08T10:01:04Z</time>
      </trkpt>
      <trkpt lat="45.45378" lon="3.19476">
        <ele>449</ele>
        <time>2012-08-08T10:01:08Z</time>
      </trkpt>
      <trkpt lat="45.45385" lon="3.19452">
        <ele>449</ele>
        <time>2012-08-08T10:01:11Z</time>
      </trkpt>
      <trkpt lat="45.45393" lon="3.19428">
        <ele>449</ele>
        <time>2012-08-08T10:01:13Z</time>
      </trkpt>
      <trkpt lat="45.454" lon="3.19402">
        <ele>449</ele>
        <time>2012-08-08T10:01:17Z</time>
      </trkpt>
      <trkpt lat="45.45406" lon="3.19376">
        <ele>448</ele>
        <time>2012-08-08T10:01:20Z</time>
      </trkpt>
      <trkpt lat="45.45413" lon="3.1935">
        <ele>448</ele>
        <time>2012-08-08T10:01:23Z</time>
      </trkpt>
      <trkpt lat="45.45422" lon="3.19323">
        <ele>450</ele>
        <time>2012-08-08T10:01:26Z</time>
      </trkpt>
      <trkpt lat="45.45434" lon="3.19299">
        <ele>451</ele>
        <time>2012-08-08T10:01:29Z</time>
      </trkpt>
      <trkpt lat="45.45448" lon="3.19281">
        <ele>452</ele>
        <time>2012-08-08T10:01:32Z</time>
      </trkpt>
      <trkpt lat="45.45462" lon="3.19258">
        <ele>452</ele>
        <time>2012-08-08T10:01:35Z</time>
      </trkpt>
      <trkpt lat="45.45472" lon="3.19231">
        <ele>450</ele>
        <time>2012-08-08T10:01:38Z</time>
      </trkpt>
      <trkpt lat="45.45481" lon="3.19204">
        <ele>450</ele>
        <time>2012-08-08T10:01:41Z</time>
      </trkpt>
      <trkpt lat="45.45488" lon="3.19177">
        <ele>449</ele>
        <time>2012-08-08T10:01:44Z</time>
      </trkpt>
      <trkpt lat="45.45498" lon="3.19155">
        <ele>449</ele>
        <time>2012-08-08T10:01:47Z</time>
      </trkpt>
      <trkpt lat="45.45512" lon="3.19134">
        <ele>451</ele>
        <time>2012-08-08T10:01:50Z</time>
      </trkpt>
      <trkpt lat="45.45526" lon="3.19115">
        <ele>452</ele>
        <time>2012-08-08T10:01:53Z</time>
      </trkpt>
      <trkpt lat="45.45539" lon="3.19097">
        <ele>452</ele>
        <time>2012-08-08T10:01:56Z</time>
      </trkpt>
      <trkpt lat="45.45557" lon="3.19077">
        <ele>453</ele>
        <time>2012-08-08T10:02:00Z</time>
      </trkpt>
      <trkpt lat="45.45575" lon="3.19055">
        <ele>453</ele>
        <time>2012-08-08T10:02:04Z</time>
      </trkpt>
      <trkpt lat="45.45592" lon="3.19033">
        <ele>456</ele>
        <time>2012-08-08T10:02:08Z</time>
      </trkpt>
      <trkpt lat="45.4561" lon="3.19013">
        <ele>456</ele>
        <time>2012-08-08T10:02:12Z</time>
      </trkpt>
      <trkpt lat="45.45628" lon="3.18992">
        <ele>455</ele>
        <time>2012-08-08T10:02:16Z</time>
      </trkpt>
      <trkpt lat="45.45642" lon="3.18972">
        <ele>456</ele>
        <time>2012-08-08T10:02:20Z</time>
      </trkpt>
      <trkpt lat="45.45659" lon="3.18951">
        <ele>455</ele>
        <time>2012-08-08T10:02:23Z</time>
      </trkpt>
      <trkpt lat="45.45676" lon="3.18934">
        <ele>458</ele>
        <time>2012-08-08T10:02:28Z</time>
      </trkpt>
      <trkpt lat="45.45689" lon="3.18915">
        <ele>457</ele>
        <time>2012-08-08T10:02:31Z</time>
      </trkpt>
      <trkpt lat="45.45706" lon="3.18894">
        <ele>457</ele>
        <time>2012-08-08T10:02:35Z</time>
      </trkpt>
      <trkpt lat="45.45722" lon="3.18871">
        <ele>458</ele>
        <time>2012-08-08T10:02:39Z</time>
      </trkpt>
      <trkpt lat="45.45738" lon="3.18849">
        <ele>458</ele>
        <time>2012-08-08T10:02:43Z</time>
      </trkpt>
      <trkpt lat="45.45752" lon="3.18826">
        <ele>460</ele>
        <time>2012-08-08T10:02:47Z</time>
      </trkpt>
      <trkpt lat="45.45767" lon="3.18801">
        <ele>461</ele>
        <time>2012-08-08T10:02:51Z</time>
      </trkpt>
      <trkpt lat="45.4578" lon="3.18776">
        <ele>461</ele>
        <time>2012-08-08T10:02:55Z</time>
      </trkpt>
      <trkpt lat="45.45793" lon="3.18752">
        <ele>462</ele>
        <time>2012-08-08T10:02:59Z</time>
      </trkpt>
      <trkpt lat="45.45806" lon="3.18726">
        <ele>462</ele>
        <time>2012-08-08T10:03:03Z</time>
      </trkpt>
      <trkpt lat="45.45814" lon="3.18698">
        <ele>462</ele>
        <time>2012-08-08T10:03:07Z</time>
      </trkpt>
      <trkpt lat="45.45823" lon="3.18668">
        <ele>462</ele>
        <time>2012-08-08T10:03:11Z</time>
      </trkpt>
      <trkpt lat="45.45832" lon="3.18638">
        <ele>462</ele>
        <time>2012-08-08T10:03:15Z</time>
      </trkpt>
      <trkpt lat="45.4584" lon="3.18607">
        <ele>465</ele>
        <time>2012-08-08T10:03:19Z</time>
      </trkpt>
      <trkpt lat="45.45851" lon="3.18577">
        <ele>464</ele>
        <time>2012-08-08T10:03:23Z</time>
      </trkpt>
      <trkpt lat="45.45862" lon="3.18557">
        <ele>465</ele>
        <time>2012-08-08T10:03:26Z</time>
      </trkpt>
      <trkpt lat="45.45854" lon="3.18528">
        <ele>465</ele>
        <time>2012-08-08T10:03:30Z</time>
      </trkpt>
      <trkpt lat="45.4584" lon="3.1851">
        <ele>464</ele>
        <time>2012-08-08T10:03:33Z</time>
      </trkpt>
      <trkpt lat="45.45829" lon="3.18485">
        <ele>463</ele>
        <time>2012-08-08T10:03:36Z</time>
      </trkpt>
      <trkpt lat="45.45826" lon="3.18458">
        <ele>463</ele>
        <time>2012-08-08T10:03:39Z</time>
      </trkpt>
      <trkpt lat="45.45837" lon="3.1843">
        <ele>464</ele>
        <time>2012-08-08T10:03:43Z</time>
      </trkpt>
      <trkpt lat="45.45848" lon="3.18409">
        <ele>464</ele>
        <time>2012-08-08T10:03:47Z</time>
      </trkpt>
      <trkpt lat="45.4583" lon="3.18396">
        <ele>465</ele>
        <time>2012-08-08T10:03:50Z</time>
      </trkpt>
      <trkpt lat="45.4583" lon="3.18369">
        <ele>466</ele>
        <time>2012-08-08T10:03:54Z</time>
      </trkpt>
      <trkpt lat="45.45841" lon="3.18347">
        <ele>465</ele>
        <time>2012-08-08T10:03:58Z</time>
      </trkpt>
      <trkpt lat="45.45857" lon="3.18335">
        <ele>465</ele>
        <time>2012-08-08T10:04:02Z</time>
      </trkpt>
      <trkpt lat="45.45858" lon="3.18308">
        <ele>464</ele>
        <time>2012-08-08T10:04:20Z</time>
      </trkpt>
      <trkpt lat="45.45853" lon="3.18279">
        <ele>464</ele>
        <time>2012-08-08T10:04:35Z</time>
      </trkpt>
      <trkpt lat="45.45852" lon="3.1825">
        <ele>465</ele>
        <time>2012-08-08T10:04:40Z</time>
      </trkpt>
      <trkpt lat="45.45854" lon="3.18224">
        <ele>466</ele>
        <time>2012-08-08T10:04:45Z</time>
      </trkpt>
      <trkpt lat="45.45839" lon="3.18204">
        <ele>467</ele>
        <time>2012-08-08T10:04:49Z</time>
      </trkpt>
      <trkpt lat="45.45837" lon="3.18178">
        <ele>468</ele>
        <time>2012-08-08T10:04:52Z</time>
      </trkpt>
      <trkpt lat="45.45838" lon="3.18151">
        <ele>470</ele>
        <time>2012-08-08T10:04:59Z</time>
      </trkpt>
      <trkpt lat="45.45836" lon="3.18125">
        <ele>471</ele>
        <time>2012-08-08T10:05:04Z</time>
      </trkpt>
      <trkpt lat="45.45831" lon="3.18098">
        <ele>475</ele>
        <time>2012-08-08T10:05:10Z</time>
      </trkpt>
      <trkpt lat="45.45825" lon="3.18074">
        <ele>477</ele>
        <time>2012-08-08T10:05:16Z</time>
      </trkpt>
      <trkpt lat="45.4582" lon="3.18048">
        <ele>478</ele>
        <time>2012-08-08T10:05:22Z</time>
      </trkpt>
      <trkpt lat="45.45816" lon="3.1802">
        <ele>480</ele>
        <time>2012-08-08T10:05:29Z</time>
      </trkpt>
      <trkpt lat="45.45809" lon="3.17995">
        <ele>483</ele>
        <time>2012-08-08T10:05:35Z</time>
      </trkpt>
      <trkpt lat="45.45802" lon="3.17969">
        <ele>483</ele>
        <time>2012-08-08T10:05:41Z</time>
      </trkpt>
      <trkpt lat="45.458" lon="3.17942">
        <ele>484</ele>
        <time>2012-08-08T10:05:47Z</time>
      </trkpt>
      <trkpt lat="45.45814" lon="3.17922">
        <ele>486</ele>
        <time>2012-08-08T10:05:56Z</time>
      </trkpt>
      <trkpt lat="45.45832" lon="3.17916">
        <ele>491</ele>
        <time>2012-08-08T10:06:06Z</time>
      </trkpt>
      <trkpt lat="45.4585" lon="3.17909">
        <ele>492</ele>
        <time>2012-08-08T10:06:16Z</time>
      </trkpt>
      <trkpt lat="45.45868" lon="3.179">
        <ele>492</ele>
        <time>2012-08-08T10:09:00Z</time>
      </trkpt>
      <trkpt lat="45.45889" lon="3.1789">
        <ele>492</ele>
        <time>2012-08-08T10:09:06Z</time>
      </trkpt>
      <trkpt lat="45.45904" lon="3.1787">
        <ele>492</ele>
        <time>2012-08-08T10:09:11Z</time>
      </trkpt>
      <trkpt lat="45.45921" lon="3.1785">
        <ele>489</ele>
        <time>2012-08-08T10:09:15Z</time>
      </trkpt>
      <trkpt lat="45.45934" lon="3.17829">
        <ele>490</ele>
        <time>2012-08-08T10:09:18Z</time>
      </trkpt>
      <trkpt lat="45.45949" lon="3.17805">
        <ele>488</ele>
        <time>2012-08-08T10:09:21Z</time>
      </trkpt>
      <trkpt lat="45.45966" lon="3.17779">
        <ele>487</ele>
        <time>2012-08-08T10:09:24Z</time>
      </trkpt>
      <trkpt lat="45.45983" lon="3.17752">
        <ele>486</ele>
        <time>2012-08-08T10:09:27Z</time>
      </trkpt>
      <trkpt lat="45.46001" lon="3.17725">
        <ele>484</ele>
        <time>2012-08-08T10:09:30Z</time>
      </trkpt>
      <trkpt lat="45.46019" lon="3.177">
        <ele>484</ele>
        <time>2012-08-08T10:09:32Z</time>
      </trkpt>
      <trkpt lat="45.46039" lon="3.17674">
        <ele>484</ele>
        <time>2012-08-08T10:09:36Z</time>
      </trkpt>
      <trkpt lat="45.46056" lon="3.17655">
        <ele>486</ele>
        <time>2012-08-08T10:09:39Z</time>
      </trkpt>
      <trkpt lat="45.4607" lon="3.17637">
        <ele>486</ele>
        <time>2012-08-08T10:09:42Z</time>
      </trkpt>
      <trkpt lat="45.46086" lon="3.17615">
        <ele>482</ele>
        <time>2012-08-08T10:09:46Z</time>
      </trkpt>
      <trkpt lat="45.46097" lon="3.1759">
        <ele>483</ele>
        <time>2012-08-08T10:09:50Z</time>
      </trkpt>
      <trkpt lat="45.46109" lon="3.17561">
        <ele>485</ele>
        <time>2012-08-08T10:09:54Z</time>
      </trkpt>
      <trkpt lat="45.46121" lon="3.17531">
        <ele>485</ele>
        <time>2012-08-08T10:09:58Z</time>
      </trkpt>
      <trkpt lat="45.4613" lon="3.17505">
        <ele>485</ele>
        <time>2012-08-08T10:10:01Z</time>
      </trkpt>
      <trkpt lat="45.46138" lon="3.17481">
        <ele>488</ele>
        <time>2012-08-08T10:10:04Z</time>
      </trkpt>
      <trkpt lat="45.46148" lon="3.17457">
        <ele>489</ele>
        <time>2012-08-08T10:10:07Z</time>
      </trkpt>
      <trkpt lat="45.46157" lon="3.17433">
        <ele>488</ele>
        <time>2012-08-08T10:10:10Z</time>
      </trkpt>
      <trkpt lat="45.46166" lon="3.1741">
        <ele>489</ele>
        <time>2012-08-08T10:10:13Z</time>
      </trkpt>
      <trkpt lat="45.46179" lon="3.17383">
        <ele>487</ele>
        <time>2012-08-08T10:10:17Z</time>
      </trkpt>
      <trkpt lat="45.46189" lon="3.17358">
        <ele>488</ele>
        <time>2012-08-08T10:10:21Z</time>
      </trkpt>
      <trkpt lat="45.46201" lon="3.17331">
        <ele>493</ele>
        <time>2012-08-08T10:10:25Z</time>
      </trkpt>
      <trkpt lat="45.4621" lon="3.17306">
        <ele>493</ele>
        <time>2012-08-08T10:10:29Z</time>
      </trkpt>
      <trkpt lat="45.4622" lon="3.17284">
        <ele>494</ele>
        <time>2012-08-08T10:10:33Z</time>
      </trkpt>
      <trkpt lat="45.4623" lon="3.1726">
        <ele>494</ele>
        <time>2012-08-08T10:10:38Z</time>
      </trkpt>
      <trkpt lat="45.46237" lon="3.17236">
        <ele>497</ele>
        <time>2012-08-08T10:10:42Z</time>
      </trkpt>
      <trkpt lat="45.46243" lon="3.1721">
        <ele>499</ele>
        <time>2012-08-08T10:10:46Z</time>
      </trkpt>
      <trkpt lat="45.46255" lon="3.17184">
        <ele>493</ele>
        <time>2012-08-08T10:10:51Z</time>
      </trkpt>
      <trkpt lat="45.46263" lon="3.17159">
        <ele>495</ele>
        <time>2012-08-08T10:10:57Z</time>
      </trkpt>
      <trkpt lat="45.46269" lon="3.1713">
        <ele>496</ele>
        <time>2012-08-08T10:11:03Z</time>
      </trkpt>
      <trkpt lat="45.4628" lon="3.17105">
        <ele>497</ele>
        <time>2012-08-08T10:11:10Z</time>
      </trkpt>
      <trkpt lat="45.4629" lon="3.17079">
        <ele>502</ele>
        <time>2012-08-08T10:11:16Z</time>
      </trkpt>
      <trkpt lat="45.46299" lon="3.17056">
        <ele>502</ele>
        <time>2012-08-08T10:11:21Z</time>
      </trkpt>
      <trkpt lat="45.46311" lon="3.17032">
        <ele>502</ele>
        <time>2012-08-08T10:11:26Z</time>
      </trkpt>
      <trkpt lat="45.46324" lon="3.17006">
        <ele>502</ele>
        <time>2012-08-08T10:11:31Z</time>
      </trkpt>
      <trkpt lat="45.46329" lon="3.16978">
        <ele>505</ele>
        <time>2012-08-08T10:11:36Z</time>
      </trkpt>
      <trkpt lat="45.46335" lon="3.16954">
        <ele>500</ele>
        <time>2012-08-08T10:11:40Z</time>
      </trkpt>
      <trkpt lat="45.4635" lon="3.16938">
        <ele>500</ele>
        <time>2012-08-08T10:11:43Z</time>
      </trkpt>
      <trkpt lat="45.46365" lon="3.16923">
        <ele>500</ele>
        <time>2012-08-08T10:11:46Z</time>
      </trkpt>
      <trkpt lat="45.46382" lon="3.16904">
        <ele>501</ele>
        <time>2012-08-08T10:11:50Z</time>
      </trkpt>
      <trkpt lat="45.46398" lon="3.16886">
        <ele>500</ele>
        <time>2012-08-08T10:11:53Z</time>
      </trkpt>
      <trkpt lat="45.46416" lon="3.16864">
        <ele>500</ele>
        <time>2012-08-08T10:11:56Z</time>
      </trkpt>
      <trkpt lat="45.46429" lon="3.16839">
        <ele>497</ele>
        <time>2012-08-08T10:11:59Z</time>
      </trkpt>
      <trkpt lat="45.46444" lon="3.16815">
        <ele>497</ele>
        <time>2012-08-08T10:12:02Z</time>
      </trkpt>
      <trkpt lat="45.46454" lon="3.16787">
        <ele>497</ele>
        <time>2012-08-08T10:12:05Z</time>
      </trkpt>
      <trkpt lat="45.46458" lon="3.1676">
        <ele>497</ele>
        <time>2012-08-08T10:12:08Z</time>
      </trkpt>
      <trkpt lat="45.46461" lon="3.16728">
        <ele>498</ele>
        <time>2012-08-08T10:12:12Z</time>
      </trkpt>
      <trkpt lat="45.46463" lon="3.16697">
        <ele>499</ele>
        <time>2012-08-08T10:12:16Z</time>
      </trkpt>
      <trkpt lat="45.46463" lon="3.16669">
        <ele>499</ele>
        <time>2012-08-08T10:12:20Z</time>
      </trkpt>
      <trkpt lat="45.4646" lon="3.1664">
        <ele>501</ele>
        <time>2012-08-08T10:12:24Z</time>
      </trkpt>
      <trkpt lat="45.46453" lon="3.16614">
        <ele>501</ele>
        <time>2012-08-08T10:12:29Z</time>
      </trkpt>
      <trkpt lat="45.4645" lon="3.16583">
        <ele>502</ele>
        <time>2012-08-08T10:12:34Z</time>
      </trkpt>
      <trkpt lat="45.46447" lon="3.16553">
        <ele>503</ele>
        <time>2012-08-08T10:12:40Z</time>
      </trkpt>
      <trkpt lat="45.46448" lon="3.16523">
        <ele>504</ele>
        <time>2012-08-08T10:12:45Z</time>
      </trkpt>
      <trkpt lat="45.46446" lon="3.16495">
        <ele>506</ele>
        <time>2012-08-08T10:12:49Z</time>
      </trkpt>
      <trkpt lat="45.46442" lon="3.16468">
        <ele>507</ele>
        <time>2012-08-08T10:12:53Z</time>
      </trkpt>
      <trkpt lat="45.46441" lon="3.1644">
        <ele>508</ele>
        <time>2012-08-08T10:12:58Z</time>
      </trkpt>
      <trkpt lat="45.46445" lon="3.16412">
        <ele>510</ele>
        <time>2012-08-08T10:13:03Z</time>
      </trkpt>
      <trkpt lat="45.46434" lon="3.1639">
        <ele>510</ele>
        <time>2012-08-08T10:13:07Z</time>
      </trkpt>
      <trkpt lat="45.46428" lon="3.16361">
        <ele>511</ele>
        <time>2012-08-08T10:13:12Z</time>
      </trkpt>
      <trkpt lat="45.46422" lon="3.16333">
        <ele>514</ele>
        <time>2012-08-08T10:13:17Z</time>
      </trkpt>
      <trkpt lat="45.46416" lon="3.16303">
        <ele>523</ele>
        <time>2012-08-08T10:13:22Z</time>
      </trkpt>
      <trkpt lat="45.46411" lon="3.16276">
        <ele>522</ele>
        <time>2012-08-08T10:13:27Z</time>
      </trkpt>
      <trkpt lat="45.46406" lon="3.16248">
        <ele>517</ele>
        <time>2012-08-08T10:13:32Z</time>
      </trkpt>
      <trkpt lat="45.464" lon="3.16223">
        <ele>521</ele>
        <time>2012-08-08T10:13:36Z</time>
      </trkpt>
      <trkpt lat="45.46394" lon="3.16196">
        <ele>521</ele>
        <time>2012-08-08T10:13:40Z</time>
      </trkpt>
      <trkpt lat="45.46386" lon="3.16168">
        <ele>521</ele>
        <time>2012-08-08T10:13:44Z</time>
      </trkpt>
      <trkpt lat="45.46374" lon="3.16142">
        <ele>519</ele>
        <time>2012-08-08T10:13:49Z</time>
      </trkpt>
      <trkpt lat="45.46365" lon="3.1612">
        <ele>519</ele>
        <time>2012-08-08T10:13:53Z</time>
      </trkpt>
      <trkpt lat="45.46357" lon="3.16092">
        <ele>520</ele>
        <time>2012-08-08T10:13:59Z</time>
      </trkpt>
      <trkpt lat="45.46349" lon="3.1606">
        <ele>517</ele>
        <time>2012-08-08T10:14:06Z</time>
      </trkpt>
      <trkpt lat="45.4634" lon="3.16034">
        <ele>516</ele>
        <time>2012-08-08T10:14:11Z</time>
      </trkpt>
      <trkpt lat="45.46327" lon="3.1601">
        <ele>523</ele>
        <time>2012-08-08T10:14:14Z</time>
      </trkpt>
      <trkpt lat="45.46318" lon="3.15986">
        <ele>524</ele>
        <time>2012-08-08T10:14:19Z</time>
      </trkpt>
      <trkpt lat="45.4631" lon="3.15962">
        <ele>527</ele>
        <time>2012-08-08T10:14:23Z</time>
      </trkpt>
      <trkpt lat="45.46298" lon="3.1594">
        <ele>528</ele>
        <time>2012-08-08T10:14:29Z</time>
      </trkpt>
      <trkpt lat="45.46293" lon="3.15913">
        <ele>527</ele>
        <time>2012-08-08T10:14:37Z</time>
      </trkpt>
      <trkpt lat="45.46284" lon="3.15889">
        <ele>528</ele>
        <time>2012-08-08T10:14:44Z</time>
      </trkpt>
      <trkpt lat="45.46275" lon="3.15858">
        <ele>529</ele>
        <time>2012-08-08T10:14:49Z</time>
      </trkpt>
      <trkpt lat="45.46271" lon="3.15831">
        <ele>530</ele>
        <time>2012-08-08T10:14:54Z</time>
      </trkpt>
      <trkpt lat="45.4627" lon="3.15805">
        <ele>529</ele>
        <time>2012-08-08T10:15:02Z</time>
      </trkpt>
      <trkpt lat="45.46264" lon="3.15777">
        <ele>530</ele>
        <time>2012-08-08T10:15:07Z</time>
      </trkpt>
      <trkpt lat="45.46257" lon="3.15752">
        <ele>532</ele>
        <time>2012-08-08T10:15:11Z</time>
      </trkpt>
      <trkpt lat="45.4625" lon="3.15726">
        <ele>541</ele>
        <time>2012-08-08T10:15:16Z</time>
      </trkpt>
      <trkpt lat="45.46244" lon="3.15701">
        <ele>542</ele>
        <time>2012-08-08T10:15:23Z</time>
      </trkpt>
      <trkpt lat="45.46242" lon="3.15673">
        <ele>537</ele>
        <time>2012-08-08T10:15:28Z</time>
      </trkpt>
      <trkpt lat="45.46231" lon="3.15653">
        <ele>543</ele>
        <time>2012-08-08T10:15:41Z</time>
      </trkpt>
      <trkpt lat="45.46211" lon="3.15653">
        <ele>548</ele>
        <time>2012-08-08T10:16:55Z</time>
      </trkpt>
      <trkpt lat="45.46205" lon="3.15628">
        <ele>550</ele>
        <time>2012-08-08T10:19:00Z</time>
      </trkpt>
      <trkpt lat="45.46216" lon="3.15648">
        <ele>547</ele>
        <time>2012-08-08T10:21:16Z</time>
      </trkpt>
      <trkpt lat="45.46219" lon="3.15622">
        <ele>548</ele>
        <time>2012-08-08T10:21:33Z</time>
      </trkpt>
      <trkpt lat="45.46218" lon="3.15592">
        <ele>547</ele>
        <time>2012-08-08T10:21:41Z</time>
      </trkpt>
      <trkpt lat="45.46219" lon="3.15565">
        <ele>548</ele>
        <time>2012-08-08T10:21:45Z</time>
      </trkpt>
      <trkpt lat="45.4622" lon="3.15538">
        <ele>549</ele>
        <time>2012-08-08T10:21:50Z</time>
      </trkpt>
      <trkpt lat="45.46219" lon="3.15504">
        <ele>548</ele>
        <time>2012-08-08T10:21:54Z</time>
      </trkpt>
      <trkpt lat="45.46217" lon="3.15475">
        <ele>549</ele>
        <time>2012-08-08T10:21:57Z</time>
      </trkpt>
      <trkpt lat="45.46216" lon="3.15444">
        <ele>549</ele>
        <time>2012-08-08T10:22:01Z</time>
      </trkpt>
      <trkpt lat="45.46229" lon="3.15422">
        <ele>545</ele>
        <time>2012-08-08T10:22:06Z</time>
      </trkpt>
      <trkpt lat="45.46239" lon="3.15399">
        <ele>543</ele>
        <time>2012-08-08T10:22:11Z</time>
      </trkpt>
      <trkpt lat="45.46239" lon="3.15372">
        <ele>545</ele>
        <time>2012-08-08T10:22:22Z</time>
      </trkpt>
      <trkpt lat="45.46241" lon="3.15344">
        <ele>544</ele>
        <time>2012-08-08T10:22:46Z</time>
      </trkpt>
      <trkpt lat="45.46246" lon="3.15319">
        <ele>543</ele>
        <time>2012-08-08T10:22:55Z</time>
      </trkpt>
      <trkpt lat="45.46233" lon="3.15298">
        <ele>545</ele>
        <time>2012-08-08T10:23:03Z</time>
      </trkpt>
      <trkpt lat="45.46228" lon="3.15271">
        <ele>546</ele>
        <time>2012-08-08T10:23:16Z</time>
      </trkpt>
      <trkpt lat="45.46224" lon="3.15244">
        <ele>547</ele>
        <time>2012-08-08T10:23:25Z</time>
      </trkpt>
      <trkpt lat="45.46226" lon="3.15217">
        <ele>548</ele>
        <time>2012-08-08T10:23:34Z</time>
      </trkpt>
      <trkpt lat="45.46226" lon="3.1519">
        <ele>549</ele>
        <time>2012-08-08T10:23:43Z</time>
      </trkpt>
      <trkpt lat="45.46231" lon="3.15162">
        <ele>555</ele>
        <time>2012-08-08T10:23:54Z</time>
      </trkpt>
      <trkpt lat="45.46237" lon="3.15137">
        <ele>555</ele>
        <time>2012-08-08T10:24:18Z</time>
      </trkpt>
      <trkpt lat="45.46236" lon="3.1511">
        <ele>556</ele>
        <time>2012-08-08T10:24:27Z</time>
      </trkpt>
      <trkpt lat="45.46231" lon="3.15085">
        <ele>557</ele>
        <time>2012-08-08T10:24:40Z</time>
      </trkpt>
      <trkpt lat="45.46241" lon="3.15064">
        <ele>564</ele>
        <time>2012-08-08T10:24:56Z</time>
      </trkpt>
      <trkpt lat="45.4626" lon="3.15066">
        <ele>568</ele>
        <time>2012-08-08T10:25:08Z</time>
      </trkpt>
      <trkpt lat="45.46252" lon="3.15043">
        <ele>572</ele>
        <time>2012-08-08T10:25:28Z</time>
      </trkpt>
      <trkpt lat="45.46235" lon="3.15028">
        <ele>567</ele>
        <time>2012-08-08T10:25:37Z</time>
      </trkpt>
      <trkpt lat="45.46219" lon="3.15011">
        <ele>568</ele>
        <time>2012-08-08T10:25:44Z</time>
      </trkpt>
      <trkpt lat="45.46203" lon="3.14995">
        <ele>577</ele>
        <time>2012-08-08T10:25:51Z</time>
      </trkpt>
      <trkpt lat="45.46188" lon="3.14982">
        <ele>577</ele>
        <time>2012-08-08T10:25:58Z</time>
      </trkpt>
      <trkpt lat="45.4617" lon="3.14968">
        <ele>579</ele>
        <time>2012-08-08T10:26:05Z</time>
      </trkpt>
      <trkpt lat="45.4615" lon="3.14969">
        <ele>585</ele>
        <time>2012-08-08T10:26:14Z</time>
      </trkpt>
      <trkpt lat="45.46131" lon="3.14977">
        <ele>586</ele>
        <time>2012-08-08T10:26:20Z</time>
      </trkpt>
      <trkpt lat="45.46114" lon="3.14986">
        <ele>588</ele>
        <time>2012-08-08T10:26:27Z</time>
      </trkpt>
      <trkpt lat="45.46098" lon="3.15">
        <ele>588</ele>
        <time>2012-08-08T10:26:34Z</time>
      </trkpt>
      <trkpt lat="45.4608" lon="3.15012">
        <ele>587</ele>
        <time>2012-08-08T10:26:41Z</time>
      </trkpt>
      <trkpt lat="45.4606" lon="3.15018">
        <ele>586</ele>
        <time>2012-08-08T10:26:49Z</time>
      </trkpt>
      <trkpt lat="45.46043" lon="3.15027">
        <ele>586</ele>
        <time>2012-08-08T10:26:55Z</time>
      </trkpt>
      <trkpt lat="45.46023" lon="3.15031">
        <ele>589</ele>
        <time>2012-08-08T10:27:00Z</time>
      </trkpt>
      <trkpt lat="45.46004" lon="3.15042">
        <ele>587</ele>
        <time>2012-08-08T10:27:08Z</time>
      </trkpt>
      <trkpt lat="45.45989" lon="3.1506">
        <ele>594</ele>
        <time>2012-08-08T10:27:16Z</time>
      </trkpt>
      <trkpt lat="45.45973" lon="3.15075">
        <ele>594</ele>
        <time>2012-08-08T10:27:23Z</time>
      </trkpt>
      <trkpt lat="45.45957" lon="3.15086">
        <ele>581</ele>
        <time>2012-08-08T10:27:30Z</time>
      </trkpt>
      <trkpt lat="45.45938" lon="3.15087">
        <ele>587</ele>
        <time>2012-08-08T10:27:37Z</time>
      </trkpt>
      <trkpt lat="45.45919" lon="3.15084">
        <ele>598</ele>
        <time>2012-08-08T10:27:43Z</time>
      </trkpt>
      <trkpt lat="45.459" lon="3.15085">
        <ele>596</ele>
        <time>2012-08-08T10:27:49Z</time>
      </trkpt>
      <trkpt lat="45.45881" lon="3.15093">
        <ele>595</ele>
        <time>2012-08-08T10:27:56Z</time>
      </trkpt>
      <trkpt lat="45.45859" lon="3.15103">
        <ele>595</ele>
        <time>2012-08-08T10:28:02Z</time>
      </trkpt>
      <trkpt lat="45.45853" lon="3.1513">
        <ele>593</ele>
        <time>2012-08-08T10:28:07Z</time>
      </trkpt>
      <trkpt lat="45.4584" lon="3.15148">
        <ele>594</ele>
        <time>2012-08-08T10:28:12Z</time>
      </trkpt>
      <trkpt lat="45.45822" lon="3.1516">
        <ele>592</ele>
        <time>2012-08-08T10:28:18Z</time>
      </trkpt>
      <trkpt lat="45.45822" lon="3.15133">
        <ele>591</ele>
        <time>2012-08-08T10:30:53Z</time>
      </trkpt>
      <trkpt lat="45.45816" lon="3.15103">
        <ele>592</ele>
        <time>2012-08-08T10:30:56Z</time>
      </trkpt>
      <trkpt lat="45.45818" lon="3.1507">
        <ele>593</ele>
        <time>2012-08-08T10:30:59Z</time>
      </trkpt>
      <trkpt lat="45.4582" lon="3.15034">
        <ele>591</ele>
        <time>2012-08-08T10:31:02Z</time>
      </trkpt>
      <trkpt lat="45.45821" lon="3.15002">
        <ele>593</ele>
        <time>2012-08-08T10:31:05Z</time>
      </trkpt>
      <trkpt lat="45.45811" lon="3.14977">
        <ele>590</ele>
        <time>2012-08-08T10:31:09Z</time>
      </trkpt>
      <trkpt lat="45.45797" lon="3.15002">
        <ele>588</ele>
        <time>2012-08-08T10:31:13Z</time>
      </trkpt>
      <trkpt lat="45.45789" lon="3.15036">
        <ele>587</ele>
        <time>2012-08-08T10:31:16Z</time>
      </trkpt>
      <trkpt lat="45.45784" lon="3.1506">
        <ele>587</ele>
        <time>2012-08-08T10:31:18Z</time>
      </trkpt>
      <trkpt lat="45.45777" lon="3.15085">
        <ele>584</ele>
        <time>2012-08-08T10:31:20Z</time>
      </trkpt>
      <trkpt lat="45.45768" lon="3.15112">
        <ele>584</ele>
        <time>2012-08-08T10:31:22Z</time>
      </trkpt>
      <trkpt lat="45.45758" lon="3.1514">
        <ele>584</ele>
        <time>2012-08-08T10:31:24Z</time>
      </trkpt>
      <trkpt lat="45.45747" lon="3.15168">
        <ele>580</ele>
        <time>2012-08-08T10:31:26Z</time>
      </trkpt>
      <trkpt lat="45.45732" lon="3.1519">
        <ele>584</ele>
        <time>2012-08-08T10:31:28Z</time>
      </trkpt>
      <trkpt lat="45.45714" lon="3.15207">
        <ele>585</ele>
        <time>2012-08-08T10:31:30Z</time>
      </trkpt>
      <trkpt lat="45.457" lon="3.15232">
        <ele>586</ele>
        <time>2012-08-08T10:31:33Z</time>
      </trkpt>
      <trkpt lat="45.45687" lon="3.15256">
        <ele>583</ele>
        <time>2012-08-08T10:31:37Z</time>
      </trkpt>
      <trkpt lat="45.45684" lon="3.15282">
        <ele>582</ele>
        <time>2012-08-08T10:31:49Z</time>
      </trkpt>
      <trkpt lat="45.45664" lon="3.15284">
        <ele>585</ele>
        <time>2012-08-08T10:32:01Z</time>
      </trkpt>
      <trkpt lat="45.45645" lon="3.1529">
        <ele>585</ele>
        <time>2012-08-08T10:32:10Z</time>
      </trkpt>
      <trkpt lat="45.45625" lon="3.1529">
        <ele>586</ele>
        <time>2012-08-08T10:32:16Z</time>
      </trkpt>
      <trkpt lat="45.45608" lon="3.15299">
        <ele>586</ele>
        <time>2012-08-08T10:32:24Z</time>
      </trkpt>
      <trkpt lat="45.4559" lon="3.15293">
        <ele>587</ele>
        <time>2012-08-08T10:32:32Z</time>
      </trkpt>
      <trkpt lat="45.45575" lon="3.15278">
        <ele>594</ele>
        <time>2012-08-08T10:32:40Z</time>
      </trkpt>
      <trkpt lat="45.45557" lon="3.15264">
        <ele>595</ele>
        <time>2012-08-08T10:32:47Z</time>
      </trkpt>
      <trkpt lat="45.45539" lon="3.15244">
        <ele>601</ele>
        <time>2012-08-08T10:32:56Z</time>
      </trkpt>
      <trkpt lat="45.45527" lon="3.15225">
        <ele>602</ele>
        <time>2012-08-08T10:33:04Z</time>
      </trkpt>
      <trkpt lat="45.45508" lon="3.15212">
        <ele>603</ele>
        <time>2012-08-08T10:33:12Z</time>
      </trkpt>
      <trkpt lat="45.45489" lon="3.15202">
        <ele>605</ele>
        <time>2012-08-08T10:33:19Z</time>
      </trkpt>
      <trkpt lat="45.45472" lon="3.15189">
        <ele>606</ele>
        <time>2012-08-08T10:33:24Z</time>
      </trkpt>
      <trkpt lat="45.45456" lon="3.15175">
        <ele>606</ele>
        <time>2012-08-08T10:33:33Z</time>
      </trkpt>
      <trkpt lat="45.45438" lon="3.15163">
        <ele>611</ele>
        <time>2012-08-08T10:33:46Z</time>
      </trkpt>
      <trkpt lat="45.45425" lon="3.1514">
        <ele>613</ele>
        <time>2012-08-08T10:33:55Z</time>
      </trkpt>
      <trkpt lat="45.45413" lon="3.15119">
        <ele>617</ele>
        <time>2012-08-08T10:34:02Z</time>
      </trkpt>
      <trkpt lat="45.45402" lon="3.15096">
        <ele>619</ele>
        <time>2012-08-08T10:34:09Z</time>
      </trkpt>
      <trkpt lat="45.45385" lon="3.1508">
        <ele>624</ele>
        <time>2012-08-08T10:34:18Z</time>
      </trkpt>
      <trkpt lat="45.45368" lon="3.15068">
        <ele>625</ele>
        <time>2012-08-08T10:34:24Z</time>
      </trkpt>
      <trkpt lat="45.45354" lon="3.15088">
        <ele>621</ele>
        <time>2012-08-08T10:34:32Z</time>
      </trkpt>
      <trkpt lat="45.45344" lon="3.15111">
        <ele>620</ele>
        <time>2012-08-08T10:34:41Z</time>
      </trkpt>
      <trkpt lat="45.45337" lon="3.15139">
        <ele>620</ele>
        <time>2012-08-08T10:34:48Z</time>
      </trkpt>
      <trkpt lat="45.45331" lon="3.15164">
        <ele>622</ele>
        <time>2012-08-08T10:34:56Z</time>
      </trkpt>
      <trkpt lat="45.45323" lon="3.15191">
        <ele>627</ele>
        <time>2012-08-08T10:35:04Z</time>
      </trkpt>
      <trkpt lat="45.45319" lon="3.15218">
        <ele>628</ele>
        <time>2012-08-08T10:35:11Z</time>
      </trkpt>
      <trkpt lat="45.45316" lon="3.15246">
        <ele>626</ele>
        <time>2012-08-08T10:35:18Z</time>
      </trkpt>
      <trkpt lat="45.45317" lon="3.15276">
        <ele>627</ele>
        <time>2012-08-08T10:35:24Z</time>
      </trkpt>
      <trkpt lat="45.45306" lon="3.15304">
        <ele>627</ele>
        <time>2012-08-08T10:35:29Z</time>
      </trkpt>
      <trkpt lat="45.45303" lon="3.15332">
        <ele>627</ele>
        <time>2012-08-08T10:35:33Z</time>
      </trkpt>
      <trkpt lat="45.45301" lon="3.15362">
        <ele>626</ele>
        <time>2012-08-08T10:35:37Z</time>
      </trkpt>
      <trkpt lat="45.45298" lon="3.15393">
        <ele>626</ele>
        <time>2012-08-08T10:35:42Z</time>
      </trkpt>
      <trkpt lat="45.45299" lon="3.1542">
        <ele>627</ele>
        <time>2012-08-08T10:35:44Z</time>
      </trkpt>
      <trkpt lat="45.45308" lon="3.15443">
        <ele>626</ele>
        <time>2012-08-08T10:35:48Z</time>
      </trkpt>
      <trkpt lat="45.45318" lon="3.15471">
        <ele>627</ele>
        <time>2012-08-08T10:35:52Z</time>
      </trkpt>
      <trkpt lat="45.45329" lon="3.15497">
        <ele>626</ele>
        <time>2012-08-08T10:35:56Z</time>
      </trkpt>
      <trkpt lat="45.45335" lon="3.15529">
        <ele>622</ele>
        <time>2012-08-08T10:36:00Z</time>
      </trkpt>
      <trkpt lat="45.45345" lon="3.1556">
        <ele>622</ele>
        <time>2012-08-08T10:36:03Z</time>
      </trkpt>
      <trkpt lat="45.4535" lon="3.15595">
        <ele>623</ele>
        <time>2012-08-08T10:36:06Z</time>
      </trkpt>
      <trkpt lat="45.45353" lon="3.15622">
        <ele>623</ele>
        <time>2012-08-08T10:36:08Z</time>
      </trkpt>
      <trkpt lat="45.45346" lon="3.15651">
        <ele>624</ele>
        <time>2012-08-08T10:36:11Z</time>
      </trkpt>
      <trkpt lat="45.45334" lon="3.1568">
        <ele>626</ele>
        <time>2012-08-08T10:36:14Z</time>
      </trkpt>
      <trkpt lat="45.45326" lon="3.15708">
        <ele>627</ele>
        <time>2012-08-08T10:36:17Z</time>
      </trkpt>
      <trkpt lat="45.45318" lon="3.15731">
        <ele>627</ele>
        <time>2012-08-08T10:36:19Z</time>
      </trkpt>
      <trkpt lat="45.45304" lon="3.15753">
        <ele>628</ele>
        <time>2012-08-08T10:36:23Z</time>
      </trkpt>
      <trkpt lat="45.4529" lon="3.15774">
        <ele>628</ele>
        <time>2012-08-08T10:36:26Z</time>
      </trkpt>
      <trkpt lat="45.45272" lon="3.15787">
        <ele>628</ele>
        <time>2012-08-08T10:36:29Z</time>
      </trkpt>
      <trkpt lat="45.45252" lon="3.15808">
        <ele>628</ele>
        <time>2012-08-08T10:36:32Z</time>
      </trkpt>
      <trkpt lat="45.45235" lon="3.15827">
        <ele>627</ele>
        <time>2012-08-08T10:36:35Z</time>
      </trkpt>
      <trkpt lat="45.45223" lon="3.15852">
        <ele>624</ele>
        <time>2012-08-08T10:36:38Z</time>
      </trkpt>
      <trkpt lat="45.4521" lon="3.1588">
        <ele>623</ele>
        <time>2012-08-08T10:36:41Z</time>
      </trkpt>
      <trkpt lat="45.45189" lon="3.15904">
        <ele>622</ele>
        <time>2012-08-08T10:36:44Z</time>
      </trkpt>
      <trkpt lat="45.45174" lon="3.15921">
        <ele>620</ele>
        <time>2012-08-08T10:36:45Z</time>
      </trkpt>
      <trkpt lat="45.45157" lon="3.15937">
        <ele>620</ele>
        <time>2012-08-08T10:36:48Z</time>
      </trkpt>
      <trkpt lat="45.45143" lon="3.15967">
        <ele>620</ele>
        <time>2012-08-08T10:36:51Z</time>
      </trkpt>
      <trkpt lat="45.45127" lon="3.15993">
        <ele>620</ele>
        <time>2012-08-08T10:36:54Z</time>
      </trkpt>
      <trkpt lat="45.45107" lon="3.1601">
        <ele>619</ele>
        <time>2012-08-08T10:36:56Z</time>
      </trkpt>
      <trkpt lat="45.4509" lon="3.16028">
        <ele>619</ele>
        <time>2012-08-08T10:37:01Z</time>
      </trkpt>
      <trkpt lat="45.45075" lon="3.16044">
        <ele>622</ele>
        <time>2012-08-08T10:37:04Z</time>
      </trkpt>
      <trkpt lat="45.45058" lon="3.16063">
        <ele>622</ele>
        <time>2012-08-08T10:37:08Z</time>
      </trkpt>
      <trkpt lat="45.45041" lon="3.16076">
        <ele>623</ele>
        <time>2012-08-08T10:37:10Z</time>
      </trkpt>
      <trkpt lat="45.45029" lon="3.16096">
        <ele>621</ele>
        <time>2012-08-08T10:37:14Z</time>
      </trkpt>
      <trkpt lat="45.45015" lon="3.16112">
        <ele>621</ele>
        <time>2012-08-08T10:37:17Z</time>
      </trkpt>
      <trkpt lat="45.45" lon="3.16128">
        <ele>621</ele>
        <time>2012-08-08T10:37:21Z</time>
      </trkpt>
      <trkpt lat="45.44982" lon="3.16142">
        <ele>623</ele>
        <time>2012-08-08T10:37:25Z</time>
      </trkpt>
      <trkpt lat="45.44962" lon="3.1615">
        <ele>623</ele>
        <time>2012-08-08T10:37:28Z</time>
      </trkpt>
      <trkpt lat="45.44944" lon="3.16165">
        <ele>622</ele>
        <time>2012-08-08T10:37:33Z</time>
      </trkpt>
      <trkpt lat="45.44928" lon="3.16177">
        <ele>618</ele>
        <time>2012-08-08T10:37:38Z</time>
      </trkpt>
      <trkpt lat="45.44906" lon="3.16182">
        <ele>616</ele>
        <time>2012-08-08T10:37:42Z</time>
      </trkpt>
      <trkpt lat="45.44883" lon="3.16177">
        <ele>614</ele>
        <time>2012-08-08T10:37:46Z</time>
      </trkpt>
      <trkpt lat="45.44864" lon="3.16171">
        <ele>613</ele>
        <time>2012-08-08T10:37:49Z</time>
      </trkpt>
      <trkpt lat="45.44843" lon="3.16167">
        <ele>613</ele>
        <time>2012-08-08T10:37:53Z</time>
      </trkpt>
      <trkpt lat="45.44827" lon="3.16178">
        <ele>609</ele>
        <time>2012-08-08T10:38:00Z</time>
      </trkpt>
      <trkpt lat="45.44825" lon="3.16206">
        <ele>605</ele>
        <time>2012-08-08T10:38:08Z</time>
      </trkpt>
      <trkpt lat="45.44833" lon="3.16233">
        <ele>605</ele>
        <time>2012-08-08T10:38:18Z</time>
      </trkpt>
      <trkpt lat="45.4484" lon="3.16257">
        <ele>605</ele>
        <time>2012-08-08T10:38:24Z</time>
      </trkpt>
      <trkpt lat="45.44836" lon="3.16284">
        <ele>603</ele>
        <time>2012-08-08T10:38:30Z</time>
      </trkpt>
      <trkpt lat="45.44817" lon="3.16301">
        <ele>596</ele>
        <time>2012-08-08T10:38:36Z</time>
      </trkpt>
      <trkpt lat="45.44798" lon="3.16292">
        <ele>595</ele>
        <time>2012-08-08T10:38:42Z</time>
      </trkpt>
      <trkpt lat="45.44782" lon="3.16271">
        <ele>595</ele>
        <time>2012-08-08T10:38:47Z</time>
      </trkpt>
      <trkpt lat="45.4477" lon="3.1625">
        <ele>595</ele>
        <time>2012-08-08T10:38:50Z</time>
      </trkpt>
      <trkpt lat="45.44759" lon="3.1623">
        <ele>599</ele>
        <time>2012-08-08T10:38:53Z</time>
      </trkpt>
      <trkpt lat="45.44738" lon="3.16223">
        <ele>594</ele>
        <time>2012-08-08T10:38:57Z</time>
      </trkpt>
      <trkpt lat="45.44718" lon="3.16227">
        <ele>594</ele>
        <time>2012-08-08T10:39:00Z</time>
      </trkpt>
      <trkpt lat="45.44698" lon="3.16231">
        <ele>593</ele>
        <time>2012-08-08T10:39:02Z</time>
      </trkpt>
      <trkpt lat="45.44677" lon="3.16235">
        <ele>591</ele>
        <time>2012-08-08T10:39:06Z</time>
      </trkpt>
      <trkpt lat="45.44655" lon="3.16237">
        <ele>592</ele>
        <time>2012-08-08T10:39:09Z</time>
      </trkpt>
      <trkpt lat="45.44632" lon="3.16238">
        <ele>593</ele>
        <time>2012-08-08T10:39:13Z</time>
      </trkpt>
      <trkpt lat="45.44612" lon="3.1624">
        <ele>594</ele>
        <time>2012-08-08T10:39:19Z</time>
      </trkpt>
      <trkpt lat="45.44591" lon="3.16243">
        <ele>594</ele>
        <time>2012-08-08T10:39:25Z</time>
      </trkpt>
      <trkpt lat="45.44572" lon="3.16248">
        <ele>596</ele>
        <time>2012-08-08T10:39:31Z</time>
      </trkpt>
      <trkpt lat="45.44554" lon="3.16258">
        <ele>596</ele>
        <time>2012-08-08T10:39:36Z</time>
      </trkpt>
      <trkpt lat="45.44537" lon="3.16272">
        <ele>597</ele>
        <time>2012-08-08T10:39:42Z</time>
      </trkpt>
      <trkpt lat="45.44523" lon="3.1629">
        <ele>598</ele>
        <time>2012-08-08T10:39:49Z</time>
      </trkpt>
      <trkpt lat="45.44513" lon="3.16315">
        <ele>598</ele>
        <time>2012-08-08T10:39:58Z</time>
      </trkpt>
      <trkpt lat="45.44499" lon="3.16333">
        <ele>600</ele>
        <time>2012-08-08T10:40:04Z</time>
      </trkpt>
      <trkpt lat="45.44486" lon="3.16351">
        <ele>600</ele>
        <time>2012-08-08T10:40:08Z</time>
      </trkpt>
      <trkpt lat="45.44475" lon="3.16372">
        <ele>600</ele>
        <time>2012-08-08T10:40:12Z</time>
      </trkpt>
      <trkpt lat="45.44461" lon="3.16391">
        <ele>600</ele>
        <time>2012-08-08T10:40:16Z</time>
      </trkpt>
      <trkpt lat="45.44445" lon="3.1641">
        <ele>601</ele>
        <time>2012-08-08T10:40:20Z</time>
      </trkpt>
      <trkpt lat="45.44431" lon="3.16429">
        <ele>599</ele>
        <time>2012-08-08T10:40:24Z</time>
      </trkpt>
      <trkpt lat="45.44415" lon="3.16446">
        <ele>598</ele>
        <time>2012-08-08T10:40:27Z</time>
      </trkpt>
      <trkpt lat="45.44396" lon="3.16454">
        <ele>597</ele>
        <time>2012-08-08T10:40:32Z</time>
      </trkpt>
      <trkpt lat="45.44376" lon="3.16455">
        <ele>596</ele>
        <time>2012-08-08T10:40:36Z</time>
      </trkpt>
      <trkpt lat="45.44355" lon="3.16456">
        <ele>595</ele>
        <time>2012-08-08T10:40:40Z</time>
      </trkpt>
      <trkpt lat="45.44338" lon="3.16465">
        <ele>595</ele>
        <time>2012-08-08T10:40:44Z</time>
      </trkpt>
      <trkpt lat="45.4432" lon="3.16474">
        <ele>590</ele>
        <time>2012-08-08T10:40:49Z</time>
      </trkpt>
      <trkpt lat="45.44301" lon="3.16481">
        <ele>589</ele>
        <time>2012-08-08T10:40:54Z</time>
      </trkpt>
      <trkpt lat="45.44279" lon="3.16488">
        <ele>587</ele>
        <time>2012-08-08T10:40:58Z</time>
      </trkpt>
      <trkpt lat="45.44259" lon="3.16482">
        <ele>586</ele>
        <time>2012-08-08T10:41:00Z</time>
      </trkpt>
      <trkpt lat="45.44244" lon="3.16465">
        <ele>582</ele>
        <time>2012-08-08T10:41:05Z</time>
      </trkpt>
      <trkpt lat="45.44225" lon="3.16448">
        <ele>583</ele>
        <time>2012-08-08T10:41:09Z</time>
      </trkpt>
      <trkpt lat="45.44213" lon="3.16422">
        <ele>583</ele>
        <time>2012-08-08T10:41:12Z</time>
      </trkpt>
      <trkpt lat="45.44201" lon="3.16394">
        <ele>590</ele>
        <time>2012-08-08T10:41:17Z</time>
      </trkpt>
      <trkpt lat="45.44178" lon="3.16384">
        <ele>589</ele>
        <time>2012-08-08T10:41:21Z</time>
      </trkpt>
      <trkpt lat="45.44159" lon="3.16392">
        <ele>585</ele>
        <time>2012-08-08T10:41:24Z</time>
      </trkpt>
      <trkpt lat="45.44139" lon="3.16398">
        <ele>585</ele>
        <time>2012-08-08T10:41:27Z</time>
      </trkpt>
      <trkpt lat="45.4412" lon="3.1639">
        <ele>586</ele>
        <time>2012-08-08T10:41:31Z</time>
      </trkpt>
      <trkpt lat="45.44103" lon="3.16373">
        <ele>586</ele>
        <time>2012-08-08T10:41:35Z</time>
      </trkpt>
      <trkpt lat="45.44085" lon="3.16356">
        <ele>587</ele>
        <time>2012-08-08T10:41:39Z</time>
      </trkpt>
      <trkpt lat="45.44062" lon="3.16351">
        <ele>588</ele>
        <time>2012-08-08T10:41:43Z</time>
      </trkpt>
      <trkpt lat="45.44044" lon="3.16354">
        <ele>588</ele>
        <time>2012-08-08T10:41:46Z</time>
      </trkpt>
      <trkpt lat="45.44025" lon="3.16354">
        <ele>588</ele>
        <time>2012-08-08T10:41:49Z</time>
      </trkpt>
      <trkpt lat="45.44007" lon="3.16344">
        <ele>589</ele>
        <time>2012-08-08T10:41:53Z</time>
      </trkpt>
      <trkpt lat="45.43986" lon="3.16345">
        <ele>590</ele>
        <time>2012-08-08T10:41:59Z</time>
      </trkpt>
      <trkpt lat="45.43985" lon="3.16372">
        <ele>590</ele>
        <time>2012-08-08T10:42:06Z</time>
      </trkpt>
      <trkpt lat="45.4398" lon="3.164">
        <ele>590</ele>
        <time>2012-08-08T10:42:12Z</time>
      </trkpt>
      <trkpt lat="45.43994" lon="3.16417">
        <ele>589</ele>
        <time>2012-08-08T10:42:26Z</time>
      </trkpt>
      <trkpt lat="45.44014" lon="3.16432">
        <ele>586</ele>
        <time>2012-08-08T10:42:29Z</time>
      </trkpt>
      <trkpt lat="45.44029" lon="3.16454">
        <ele>585</ele>
        <time>2012-08-08T10:42:32Z</time>
      </trkpt>
      <trkpt lat="45.44045" lon="3.16479">
        <ele>584</ele>
        <time>2012-08-08T10:42:35Z</time>
      </trkpt>
      <trkpt lat="45.44062" lon="3.16506">
        <ele>579</ele>
        <time>2012-08-08T10:42:38Z</time>
      </trkpt>
      <trkpt lat="45.44072" lon="3.1653">
        <ele>579</ele>
        <time>2012-08-08T10:42:40Z</time>
      </trkpt>
      <trkpt lat="45.44075" lon="3.16556">
        <ele>577</ele>
        <time>2012-08-08T10:42:42Z</time>
      </trkpt>
      <trkpt lat="45.44061" lon="3.16578">
        <ele>577</ele>
        <time>2012-08-08T10:42:44Z</time>
      </trkpt>
      <trkpt lat="45.44053" lon="3.16603">
        <ele>573</ele>
        <time>2012-08-08T10:42:46Z</time>
      </trkpt>
      <trkpt lat="45.44042" lon="3.16626">
        <ele>573</ele>
        <time>2012-08-08T10:42:48Z</time>
      </trkpt>
      <trkpt lat="45.44029" lon="3.16654">
        <ele>573</ele>
        <time>2012-08-08T10:42:50Z</time>
      </trkpt>
      <trkpt lat="45.44018" lon="3.1668">
        <ele>568</ele>
        <time>2012-08-08T10:42:52Z</time>
      </trkpt>
      <trkpt lat="45.44005" lon="3.1671">
        <ele>566</ele>
        <time>2012-08-08T10:42:54Z</time>
      </trkpt>
      <trkpt lat="45.43994" lon="3.1674">
        <ele>568</ele>
        <time>2012-08-08T10:42:55Z</time>
      </trkpt>
      <trkpt lat="45.43984" lon="3.16769">
        <ele>563</ele>
        <time>2012-08-08T10:42:58Z</time>
      </trkpt>
      <trkpt lat="45.43974" lon="3.168">
        <ele>560</ele>
        <time>2012-08-08T10:43:00Z</time>
      </trkpt>
      <trkpt lat="45.43962" lon="3.16824">
        <ele>560</ele>
        <time>2012-08-08T10:43:01Z</time>
      </trkpt>
      <trkpt lat="45.43948" lon="3.16841">
        <ele>555</ele>
        <time>2012-08-08T10:43:04Z</time>
      </trkpt>
      <trkpt lat="45.43924" lon="3.16853">
        <ele>556</ele>
        <time>2012-08-08T10:43:06Z</time>
      </trkpt>
      <trkpt lat="45.43903" lon="3.16862">
        <ele>556</ele>
        <time>2012-08-08T10:43:08Z</time>
      </trkpt>
      <trkpt lat="45.43884" lon="3.16876">
        <ele>555</ele>
        <time>2012-08-08T10:43:10Z</time>
      </trkpt>
      <trkpt lat="45.43864" lon="3.1689">
        <ele>554</ele>
        <time>2012-08-08T10:43:12Z</time>
      </trkpt>
      <trkpt lat="45.43841" lon="3.16897">
        <ele>553</ele>
        <time>2012-08-08T10:43:14Z</time>
      </trkpt>
      <trkpt lat="45.43822" lon="3.16906">
        <ele>550</ele>
        <time>2012-08-08T10:43:16Z</time>
      </trkpt>
      <trkpt lat="45.43801" lon="3.16915">
        <ele>550</ele>
        <time>2012-08-08T10:43:19Z</time>
      </trkpt>
      <trkpt lat="45.43782" lon="3.16919">
        <ele>544</ele>
        <time>2012-08-08T10:43:23Z</time>
      </trkpt>
      <trkpt lat="45.43778" lon="3.16948">
        <ele>543</ele>
        <time>2012-08-08T10:43:30Z</time>
      </trkpt>
      <trkpt lat="45.43793" lon="3.16977">
        <ele>542</ele>
        <time>2012-08-08T10:43:34Z</time>
      </trkpt>
      <trkpt lat="45.43807" lon="3.17002">
        <ele>537</ele>
        <time>2012-08-08T10:43:37Z</time>
      </trkpt>
      <trkpt lat="45.43818" lon="3.17031">
        <ele>536</ele>
        <time>2012-08-08T10:43:40Z</time>
      </trkpt>
      <trkpt lat="45.43828" lon="3.1706">
        <ele>534</ele>
        <time>2012-08-08T10:43:43Z</time>
      </trkpt>
      <trkpt lat="45.4383" lon="3.17091">
        <ele>531</ele>
        <time>2012-08-08T10:43:46Z</time>
      </trkpt>
      <trkpt lat="45.43836" lon="3.17121">
        <ele>530</ele>
        <time>2012-08-08T10:43:48Z</time>
      </trkpt>
      <trkpt lat="45.43847" lon="3.17149">
        <ele>529</ele>
        <time>2012-08-08T10:43:52Z</time>
      </trkpt>
      <trkpt lat="45.43856" lon="3.17179">
        <ele>524</ele>
        <time>2012-08-08T10:43:55Z</time>
      </trkpt>
      <trkpt lat="45.43868" lon="3.17215">
        <ele>522</ele>
        <time>2012-08-08T10:43:58Z</time>
      </trkpt>
      <trkpt lat="45.43877" lon="3.17238">
        <ele>521</ele>
        <time>2012-08-08T10:43:59Z</time>
      </trkpt>
      <trkpt lat="45.43887" lon="3.17269">
        <ele>516</ele>
        <time>2012-08-08T10:44:03Z</time>
      </trkpt>
      <trkpt lat="45.43899" lon="3.17302">
        <ele>515</ele>
        <time>2012-08-08T10:44:06Z</time>
      </trkpt>
      <trkpt lat="45.4391" lon="3.17325">
        <ele>514</ele>
        <time>2012-08-08T10:44:10Z</time>
      </trkpt>
      <trkpt lat="45.43931" lon="3.17329">
        <ele>513</ele>
        <time>2012-08-08T10:44:16Z</time>
      </trkpt>
      <trkpt lat="45.43953" lon="3.17333">
        <ele>513</ele>
        <time>2012-08-08T10:44:21Z</time>
      </trkpt>
      <trkpt lat="45.43973" lon="3.17348">
        <ele>511</ele>
        <time>2012-08-08T10:44:25Z</time>
      </trkpt>
      <trkpt lat="45.43986" lon="3.17371">
        <ele>511</ele>
        <time>2012-08-08T10:44:27Z</time>
      </trkpt>
      <trkpt lat="45.44003" lon="3.17391">
        <ele>509</ele>
        <time>2012-08-08T10:44:31Z</time>
      </trkpt>
      <trkpt lat="45.44019" lon="3.17407">
        <ele>509</ele>
        <time>2012-08-08T10:44:33Z</time>
      </trkpt>
      <trkpt lat="45.44037" lon="3.17417">
        <ele>508</ele>
        <time>2012-08-08T10:44:37Z</time>
      </trkpt>
      <trkpt lat="45.44053" lon="3.17431">
        <ele>506</ele>
        <time>2012-08-08T10:44:41Z</time>
      </trkpt>
      <trkpt lat="45.4407" lon="3.1744">
        <ele>506</ele>
        <time>2012-08-08T10:44:47Z</time>
      </trkpt>
      <trkpt lat="45.4409" lon="3.17461">
        <ele>500</ele>
        <time>2012-08-08T10:44:51Z</time>
      </trkpt>
      <trkpt lat="45.44108" lon="3.17478">
        <ele>500</ele>
        <time>2012-08-08T10:44:55Z</time>
      </trkpt>
      <trkpt lat="45.44126" lon="3.17487">
        <ele>498</ele>
        <time>2012-08-08T10:45:00Z</time>
      </trkpt>
      <trkpt lat="45.44144" lon="3.17475">
        <ele>497</ele>
        <time>2012-08-08T10:45:03Z</time>
      </trkpt>
      <trkpt lat="45.44158" lon="3.17457">
        <ele>496</ele>
        <time>2012-08-08T10:45:06Z</time>
      </trkpt>
      <trkpt lat="45.44179" lon="3.17448">
        <ele>490</ele>
        <time>2012-08-08T10:45:09Z</time>
      </trkpt>
      <trkpt lat="45.44196" lon="3.17438">
        <ele>490</ele>
        <time>2012-08-08T10:45:12Z</time>
      </trkpt>
      <trkpt lat="45.44222" lon="3.17444">
        <ele>488</ele>
        <time>2012-08-08T10:45:15Z</time>
      </trkpt>
      <trkpt lat="45.4424" lon="3.17451">
        <ele>488</ele>
        <time>2012-08-08T10:45:18Z</time>
      </trkpt>
      <trkpt lat="45.44251" lon="3.17476">
        <ele>483</ele>
        <time>2012-08-08T10:45:21Z</time>
      </trkpt>
      <trkpt lat="45.44266" lon="3.17499">
        <ele>483</ele>
        <time>2012-08-08T10:45:23Z</time>
      </trkpt>
      <trkpt lat="45.4428" lon="3.17523">
        <ele>480</ele>
        <time>2012-08-08T10:45:27Z</time>
      </trkpt>
      <trkpt lat="45.44296" lon="3.17549">
        <ele>479</ele>
        <time>2012-08-08T10:45:30Z</time>
      </trkpt>
      <trkpt lat="45.44313" lon="3.17568">
        <ele>478</ele>
        <time>2012-08-08T10:45:33Z</time>
      </trkpt>
      <trkpt lat="45.44333" lon="3.17587">
        <ele>476</ele>
        <time>2012-08-08T10:45:36Z</time>
      </trkpt>
      <trkpt lat="45.4435" lon="3.176">
        <ele>474</ele>
        <time>2012-08-08T10:45:38Z</time>
      </trkpt>
      <trkpt lat="45.44369" lon="3.17619">
        <ele>474</ele>
        <time>2012-08-08T10:45:40Z</time>
      </trkpt>
      <trkpt lat="45.4439" lon="3.17633">
        <ele>473</ele>
        <time>2012-08-08T10:45:44Z</time>
      </trkpt>
      <trkpt lat="45.4441" lon="3.17651">
        <ele>473</ele>
        <time>2012-08-08T10:45:47Z</time>
      </trkpt>
      <trkpt lat="45.4443" lon="3.17662">
        <ele>472</ele>
        <time>2012-08-08T10:45:50Z</time>
      </trkpt>
      <trkpt lat="45.44446" lon="3.17683">
        <ele>472</ele>
        <time>2012-08-08T10:45:54Z</time>
      </trkpt>
      <trkpt lat="45.4445" lon="3.1771">
        <ele>471</ele>
        <time>2012-08-08T10:45:58Z</time>
      </trkpt>
      <trkpt lat="45.44451" lon="3.17737">
        <ele>471</ele>
        <time>2012-08-08T10:46:02Z</time>
      </trkpt>
      <trkpt lat="45.4446" lon="3.17761">
        <ele>470</ele>
        <time>2012-08-08T10:46:04Z</time>
      </trkpt>
      <trkpt lat="45.4447" lon="3.17784">
        <ele>470</ele>
        <time>2012-08-08T10:46:08Z</time>
      </trkpt>
      <trkpt lat="45.44477" lon="3.17814">
        <ele>469</ele>
        <time>2012-08-08T10:46:12Z</time>
      </trkpt>
      <trkpt lat="45.44485" lon="3.1784">
        <ele>468</ele>
        <time>2012-08-08T10:46:16Z</time>
      </trkpt>
      <trkpt lat="45.44492" lon="3.17871">
        <ele>467</ele>
        <time>2012-08-08T10:46:20Z</time>
      </trkpt>
      <trkpt lat="45.44506" lon="3.1789">
        <ele>466</ele>
        <time>2012-08-08T10:46:24Z</time>
      </trkpt>
      <trkpt lat="45.44527" lon="3.17893">
        <ele>466</ele>
        <time>2012-08-08T10:46:29Z</time>
      </trkpt>
      <trkpt lat="45.44544" lon="3.17919">
        <ele>464</ele>
        <time>2012-08-08T10:49:07Z</time>
      </trkpt>
      <trkpt lat="45.44553" lon="3.17944">
        <ele>464</ele>
        <time>2012-08-08T10:49:10Z</time>
      </trkpt>
      <trkpt lat="45.44563" lon="3.17971">
        <ele>464</ele>
        <time>2012-08-08T10:49:15Z</time>
      </trkpt>
      <trkpt lat="45.4457" lon="3.18003">
        <ele>463</ele>
        <time>2012-08-08T10:49:18Z</time>
      </trkpt>
      <trkpt lat="45.44571" lon="3.18031">
        <ele>462</ele>
        <time>2012-08-08T10:49:22Z</time>
      </trkpt>
      <trkpt lat="45.4458" lon="3.18057">
        <ele>461</ele>
        <time>2012-08-08T10:49:25Z</time>
      </trkpt>
      <trkpt lat="45.44586" lon="3.18084">
        <ele>460</ele>
        <time>2012-08-08T10:49:28Z</time>
      </trkpt>
      <trkpt lat="45.44591" lon="3.18114">
        <ele>460</ele>
        <time>2012-08-08T10:49:31Z</time>
      </trkpt>
      <trkpt lat="45.44599" lon="3.18141">
        <ele>460</ele>
        <time>2012-08-08T10:49:34Z</time>
      </trkpt>
      <trkpt lat="45.44605" lon="3.1817">
        <ele>460</ele>
        <time>2012-08-08T10:49:37Z</time>
      </trkpt>
      <trkpt lat="45.44613" lon="3.18203">
        <ele>459</ele>
        <time>2012-08-08T10:49:40Z</time>
      </trkpt>
      <trkpt lat="45.44625" lon="3.1823">
        <ele>459</ele>
        <time>2012-08-08T10:49:43Z</time>
      </trkpt>
      <trkpt lat="45.44633" lon="3.1826">
        <ele>458</ele>
        <time>2012-08-08T10:49:46Z</time>
      </trkpt>
      <trkpt lat="45.44632" lon="3.18293">
        <ele>457</ele>
        <time>2012-08-08T10:49:49Z</time>
      </trkpt>
      <trkpt lat="45.44634" lon="3.18319">
        <ele>457</ele>
        <time>2012-08-08T10:49:52Z</time>
      </trkpt>
      <trkpt lat="45.44642" lon="3.18344">
        <ele>456</ele>
        <time>2012-08-08T10:49:55Z</time>
      </trkpt>
      <trkpt lat="45.44648" lon="3.18374">
        <ele>455</ele>
        <time>2012-08-08T10:49:58Z</time>
      </trkpt>
      <trkpt lat="45.4465" lon="3.18404">
        <ele>455</ele>
        <time>2012-08-08T10:50:01Z</time>
      </trkpt>
      <trkpt lat="45.44651" lon="3.18437">
        <ele>454</ele>
        <time>2012-08-08T10:50:04Z</time>
      </trkpt>
      <trkpt lat="45.44645" lon="3.18465">
        <ele>454</ele>
        <time>2012-08-08T10:50:06Z</time>
      </trkpt>
      <trkpt lat="45.44631" lon="3.18492">
        <ele>453</ele>
        <time>2012-08-08T10:50:10Z</time>
      </trkpt>
      <trkpt lat="45.4462" lon="3.18521">
        <ele>453</ele>
        <time>2012-08-08T10:50:13Z</time>
      </trkpt>
      <trkpt lat="45.44608" lon="3.18549">
        <ele>453</ele>
        <time>2012-08-08T10:50:16Z</time>
      </trkpt>
      <trkpt lat="45.44588" lon="3.1857">
        <ele>453</ele>
        <time>2012-08-08T10:50:18Z</time>
      </trkpt>
      <trkpt lat="45.44574" lon="3.18595">
        <ele>453</ele>
        <time>2012-08-08T10:50:22Z</time>
      </trkpt>
      <trkpt lat="45.44568" lon="3.18625">
        <ele>453</ele>
        <time>2012-08-08T10:50:24Z</time>
      </trkpt>
      <trkpt lat="45.44574" lon="3.18657">
        <ele>452</ele>
        <time>2012-08-08T10:50:28Z</time>
      </trkpt>
      <trkpt lat="45.44576" lon="3.18687">
        <ele>452</ele>
        <time>2012-08-08T10:50:31Z</time>
      </trkpt>
      <trkpt lat="45.44576" lon="3.18717">
        <ele>451</ele>
        <time>2012-08-08T10:50:34Z</time>
      </trkpt>
      <trkpt lat="45.44577" lon="3.18748">
        <ele>450</ele>
        <time>2012-08-08T10:50:37Z</time>
      </trkpt>
      <trkpt lat="45.44577" lon="3.18776">
        <ele>451</ele>
        <time>2012-08-08T10:50:40Z</time>
      </trkpt>
      <trkpt lat="45.44565" lon="3.18801">
        <ele>451</ele>
        <time>2012-08-08T10:50:43Z</time>
      </trkpt>
      <trkpt lat="45.44545" lon="3.18817">
        <ele>451</ele>
        <time>2012-08-08T10:50:46Z</time>
      </trkpt>
      <trkpt lat="45.44526" lon="3.18838">
        <ele>451</ele>
        <time>2012-08-08T10:50:50Z</time>
      </trkpt>
      <trkpt lat="45.44514" lon="3.18858">
        <ele>451</ele>
        <time>2012-08-08T10:50:53Z</time>
      </trkpt>
      <trkpt lat="45.44501" lon="3.1888">
        <ele>451</ele>
        <time>2012-08-08T10:50:55Z</time>
      </trkpt>
      <trkpt lat="45.4449" lon="3.18911">
        <ele>451</ele>
        <time>2012-08-08T10:50:59Z</time>
      </trkpt>
      <trkpt lat="45.44484" lon="3.18938">
        <ele>451</ele>
        <time>2012-08-08T10:51:02Z</time>
      </trkpt>
      <trkpt lat="45.44486" lon="3.18969">
        <ele>450</ele>
        <time>2012-08-08T10:51:05Z</time>
      </trkpt>
      <trkpt lat="45.44494" lon="3.19001">
        <ele>449</ele>
        <time>2012-08-08T10:51:08Z</time>
      </trkpt>
      <trkpt lat="45.445" lon="3.19031">
        <ele>450</ele>
        <time>2012-08-08T10:51:11Z</time>
      </trkpt>
      <trkpt lat="45.44506" lon="3.1906">
        <ele>449</ele>
        <time>2012-08-08T10:51:14Z</time>
      </trkpt>
      <trkpt lat="45.4451" lon="3.19092">
        <ele>448</ele>
        <time>2012-08-08T10:51:16Z</time>
      </trkpt>
      <trkpt lat="45.44513" lon="3.19124">
        <ele>448</ele>
        <time>2012-08-08T10:51:20Z</time>
      </trkpt>
      <trkpt lat="45.44516" lon="3.19157">
        <ele>448</ele>
        <time>2012-08-08T10:51:23Z</time>
      </trkpt>
      <trkpt lat="45.44518" lon="3.19187">
        <ele>447</ele>
        <time>2012-08-08T10:51:26Z</time>
      </trkpt>
      <trkpt lat="45.44528" lon="3.19218">
        <ele>446</ele>
        <time>2012-08-08T10:51:29Z</time>
      </trkpt>
      <trkpt lat="45.44534" lon="3.19243">
        <ele>446</ele>
        <time>2012-08-08T10:51:31Z</time>
      </trkpt>
      <trkpt lat="45.44539" lon="3.19275">
        <ele>445</ele>
        <time>2012-08-08T10:51:34Z</time>
      </trkpt>
      <trkpt lat="45.44545" lon="3.19307">
        <ele>445</ele>
        <time>2012-08-08T10:51:37Z</time>
      </trkpt>
      <trkpt lat="45.44544" lon="3.19337">
        <ele>444</ele>
        <time>2012-08-08T10:51:40Z</time>
      </trkpt>
      <trkpt lat="45.4454" lon="3.19367">
        <ele>445</ele>
        <time>2012-08-08T10:51:43Z</time>
      </trkpt>
      <trkpt lat="45.44538" lon="3.19394">
        <ele>445</ele>
        <time>2012-08-08T10:51:46Z</time>
      </trkpt>
      <trkpt lat="45.44539" lon="3.19424">
        <ele>444</ele>
        <time>2012-08-08T10:51:49Z</time>
      </trkpt>
      <trkpt lat="45.44542" lon="3.19454">
        <ele>444</ele>
        <time>2012-08-08T10:51:52Z</time>
      </trkpt>
      <trkpt lat="45.44545" lon="3.19486">
        <ele>443</ele>
        <time>2012-08-08T10:51:55Z</time>
      </trkpt>
      <trkpt lat="45.44546" lon="3.19519">
        <ele>442</ele>
        <time>2012-08-08T10:51:58Z</time>
      </trkpt>
      <trkpt lat="45.44547" lon="3.19549">
        <ele>442</ele>
        <time>2012-08-08T10:52:01Z</time>
      </trkpt>
      <trkpt lat="45.44548" lon="3.19576">
        <ele>442</ele>
        <time>2012-08-08T10:52:04Z</time>
      </trkpt>
      <trkpt lat="45.44539" lon="3.19609">
        <ele>441</ele>
        <time>2012-08-08T10:52:08Z</time>
      </trkpt>
      <trkpt lat="45.4453" lon="3.19634">
        <ele>441</ele>
        <time>2012-08-08T10:52:11Z</time>
      </trkpt>
      <trkpt lat="45.44522" lon="3.19658">
        <ele>441</ele>
        <time>2012-08-08T10:52:14Z</time>
      </trkpt>
      <trkpt lat="45.44513" lon="3.1969">
        <ele>441</ele>
        <time>2012-08-08T10:52:18Z</time>
      </trkpt>
      <trkpt lat="45.44505" lon="3.19717">
        <ele>441</ele>
        <time>2012-08-08T10:52:21Z</time>
      </trkpt>
      <trkpt lat="45.44499" lon="3.19743">
        <ele>441</ele>
        <time>2012-08-08T10:52:24Z</time>
      </trkpt>
      <trkpt lat="45.44493" lon="3.19769">
        <ele>441</ele>
        <time>2012-08-08T10:52:26Z</time>
      </trkpt>
      <trkpt lat="45.44482" lon="3.19796">
        <ele>440</ele>
        <time>2012-08-08T10:52:31Z</time>
      </trkpt>
      <trkpt lat="45.44472" lon="3.1982">
        <ele>440</ele>
        <time>2012-08-08T10:52:34Z</time>
      </trkpt>
      <trkpt lat="45.4446" lon="3.1984">
        <ele>440</ele>
        <time>2012-08-08T10:52:36Z</time>
      </trkpt>
      <trkpt lat="45.44446" lon="3.19857">
        <ele>440</ele>
        <time>2012-08-08T10:52:40Z</time>
      </trkpt>
      <trkpt lat="45.44427" lon="3.19868">
        <ele>440</ele>
        <time>2012-08-08T10:52:42Z</time>
      </trkpt>
      <trkpt lat="45.44412" lon="3.19886">
        <ele>440</ele>
        <time>2012-08-08T10:52:45Z</time>
      </trkpt>
      <trkpt lat="45.44399" lon="3.19903">
        <ele>440</ele>
        <time>2012-08-08T10:52:48Z</time>
      </trkpt>
      <trkpt lat="45.44386" lon="3.19923">
        <ele>440</ele>
        <time>2012-08-08T10:52:51Z</time>
      </trkpt>
      <trkpt lat="45.44373" lon="3.19941">
        <ele>439</ele>
        <time>2012-08-08T10:52:54Z</time>
      </trkpt>
      <trkpt lat="45.4436" lon="3.1996">
        <ele>439</ele>
        <time>2012-08-08T10:52:57Z</time>
      </trkpt>
      <trkpt lat="45.44347" lon="3.19978">
        <ele>439</ele>
        <time>2012-08-08T10:53:00Z</time>
      </trkpt>
      <trkpt lat="45.44332" lon="3.19996">
        <ele>439</ele>
        <time>2012-08-08T10:53:04Z</time>
      </trkpt>
      <trkpt lat="45.44314" lon="3.20006">
        <ele>440</ele>
        <time>2012-08-08T10:53:07Z</time>
      </trkpt>
      <trkpt lat="45.4429" lon="3.20008">
        <ele>440</ele>
        <time>2012-08-08T10:53:11Z</time>
      </trkpt>
      <trkpt lat="45.44271" lon="3.20014">
        <ele>440</ele>
        <time>2012-08-08T10:53:14Z</time>
      </trkpt>
      <trkpt lat="45.44255" lon="3.20025">
        <ele>441</ele>
        <time>2012-08-08T10:53:17Z</time>
      </trkpt>
      <trkpt lat="45.44236" lon="3.20039">
        <ele>441</ele>
        <time>2012-08-08T10:53:21Z</time>
      </trkpt>
      <trkpt lat="45.44216" lon="3.20052">
        <ele>441</ele>
        <time>2012-08-08T10:53:25Z</time>
      </trkpt>
      <trkpt lat="45.44193" lon="3.20064">
        <ele>441</ele>
        <time>2012-08-08T10:53:29Z</time>
      </trkpt>
      <trkpt lat="45.44176" lon="3.20074">
        <ele>441</ele>
        <time>2012-08-08T10:53:32Z</time>
      </trkpt>
      <trkpt lat="45.44154" lon="3.20083">
        <ele>441</ele>
        <time>2012-08-08T10:53:36Z</time>
      </trkpt>
      <trkpt lat="45.44137" lon="3.20104">
        <ele>442</ele>
        <time>2012-08-08T10:53:40Z</time>
      </trkpt>
      <trkpt lat="45.44144" lon="3.2013">
        <ele>442</ele>
        <time>2012-08-08T10:53:43Z</time>
      </trkpt>
      <trkpt lat="45.44146" lon="3.20161">
        <ele>442</ele>
        <time>2012-08-08T10:53:47Z</time>
      </trkpt>
      <trkpt lat="45.4415" lon="3.20191">
        <ele>443</ele>
        <time>2012-08-08T10:53:50Z</time>
      </trkpt>
      <trkpt lat="45.44164" lon="3.20209">
        <ele>443</ele>
        <time>2012-08-08T10:53:53Z</time>
      </trkpt>
      <trkpt lat="45.44176" lon="3.2023">
        <ele>442</ele>
        <time>2012-08-08T10:53:57Z</time>
      </trkpt>
      <trkpt lat="45.44185" lon="3.20253">
        <ele>442</ele>
        <time>2012-08-08T10:54:00Z</time>
      </trkpt>
      <trkpt lat="45.44188" lon="3.20284">
        <ele>442</ele>
        <time>2012-08-08T10:54:03Z</time>
      </trkpt>
      <trkpt lat="45.44183" lon="3.2031">
        <ele>442</ele>
        <time>2012-08-08T10:54:06Z</time>
      </trkpt>
      <trkpt lat="45.44177" lon="3.20336">
        <ele>441</ele>
        <time>2012-08-08T10:54:12Z</time>
      </trkpt>
      <trkpt lat="45.44161" lon="3.20362">
        <ele>442</ele>
        <time>2012-08-08T10:54:16Z</time>
      </trkpt>
      <trkpt lat="45.44143" lon="3.20382">
        <ele>442</ele>
        <time>2012-08-08T10:54:19Z</time>
      </trkpt>
      <trkpt lat="45.44126" lon="3.20399">
        <ele>442</ele>
        <time>2012-08-08T10:54:22Z</time>
      </trkpt>
      <trkpt lat="45.44113" lon="3.20418">
        <ele>442</ele>
        <time>2012-08-08T10:54:24Z</time>
      </trkpt>
      <trkpt lat="45.44102" lon="3.20449">
        <ele>441</ele>
        <time>2012-08-08T10:54:28Z</time>
      </trkpt>
      <trkpt lat="45.44094" lon="3.20472">
        <ele>441</ele>
        <time>2012-08-08T10:54:31Z</time>
      </trkpt>
      <trkpt lat="45.44081" lon="3.20492">
        <ele>442</ele>
        <time>2012-08-08T10:54:35Z</time>
      </trkpt>
      <trkpt lat="45.44075" lon="3.20523">
        <ele>442</ele>
        <time>2012-08-08T10:54:38Z</time>
      </trkpt>
      <trkpt lat="45.44069" lon="3.20556">
        <ele>441</ele>
        <time>2012-08-08T10:54:43Z</time>
      </trkpt>
      <trkpt lat="45.4406" lon="3.20583">
        <ele>441</ele>
        <time>2012-08-08T10:54:48Z</time>
      </trkpt>
      <trkpt lat="45.44048" lon="3.20607">
        <ele>441</ele>
        <time>2012-08-08T10:54:51Z</time>
      </trkpt>
      <trkpt lat="45.44043" lon="3.20634">
        <ele>440</ele>
        <time>2012-08-08T10:54:54Z</time>
      </trkpt>
      <trkpt lat="45.44049" lon="3.20666">
        <ele>440</ele>
        <time>2012-08-08T10:54:57Z</time>
      </trkpt>
      <trkpt lat="45.44052" lon="3.20699">
        <ele>440</ele>
        <time>2012-08-08T10:55:00Z</time>
      </trkpt>
      <trkpt lat="45.44054" lon="3.20729">
        <ele>440</ele>
        <time>2012-08-08T10:55:03Z</time>
      </trkpt>
      <trkpt lat="45.44052" lon="3.20757">
        <ele>439</ele>
        <time>2012-08-08T10:55:06Z</time>
      </trkpt>
      <trkpt lat="45.44045" lon="3.20784">
        <ele>439</ele>
        <time>2012-08-08T10:55:09Z</time>
      </trkpt>
      <trkpt lat="45.4403" lon="3.20809">
        <ele>440</ele>
        <time>2012-08-08T10:55:12Z</time>
      </trkpt>
      <trkpt lat="45.44015" lon="3.2083">
        <ele>440</ele>
        <time>2012-08-08T10:55:15Z</time>
      </trkpt>
      <trkpt lat="45.44004" lon="3.20852">
        <ele>439</ele>
        <time>2012-08-08T10:55:18Z</time>
      </trkpt>
      <trkpt lat="45.43988" lon="3.20878">
        <ele>440</ele>
        <time>2012-08-08T10:55:22Z</time>
      </trkpt>
      <trkpt lat="45.43976" lon="3.20903">
        <ele>440</ele>
        <time>2012-08-08T10:55:25Z</time>
      </trkpt>
      <trkpt lat="45.43968" lon="3.20931">
        <ele>439</ele>
        <time>2012-08-08T10:55:33Z</time>
      </trkpt>
      <trkpt lat="45.43955" lon="3.2095">
        <ele>439</ele>
        <time>2012-08-08T10:55:37Z</time>
      </trkpt>
      <trkpt lat="45.43942" lon="3.20968">
        <ele>439</ele>
        <time>2012-08-08T10:55:40Z</time>
      </trkpt>
      <trkpt lat="45.43928" lon="3.20989">
        <ele>439</ele>
        <time>2012-08-08T10:55:44Z</time>
      </trkpt>
      <trkpt lat="45.43916" lon="3.21015">
        <ele>439</ele>
        <time>2012-08-08T10:55:48Z</time>
      </trkpt>
      <trkpt lat="45.43906" lon="3.21037">
        <ele>439</ele>
        <time>2012-08-08T10:55:51Z</time>
      </trkpt>
      <trkpt lat="45.43892" lon="3.21057">
        <ele>439</ele>
        <time>2012-08-08T10:55:55Z</time>
      </trkpt>
      <trkpt lat="45.43879" lon="3.21079">
        <ele>439</ele>
        <time>2012-08-08T10:55:59Z</time>
      </trkpt>
      <trkpt lat="45.43863" lon="3.21104">
        <ele>440</ele>
        <time>2012-08-08T10:56:03Z</time>
      </trkpt>
      <trkpt lat="45.43849" lon="3.21121">
        <ele>440</ele>
        <time>2012-08-08T10:56:05Z</time>
      </trkpt>
      <trkpt lat="45.43837" lon="3.21146">
        <ele>440</ele>
        <time>2012-08-08T10:56:10Z</time>
      </trkpt>
      <trkpt lat="45.43823" lon="3.21164">
        <ele>440</ele>
        <time>2012-08-08T10:56:13Z</time>
      </trkpt>
      <trkpt lat="45.43806" lon="3.21184">
        <ele>442</ele>
        <time>2012-08-08T10:56:17Z</time>
      </trkpt>
      <trkpt lat="45.43788" lon="3.21205">
        <ele>443</ele>
        <time>2012-08-08T10:56:21Z</time>
      </trkpt>
      <trkpt lat="45.43774" lon="3.21229">
        <ele>444</ele>
        <time>2012-08-08T10:56:25Z</time>
      </trkpt>
      <trkpt lat="45.43757" lon="3.21248">
        <ele>445</ele>
        <time>2012-08-08T10:56:29Z</time>
      </trkpt>
      <trkpt lat="45.43742" lon="3.21267">
        <ele>449</ele>
        <time>2012-08-08T10:56:33Z</time>
      </trkpt>
      <trkpt lat="45.43728" lon="3.21285">
        <ele>451</ele>
        <time>2012-08-08T10:56:38Z</time>
      </trkpt>
      <trkpt lat="45.43712" lon="3.21303">
        <ele>452</ele>
        <time>2012-08-08T10:56:44Z</time>
      </trkpt>
      <trkpt lat="45.437" lon="3.21324">
        <ele>453</ele>
        <time>2012-08-08T10:56:51Z</time>
      </trkpt>
      <trkpt lat="45.43692" lon="3.21353">
        <ele>456</ele>
        <time>2012-08-08T10:56:59Z</time>
      </trkpt>
      <trkpt lat="45.43687" lon="3.21381">
        <ele>457</ele>
        <time>2012-08-08T10:57:07Z</time>
      </trkpt>
      <trkpt lat="45.4368" lon="3.21405">
        <ele>458</ele>
        <time>2012-08-08T10:57:13Z</time>
      </trkpt>
      <trkpt lat="45.43671" lon="3.2143">
        <ele>460</ele>
        <time>2012-08-08T10:57:20Z</time>
      </trkpt>
      <trkpt lat="45.43667" lon="3.21456">
        <ele>461</ele>
        <time>2012-08-08T10:57:27Z</time>
      </trkpt>
      <trkpt lat="45.43666" lon="3.21482">
        <ele>465</ele>
        <time>2012-08-08T10:57:33Z</time>
      </trkpt>
      <trkpt lat="45.43663" lon="3.2151">
        <ele>467</ele>
        <time>2012-08-08T10:57:39Z</time>
      </trkpt>
      <trkpt lat="45.43665" lon="3.21539">
        <ele>468</ele>
        <time>2012-08-08T10:57:45Z</time>
      </trkpt>
      <trkpt lat="45.43664" lon="3.21569">
        <ele>470</ele>
        <time>2012-08-08T10:57:51Z</time>
      </trkpt>
      <trkpt lat="45.43664" lon="3.21596">
        <ele>472</ele>
        <time>2012-08-08T10:57:57Z</time>
      </trkpt>
      <trkpt lat="45.43668" lon="3.21625">
        <ele>471</ele>
        <time>2012-08-08T10:58:03Z</time>
      </trkpt>
      <trkpt lat="45.43674" lon="3.21654">
        <ele>472</ele>
        <time>2012-08-08T10:58:09Z</time>
      </trkpt>
      <trkpt lat="45.43681" lon="3.21684">
        <ele>474</ele>
        <time>2012-08-08T10:58:16Z</time>
      </trkpt>
      <trkpt lat="45.43687" lon="3.2171">
        <ele>474</ele>
        <time>2012-08-08T10:58:24Z</time>
      </trkpt>
      <trkpt lat="45.43701" lon="3.21727">
        <ele>474</ele>
        <time>2012-08-08T10:58:30Z</time>
      </trkpt>
      <trkpt lat="45.43712" lon="3.21751">
        <ele>475</ele>
        <time>2012-08-08T10:58:38Z</time>
      </trkpt>
      <trkpt lat="45.4372" lon="3.21774">
        <ele>475</ele>
        <time>2012-08-08T10:58:41Z</time>
      </trkpt>
      <trkpt lat="45.43717" lon="3.21802">
        <ele>475</ele>
        <time>2012-08-08T10:58:45Z</time>
      </trkpt>
      <trkpt lat="45.43722" lon="3.21831">
        <ele>475</ele>
        <time>2012-08-08T10:58:49Z</time>
      </trkpt>
      <trkpt lat="45.43735" lon="3.2186">
        <ele>476</ele>
        <time>2012-08-08T10:58:53Z</time>
      </trkpt>
      <trkpt lat="45.43754" lon="3.21882">
        <ele>471</ele>
        <time>2012-08-08T10:58:56Z</time>
      </trkpt>
      <trkpt lat="45.43762" lon="3.21912">
        <ele>473</ele>
        <time>2012-08-08T10:59:01Z</time>
      </trkpt>
      <trkpt lat="45.43771" lon="3.21938">
        <ele>474</ele>
        <time>2012-08-08T10:59:05Z</time>
      </trkpt>
      <trkpt lat="45.43779" lon="3.21964">
        <ele>474</ele>
        <time>2012-08-08T10:59:09Z</time>
      </trkpt>
      <trkpt lat="45.4379" lon="3.2199">
        <ele>474</ele>
        <time>2012-08-08T10:59:12Z</time>
      </trkpt>
      <trkpt lat="45.43799" lon="3.22016">
        <ele>475</ele>
        <time>2012-08-08T10:59:15Z</time>
      </trkpt>
      <trkpt lat="45.4381" lon="3.22049">
        <ele>474</ele>
        <time>2012-08-08T10:59:18Z</time>
      </trkpt>
      <trkpt lat="45.43821" lon="3.2208">
        <ele>472</ele>
        <time>2012-08-08T10:59:21Z</time>
      </trkpt>
      <trkpt lat="45.43834" lon="3.22111">
        <ele>469</ele>
        <time>2012-08-08T10:59:24Z</time>
      </trkpt>
      <trkpt lat="45.43847" lon="3.22138">
        <ele>469</ele>
        <time>2012-08-08T10:59:27Z</time>
      </trkpt>
      <trkpt lat="45.43854" lon="3.22168">
        <ele>470</ele>
        <time>2012-08-08T10:59:30Z</time>
      </trkpt>
      <trkpt lat="45.43867" lon="3.22195">
        <ele>468</ele>
        <time>2012-08-08T10:59:33Z</time>
      </trkpt>
      <trkpt lat="45.43883" lon="3.22225">
        <ele>468</ele>
        <time>2012-08-08T10:59:36Z</time>
      </trkpt>
      <trkpt lat="45.43896" lon="3.22255">
        <ele>466</ele>
        <time>2012-08-08T10:59:39Z</time>
      </trkpt>
      <trkpt lat="45.43908" lon="3.22281">
        <ele>466</ele>
        <time>2012-08-08T10:59:41Z</time>
      </trkpt>
      <trkpt lat="45.4392" lon="3.22313">
        <ele>463</ele>
        <time>2012-08-08T10:59:44Z</time>
      </trkpt>
      <trkpt lat="45.43933" lon="3.22342">
        <ele>463</ele>
        <time>2012-08-08T10:59:47Z</time>
      </trkpt>
      <trkpt lat="45.43947" lon="3.22371">
        <ele>463</ele>
        <time>2012-08-08T10:59:50Z</time>
      </trkpt>
      <trkpt lat="45.43962" lon="3.224">
        <ele>462</ele>
        <time>2012-08-08T10:59:53Z</time>
      </trkpt>
      <trkpt lat="45.43976" lon="3.22431">
        <ele>462</ele>
        <time>2012-08-08T10:59:56Z</time>
      </trkpt>
      <trkpt lat="45.43985" lon="3.22462">
        <ele>463</ele>
        <time>2012-08-08T10:59:59Z</time>
      </trkpt>
      <trkpt lat="45.43995" lon="3.22493">
        <ele>463</ele>
        <time>2012-08-08T11:00:02Z</time>
      </trkpt>
      <trkpt lat="45.4401" lon="3.22521">
        <ele>461</ele>
        <time>2012-08-08T11:00:05Z</time>
      </trkpt>
      <trkpt lat="45.44018" lon="3.22551">
        <ele>461</ele>
        <time>2012-08-08T11:00:08Z</time>
      </trkpt>
      <trkpt lat="45.44025" lon="3.22579">
        <ele>461</ele>
        <time>2012-08-08T11:00:11Z</time>
      </trkpt>
      <trkpt lat="45.44032" lon="3.22609">
        <ele>461</ele>
        <time>2012-08-08T11:00:14Z</time>
      </trkpt>
      <trkpt lat="45.44037" lon="3.22635">
        <ele>461</ele>
        <time>2012-08-08T11:00:17Z</time>
      </trkpt>
      <trkpt lat="45.44035" lon="3.22661">
        <ele>461</ele>
        <time>2012-08-08T11:00:20Z</time>
      </trkpt>
      <trkpt lat="45.44033" lon="3.22687">
        <ele>462</ele>
        <time>2012-08-08T11:00:22Z</time>
      </trkpt>
      <trkpt lat="45.44031" lon="3.22714">
        <ele>462</ele>
        <time>2012-08-08T11:00:26Z</time>
      </trkpt>
      <trkpt lat="45.44025" lon="3.22738">
        <ele>463</ele>
        <time>2012-08-08T11:00:29Z</time>
      </trkpt>
      <trkpt lat="45.44023" lon="3.22769">
        <ele>463</ele>
        <time>2012-08-08T11:00:33Z</time>
      </trkpt>
      <trkpt lat="45.44023" lon="3.22801">
        <ele>463</ele>
        <time>2012-08-08T11:00:37Z</time>
      </trkpt>
      <trkpt lat="45.44028" lon="3.22835">
        <ele>463</ele>
        <time>2012-08-08T11:00:41Z</time>
      </trkpt>
      <trkpt lat="45.44038" lon="3.22867">
        <ele>462</ele>
        <time>2012-08-08T11:00:45Z</time>
      </trkpt>
      <trkpt lat="45.44039" lon="3.22899">
        <ele>462</ele>
        <time>2012-08-08T11:00:49Z</time>
      </trkpt>
      <trkpt lat="45.44042" lon="3.22931">
        <ele>463</ele>
        <time>2012-08-08T11:00:53Z</time>
      </trkpt>
      <trkpt lat="45.44042" lon="3.22961">
        <ele>463</ele>
        <time>2012-08-08T11:00:57Z</time>
      </trkpt>
      <trkpt lat="45.44037" lon="3.22988">
        <ele>463</ele>
        <time>2012-08-08T11:01:00Z</time>
      </trkpt>
      <trkpt lat="45.44037" lon="3.23015">
        <ele>464</ele>
        <time>2012-08-08T11:01:04Z</time>
      </trkpt>
      <trkpt lat="45.4403" lon="3.23046">
        <ele>464</ele>
        <time>2012-08-08T11:01:08Z</time>
      </trkpt>
      <trkpt lat="45.44028" lon="3.23077">
        <ele>464</ele>
        <time>2012-08-08T11:01:12Z</time>
      </trkpt>
      <trkpt lat="45.44025" lon="3.23108">
        <ele>463</ele>
        <time>2012-08-08T11:01:16Z</time>
      </trkpt>
      <trkpt lat="45.44019" lon="3.2314">
        <ele>463</ele>
        <time>2012-08-08T11:01:20Z</time>
      </trkpt>
      <trkpt lat="45.44017" lon="3.23167">
        <ele>463</ele>
        <time>2012-08-08T11:01:23Z</time>
      </trkpt>
      <trkpt lat="45.44013" lon="3.23194">
        <ele>462</ele>
        <time>2012-08-08T11:01:26Z</time>
      </trkpt>
      <trkpt lat="45.44014" lon="3.23222">
        <ele>462</ele>
        <time>2012-08-08T11:01:29Z</time>
      </trkpt>
      <trkpt lat="45.44008" lon="3.23247">
        <ele>463</ele>
        <time>2012-08-08T11:01:32Z</time>
      </trkpt>
      <trkpt lat="45.44003" lon="3.23274">
        <ele>462</ele>
        <time>2012-08-08T11:01:36Z</time>
      </trkpt>
      <trkpt lat="45.43997" lon="3.23299">
        <ele>466</ele>
        <time>2012-08-08T11:01:40Z</time>
      </trkpt>
      <trkpt lat="45.43991" lon="3.23326">
        <ele>465</ele>
        <time>2012-08-08T11:01:43Z</time>
      </trkpt>
      <trkpt lat="45.43987" lon="3.23353">
        <ele>465</ele>
        <time>2012-08-08T11:01:48Z</time>
      </trkpt>
      <trkpt lat="45.43982" lon="3.2338">
        <ele>465</ele>
        <time>2012-08-08T11:01:53Z</time>
      </trkpt>
      <trkpt lat="45.43973" lon="3.23406">
        <ele>464</ele>
        <time>2012-08-08T11:02:01Z</time>
      </trkpt>
      <trkpt lat="45.43967" lon="3.23433">
        <ele>464</ele>
        <time>2012-08-08T11:02:06Z</time>
      </trkpt>
      <trkpt lat="45.4396" lon="3.23457">
        <ele>465</ele>
        <time>2012-08-08T11:02:12Z</time>
      </trkpt>
      <trkpt lat="45.43941" lon="3.23471">
        <ele>466</ele>
        <time>2012-08-08T11:02:17Z</time>
      </trkpt>
      <trkpt lat="45.43922" lon="3.23477">
        <ele>466</ele>
        <time>2012-08-08T11:02:22Z</time>
      </trkpt>
      <trkpt lat="45.43909" lon="3.23498">
        <ele>470</ele>
        <time>2012-08-08T11:02:26Z</time>
      </trkpt>
      <trkpt lat="45.439" lon="3.23522">
        <ele>472</ele>
        <time>2012-08-08T11:02:32Z</time>
      </trkpt>
      <trkpt lat="45.43885" lon="3.23542">
        <ele>473</ele>
        <time>2012-08-08T11:02:37Z</time>
      </trkpt>
      <trkpt lat="45.43869" lon="3.23556">
        <ele>474</ele>
        <time>2012-08-08T11:02:42Z</time>
      </trkpt>
      <trkpt lat="45.43858" lon="3.23576">
        <ele>475</ele>
        <time>2012-08-08T11:02:48Z</time>
      </trkpt>
      <trkpt lat="45.43852" lon="3.23604">
        <ele>475</ele>
        <time>2012-08-08T11:02:55Z</time>
      </trkpt>
      <trkpt lat="45.43844" lon="3.23631">
        <ele>475</ele>
        <time>2012-08-08T11:03:01Z</time>
      </trkpt>
      <trkpt lat="45.4385" lon="3.23659">
        <ele>475</ele>
        <time>2012-08-08T11:03:08Z</time>
      </trkpt>
      <trkpt lat="45.43865" lon="3.23677">
        <ele>474</ele>
        <time>2012-08-08T11:03:12Z</time>
      </trkpt>
      <trkpt lat="45.4389" lon="3.23686">
        <ele>473</ele>
        <time>2012-08-08T11:03:15Z</time>
      </trkpt>
      <trkpt lat="45.43912" lon="3.23697">
        <ele>472</ele>
        <time>2012-08-08T11:03:18Z</time>
      </trkpt>
      <trkpt lat="45.4393" lon="3.23706">
        <ele>467</ele>
        <time>2012-08-08T11:03:20Z</time>
      </trkpt>
      <trkpt lat="45.43956" lon="3.23719">
        <ele>466</ele>
        <time>2012-08-08T11:03:23Z</time>
      </trkpt>
      <trkpt lat="45.43975" lon="3.23723">
        <ele>465</ele>
        <time>2012-08-08T11:03:25Z</time>
      </trkpt>
      <trkpt lat="45.43992" lon="3.23728">
        <ele>465</ele>
        <time>2012-08-08T11:03:26Z</time>
      </trkpt>
      <trkpt lat="45.44012" lon="3.23734">
        <ele>461</ele>
        <time>2012-08-08T11:03:29Z</time>
      </trkpt>
      <trkpt lat="45.44032" lon="3.23738">
        <ele>461</ele>
        <time>2012-08-08T11:03:31Z</time>
      </trkpt>
      <trkpt lat="45.44051" lon="3.23743">
        <ele>460</ele>
        <time>2012-08-08T11:03:32Z</time>
      </trkpt>
      <trkpt lat="45.44071" lon="3.23747">
        <ele>459</ele>
        <time>2012-08-08T11:03:35Z</time>
      </trkpt>
      <trkpt lat="45.44089" lon="3.23753">
        <ele>458</ele>
        <time>2012-08-08T11:03:36Z</time>
      </trkpt>
      <trkpt lat="45.44109" lon="3.23758">
        <ele>457</ele>
        <time>2012-08-08T11:03:39Z</time>
      </trkpt>
      <trkpt lat="45.44135" lon="3.23763">
        <ele>457</ele>
        <time>2012-08-08T11:03:42Z</time>
      </trkpt>
      <trkpt lat="45.44158" lon="3.23772">
        <ele>456</ele>
        <time>2012-08-08T11:03:45Z</time>
      </trkpt>
      <trkpt lat="45.44183" lon="3.23776">
        <ele>454</ele>
        <time>2012-08-08T11:03:48Z</time>
      </trkpt>
      <trkpt lat="45.44209" lon="3.23782">
        <ele>453</ele>
        <time>2012-08-08T11:03:51Z</time>
      </trkpt>
      <trkpt lat="45.44233" lon="3.23786">
        <ele>453</ele>
        <time>2012-08-08T11:03:53Z</time>
      </trkpt>
      <trkpt lat="45.44251" lon="3.23793">
        <ele>450</ele>
        <time>2012-08-08T11:03:56Z</time>
      </trkpt>
      <trkpt lat="45.44275" lon="3.23792">
        <ele>450</ele>
        <time>2012-08-08T11:03:59Z</time>
      </trkpt>
      <trkpt lat="45.443" lon="3.23782">
        <ele>449</ele>
        <time>2012-08-08T11:04:02Z</time>
      </trkpt>
      <trkpt lat="45.44326" lon="3.23775">
        <ele>449</ele>
        <time>2012-08-08T11:04:05Z</time>
      </trkpt>
      <trkpt lat="45.4435" lon="3.23768">
        <ele>447</ele>
        <time>2012-08-08T11:04:07Z</time>
      </trkpt>
      <trkpt lat="45.44368" lon="3.23761">
        <ele>447</ele>
        <time>2012-08-08T11:04:10Z</time>
      </trkpt>
      <trkpt lat="45.44392" lon="3.23752">
        <ele>447</ele>
        <time>2012-08-08T11:04:13Z</time>
      </trkpt>
      <trkpt lat="45.44418" lon="3.23746">
        <ele>446</ele>
        <time>2012-08-08T11:04:16Z</time>
      </trkpt>
      <trkpt lat="45.44441" lon="3.2373">
        <ele>444</ele>
        <time>2012-08-08T11:04:18Z</time>
      </trkpt>
      <trkpt lat="45.44459" lon="3.2371">
        <ele>444</ele>
        <time>2012-08-08T11:04:22Z</time>
      </trkpt>
      <trkpt lat="45.4448" lon="3.23709">
        <ele>444</ele>
        <time>2012-08-08T11:04:25Z</time>
      </trkpt>
      <trkpt lat="45.445" lon="3.23723">
        <ele>444</ele>
        <time>2012-08-08T11:04:28Z</time>
      </trkpt>
      <trkpt lat="45.44523" lon="3.23738">
        <ele>442</ele>
        <time>2012-08-08T11:04:31Z</time>
      </trkpt>
      <trkpt lat="45.44545" lon="3.23752">
        <ele>441</ele>
        <time>2012-08-08T11:04:34Z</time>
      </trkpt>
      <trkpt lat="45.44568" lon="3.23766">
        <ele>441</ele>
        <time>2012-08-08T11:04:37Z</time>
      </trkpt>
      <trkpt lat="45.4459" lon="3.23781">
        <ele>439</ele>
        <time>2012-08-08T11:04:40Z</time>
      </trkpt>
      <trkpt lat="45.44612" lon="3.23796">
        <ele>438</ele>
        <time>2012-08-08T11:04:43Z</time>
      </trkpt>
      <trkpt lat="45.44635" lon="3.23811">
        <ele>438</ele>
        <time>2012-08-08T11:04:46Z</time>
      </trkpt>
      <trkpt lat="45.44657" lon="3.23825">
        <ele>437</ele>
        <time>2012-08-08T11:04:49Z</time>
      </trkpt>
      <trkpt lat="45.44681" lon="3.23841">
        <ele>436</ele>
        <time>2012-08-08T11:04:52Z</time>
      </trkpt>
      <trkpt lat="45.44698" lon="3.23851">
        <ele>436</ele>
        <time>2012-08-08T11:04:54Z</time>
      </trkpt>
      <trkpt lat="45.44717" lon="3.23851">
        <ele>435</ele>
        <time>2012-08-08T11:04:57Z</time>
      </trkpt>
      <trkpt lat="45.44735" lon="3.23853">
        <ele>435</ele>
        <time>2012-08-08T11:04:59Z</time>
      </trkpt>
      <trkpt lat="45.44759" lon="3.23851">
        <ele>434</ele>
        <time>2012-08-08T11:05:02Z</time>
      </trkpt>
      <trkpt lat="45.44782" lon="3.23848">
        <ele>434</ele>
        <time>2012-08-08T11:05:05Z</time>
      </trkpt>
      <trkpt lat="45.44806" lon="3.23842">
        <ele>433</ele>
        <time>2012-08-08T11:05:08Z</time>
      </trkpt>
      <trkpt lat="45.44832" lon="3.23839">
        <ele>432</ele>
        <time>2012-08-08T11:05:11Z</time>
      </trkpt>
      <trkpt lat="45.44855" lon="3.23832">
        <ele>432</ele>
        <time>2012-08-08T11:05:13Z</time>
      </trkpt>
      <trkpt lat="45.44881" lon="3.23828">
        <ele>432</ele>
        <time>2012-08-08T11:05:16Z</time>
      </trkpt>
      <trkpt lat="45.44908" lon="3.23823">
        <ele>432</ele>
        <time>2012-08-08T11:05:20Z</time>
      </trkpt>
      <trkpt lat="45.44932" lon="3.23819">
        <ele>431</ele>
        <time>2012-08-08T11:05:23Z</time>
      </trkpt>
      <trkpt lat="45.44956" lon="3.23814">
        <ele>431</ele>
        <time>2012-08-08T11:05:26Z</time>
      </trkpt>
      <trkpt lat="45.44982" lon="3.2381">
        <ele>430</ele>
        <time>2012-08-08T11:05:29Z</time>
      </trkpt>
      <trkpt lat="45.45008" lon="3.23805">
        <ele>428</ele>
        <time>2012-08-08T11:05:32Z</time>
      </trkpt>
      <trkpt lat="45.45033" lon="3.23801">
        <ele>428</ele>
        <time>2012-08-08T11:05:34Z</time>
      </trkpt>
      <trkpt lat="45.45058" lon="3.23793">
        <ele>427</ele>
        <time>2012-08-08T11:05:38Z</time>
      </trkpt>
      <trkpt lat="45.45076" lon="3.23792">
        <ele>427</ele>
        <time>2012-08-08T11:05:40Z</time>
      </trkpt>
      <trkpt lat="45.45096" lon="3.2379">
        <ele>425</ele>
        <time>2012-08-08T11:05:42Z</time>
      </trkpt>
      <trkpt lat="45.4512" lon="3.23785">
        <ele>425</ele>
        <time>2012-08-08T11:05:45Z</time>
      </trkpt>
      <trkpt lat="45.45146" lon="3.23775">
        <ele>425</ele>
        <time>2012-08-08T11:05:48Z</time>
      </trkpt>
      <trkpt lat="45.45163" lon="3.23766">
        <ele>424</ele>
        <time>2012-08-08T11:05:50Z</time>
      </trkpt>
      <trkpt lat="45.45186" lon="3.23748">
        <ele>424</ele>
        <time>2012-08-08T11:05:53Z</time>
      </trkpt>
      <trkpt lat="45.45207" lon="3.23733">
        <ele>423</ele>
        <time>2012-08-08T11:05:56Z</time>
      </trkpt>
      <trkpt lat="45.45227" lon="3.23716">
        <ele>423</ele>
        <time>2012-08-08T11:05:59Z</time>
      </trkpt>
      <trkpt lat="45.4525" lon="3.23709">
        <ele>422</ele>
        <time>2012-08-08T11:06:02Z</time>
      </trkpt>
      <trkpt lat="45.45275" lon="3.23716">
        <ele>422</ele>
        <time>2012-08-08T11:06:05Z</time>
      </trkpt>
      <trkpt lat="45.453" lon="3.23719">
        <ele>421</ele>
        <time>2012-08-08T11:06:08Z</time>
      </trkpt>
      <trkpt lat="45.45321" lon="3.2372">
        <ele>421</ele>
        <time>2012-08-08T11:06:10Z</time>
      </trkpt>
      <trkpt lat="45.45347" lon="3.23727">
        <ele>420</ele>
        <time>2012-08-08T11:06:13Z</time>
      </trkpt>
      <trkpt lat="45.45368" lon="3.23731">
        <ele>419</ele>
        <time>2012-08-08T11:06:15Z</time>
      </trkpt>
      <trkpt lat="45.45392" lon="3.23737">
        <ele>419</ele>
        <time>2012-08-08T11:06:18Z</time>
      </trkpt>
      <trkpt lat="45.45416" lon="3.23732">
        <ele>419</ele>
        <time>2012-08-08T11:06:21Z</time>
      </trkpt>
      <trkpt lat="45.45441" lon="3.2373">
        <ele>418</ele>
        <time>2012-08-08T11:06:24Z</time>
      </trkpt>
      <trkpt lat="45.45462" lon="3.23722">
        <ele>418</ele>
        <time>2012-08-08T11:06:27Z</time>
      </trkpt>
      <trkpt lat="45.45482" lon="3.23713">
        <ele>417</ele>
        <time>2012-08-08T11:06:29Z</time>
      </trkpt>
      <trkpt lat="45.455" lon="3.23709">
        <ele>417</ele>
        <time>2012-08-08T11:06:32Z</time>
      </trkpt>
      <trkpt lat="45.45522" lon="3.23704">
        <ele>416</ele>
        <time>2012-08-08T11:06:35Z</time>
      </trkpt>
      <trkpt lat="45.4554" lon="3.23697">
        <ele>416</ele>
        <time>2012-08-08T11:06:37Z</time>
      </trkpt>
      <trkpt lat="45.45564" lon="3.23685">
        <ele>416</ele>
        <time>2012-08-08T11:06:40Z</time>
      </trkpt>
      <trkpt lat="45.45585" lon="3.23668">
        <ele>415</ele>
        <time>2012-08-08T11:06:43Z</time>
      </trkpt>
      <trkpt lat="45.456" lon="3.2365">
        <ele>414</ele>
        <time>2012-08-08T11:06:46Z</time>
      </trkpt>
      <trkpt lat="45.45618" lon="3.23662">
        <ele>414</ele>
        <time>2012-08-08T11:06:54Z</time>
      </trkpt>
      <trkpt lat="45.45633" lon="3.23684">
        <ele>414</ele>
        <time>2012-08-08T11:06:58Z</time>
      </trkpt>
      <trkpt lat="45.45663" lon="3.23709">
        <ele>414</ele>
        <time>2012-08-08T11:07:05Z</time>
      </trkpt>
      <trkpt lat="45.4568" lon="3.237">
        <ele>413</ele>
        <time>2012-08-08T11:07:08Z</time>
      </trkpt>
      <trkpt lat="45.45686" lon="3.23669">
        <ele>413</ele>
        <time>2012-08-08T11:07:12Z</time>
      </trkpt>
      <trkpt lat="45.45691" lon="3.23643">
        <ele>413</ele>
        <time>2012-08-08T11:07:15Z</time>
      </trkpt>
      <trkpt lat="45.4569" lon="3.23609">
        <ele>413</ele>
        <time>2012-08-08T11:07:18Z</time>
      </trkpt>
      <trkpt lat="45.45693" lon="3.23582">
        <ele>413</ele>
        <time>2012-08-08T11:07:21Z</time>
      </trkpt>
      <trkpt lat="45.457" lon="3.23556">
        <ele>413</ele>
        <time>2012-08-08T11:07:24Z</time>
      </trkpt>
      <trkpt lat="45.4571" lon="3.23526">
        <ele>413</ele>
        <time>2012-08-08T11:07:28Z</time>
      </trkpt>
      <trkpt lat="45.4572" lon="3.23502">
        <ele>413</ele>
        <time>2012-08-08T11:07:31Z</time>
      </trkpt>
      <trkpt lat="45.4573" lon="3.23478">
        <ele>413</ele>
        <time>2012-08-08T11:07:34Z</time>
      </trkpt>
      <trkpt lat="45.45738" lon="3.2345">
        <ele>413</ele>
        <time>2012-08-08T11:07:37Z</time>
      </trkpt>
      <trkpt lat="45.45745" lon="3.23421">
        <ele>413</ele>
        <time>2012-08-08T11:07:40Z</time>
      </trkpt>
      <trkpt lat="45.45752" lon="3.23391">
        <ele>412</ele>
        <time>2012-08-08T11:07:43Z</time>
      </trkpt>
      <trkpt lat="45.45753" lon="3.23362">
        <ele>412</ele>
        <time>2012-08-08T11:07:46Z</time>
      </trkpt>
      <trkpt lat="45.45751" lon="3.23335">
        <ele>413</ele>
        <time>2012-08-08T11:07:49Z</time>
      </trkpt>
      <trkpt lat="45.45749" lon="3.23308">
        <ele>413</ele>
        <time>2012-08-08T11:07:52Z</time>
      </trkpt>
      <trkpt lat="45.45744" lon="3.23278">
        <ele>413</ele>
        <time>2012-08-08T11:07:55Z</time>
      </trkpt>
      <trkpt lat="45.45742" lon="3.23252">
        <ele>413</ele>
        <time>2012-08-08T11:07:58Z</time>
      </trkpt>
      <trkpt lat="45.45741" lon="3.23219">
        <ele>412</ele>
        <time>2012-08-08T11:08:02Z</time>
      </trkpt>
      <trkpt lat="45.45741" lon="3.23187">
        <ele>412</ele>
        <time>2012-08-08T11:08:06Z</time>
      </trkpt>
      <trkpt lat="45.45738" lon="3.23155">
        <ele>412</ele>
        <time>2012-08-08T11:08:10Z</time>
      </trkpt>
      <trkpt lat="45.45731" lon="3.23127">
        <ele>412</ele>
        <time>2012-08-08T11:08:14Z</time>
      </trkpt>
      <trkpt lat="45.45749" lon="3.2312">
        <ele>413</ele>
        <time>2012-08-08T11:08:25Z</time>
      </trkpt>
      <trkpt lat="45.45755" lon="3.23152">
        <ele>412</ele>
        <time>2012-08-08T11:08:31Z</time>
      </trkpt>
      <trkpt lat="45.45764" lon="3.2318">
        <ele>412</ele>
        <time>2012-08-08T11:08:35Z</time>
      </trkpt>
      <trkpt lat="45.45771" lon="3.23206">
        <ele>412</ele>
        <time>2012-08-08T11:08:38Z</time>
      </trkpt>
      <trkpt lat="45.45781" lon="3.2324">
        <ele>412</ele>
        <time>2012-08-08T11:08:42Z</time>
      </trkpt>
      <trkpt lat="45.45797" lon="3.23271">
        <ele>412</ele>
        <time>2012-08-08T11:08:46Z</time>
      </trkpt>
      <trkpt lat="45.45806" lon="3.23297">
        <ele>411</ele>
        <time>2012-08-08T11:08:49Z</time>
      </trkpt>
      <trkpt lat="45.45801" lon="3.23322">
        <ele>411</ele>
        <time>2012-08-08T11:08:52Z</time>
      </trkpt>
      <trkpt lat="45.45804" lon="3.2335">
        <ele>411</ele>
        <time>2012-08-08T11:08:55Z</time>
      </trkpt>
      <trkpt lat="45.45805" lon="3.23377">
        <ele>411</ele>
        <time>2012-08-08T11:08:57Z</time>
      </trkpt>
      <trkpt lat="45.45825" lon="3.23472">
        <ele>411</ele>
        <time>2012-08-08T11:09:07Z</time>
      </trkpt>
      <trkpt lat="45.45826" lon="3.23501">
        <ele>410</ele>
        <time>2012-08-08T11:09:10Z</time>
      </trkpt>
      <trkpt lat="45.4584" lon="3.23566">
        <ele>410</ele>
        <time>2012-08-08T11:09:17Z</time>
      </trkpt>
      <trkpt lat="45.45838" lon="3.23595">
        <ele>411</ele>
        <time>2012-08-08T11:09:21Z</time>
      </trkpt>
      <trkpt lat="45.4586" lon="3.23594">
        <ele>410</ele>
        <time>2012-08-08T11:09:27Z</time>
      </trkpt>
      <trkpt lat="45.45877" lon="3.2358">
        <ele>409</ele>
        <time>2012-08-08T11:09:30Z</time>
      </trkpt>
      <trkpt lat="45.45894" lon="3.2357">
        <ele>409</ele>
        <time>2012-08-08T11:09:32Z</time>
      </trkpt>
      <trkpt lat="45.45918" lon="3.2357">
        <ele>408</ele>
        <time>2012-08-08T11:09:39Z</time>
      </trkpt>
      <trkpt lat="45.45944" lon="3.23566">
        <ele>408</ele>
        <time>2012-08-08T11:09:42Z</time>
      </trkpt>
      <trkpt lat="45.45967" lon="3.23561">
        <ele>407</ele>
        <time>2012-08-08T11:09:45Z</time>
      </trkpt>
      <trkpt lat="45.45988" lon="3.23553">
        <ele>407</ele>
        <time>2012-08-08T11:09:48Z</time>
      </trkpt>
      <trkpt lat="45.46006" lon="3.2355">
        <ele>407</ele>
        <time>2012-08-08T11:09:50Z</time>
      </trkpt>
      <trkpt lat="45.46026" lon="3.23544">
        <ele>407</ele>
        <time>2012-08-08T11:09:53Z</time>
      </trkpt>
      <trkpt lat="45.46044" lon="3.23538">
        <ele>407</ele>
        <time>2012-08-08T11:09:56Z</time>
      </trkpt>
      <trkpt lat="45.46064" lon="3.23535">
        <ele>407</ele>
        <time>2012-08-08T11:09:59Z</time>
      </trkpt>
      <trkpt lat="45.46084" lon="3.23527">
        <ele>406</ele>
        <time>2012-08-08T11:10:02Z</time>
      </trkpt>
      <trkpt lat="45.461" lon="3.23545">
        <ele>406</ele>
        <time>2012-08-08T11:10:09Z</time>
      </trkpt>
      <trkpt lat="45.46092" lon="3.23569">
        <ele>406</ele>
        <time>2012-08-08T11:10:15Z</time>
      </trkpt>
      <trkpt lat="45.46089" lon="3.236">
        <ele>406</ele>
        <time>2012-08-08T11:10:21Z</time>
      </trkpt>
      <trkpt lat="45.46092" lon="3.23633">
        <ele>406</ele>
        <time>2012-08-08T11:10:26Z</time>
      </trkpt>
      <trkpt lat="45.46075" lon="3.23648">
        <ele>406</ele>
        <time>2012-08-08T11:10:28Z</time>
      </trkpt>
      <trkpt lat="45.46067" lon="3.23683">
        <ele>406</ele>
        <time>2012-08-08T11:10:32Z</time>
      </trkpt>
      <trkpt lat="45.46061" lon="3.23713">
        <ele>406</ele>
        <time>2012-08-08T11:10:36Z</time>
      </trkpt>
      <trkpt lat="45.46055" lon="3.23738">
        <ele>406</ele>
        <time>2012-08-08T11:10:40Z</time>
      </trkpt>
      <trkpt lat="45.46045" lon="3.2376">
        <ele>407</ele>
        <time>2012-08-08T11:10:44Z</time>
      </trkpt>
      <trkpt lat="45.46033" lon="3.23779">
        <ele>407</ele>
        <time>2012-08-08T11:10:50Z</time>
      </trkpt>
      <trkpt lat="45.46033" lon="3.2381">
        <ele>407</ele>
        <time>2012-08-08T11:10:55Z</time>
      </trkpt>
      <trkpt lat="45.46035" lon="3.23841">
        <ele>408</ele>
        <time>2012-08-08T11:10:59Z</time>
      </trkpt>
      <trkpt lat="45.46026" lon="3.23868">
        <ele>408</ele>
        <time>2012-08-08T11:11:04Z</time>
      </trkpt>
      <trkpt lat="45.46024" lon="3.23896">
        <ele>408</ele>
        <time>2012-08-08T11:11:10Z</time>
      </trkpt>
      <trkpt lat="45.46044" lon="3.23899">
        <ele>408</ele>
        <time>2012-08-08T11:11:19Z</time>
      </trkpt>
      <trkpt lat="45.46068" lon="3.23893">
        <ele>408</ele>
        <time>2012-08-08T11:11:23Z</time>
      </trkpt>
      <trkpt lat="45.46088" lon="3.23892">
        <ele>407</ele>
        <time>2012-08-08T11:11:27Z</time>
      </trkpt>
      <trkpt lat="45.46107" lon="3.23881">
        <ele>406</ele>
        <time>2012-08-08T11:11:30Z</time>
      </trkpt>
      <trkpt lat="45.46127" lon="3.23864">
        <ele>406</ele>
        <time>2012-08-08T11:11:36Z</time>
      </trkpt>
      <trkpt lat="45.46158" lon="3.23862">
        <ele>405</ele>
        <time>2012-08-08T11:11:38Z</time>
      </trkpt>
      <trkpt lat="45.46177" lon="3.23858">
        <ele>404</ele>
        <time>2012-08-08T11:11:41Z</time>
      </trkpt>
      <trkpt lat="45.46198" lon="3.23847">
        <ele>404</ele>
        <time>2012-08-08T11:11:44Z</time>
      </trkpt>
      <trkpt lat="45.4622" lon="3.23833">
        <ele>404</ele>
        <time>2012-08-08T11:11:47Z</time>
      </trkpt>
      <trkpt lat="45.46239" lon="3.2382">
        <ele>404</ele>
        <time>2012-08-08T11:11:50Z</time>
      </trkpt>
      <trkpt lat="45.46257" lon="3.23807">
        <ele>404</ele>
        <time>2012-08-08T11:11:53Z</time>
      </trkpt>
      <trkpt lat="45.46277" lon="3.23796">
        <ele>404</ele>
        <time>2012-08-08T11:11:56Z</time>
      </trkpt>
      <trkpt lat="45.46296" lon="3.23781">
        <ele>404</ele>
        <time>2012-08-08T11:11:59Z</time>
      </trkpt>
      <trkpt lat="45.46314" lon="3.23766">
        <ele>405</ele>
        <time>2012-08-08T11:12:02Z</time>
      </trkpt>
      <trkpt lat="45.46333" lon="3.23752">
        <ele>405</ele>
        <time>2012-08-08T11:12:05Z</time>
      </trkpt>
      <trkpt lat="45.46354" lon="3.23741">
        <ele>405</ele>
        <time>2012-08-08T11:12:08Z</time>
      </trkpt>
      <trkpt lat="45.46374" lon="3.23729">
        <ele>405</ele>
        <time>2012-08-08T11:12:11Z</time>
      </trkpt>
      <trkpt lat="45.46396" lon="3.23716">
        <ele>405</ele>
        <time>2012-08-08T11:12:14Z</time>
      </trkpt>
      <trkpt lat="45.46415" lon="3.23701">
        <ele>405</ele>
        <time>2012-08-08T11:12:17Z</time>
      </trkpt>
      <trkpt lat="45.46434" lon="3.23691">
        <ele>407</ele>
        <time>2012-08-08T11:12:20Z</time>
      </trkpt>
      <trkpt lat="45.46447" lon="3.23673">
        <ele>407</ele>
        <time>2012-08-08T11:12:23Z</time>
      </trkpt>
      <trkpt lat="45.46459" lon="3.23652">
        <ele>408</ele>
        <time>2012-08-08T11:12:26Z</time>
      </trkpt>
      <trkpt lat="45.46473" lon="3.23636">
        <ele>408</ele>
        <time>2012-08-08T11:12:29Z</time>
      </trkpt>
      <trkpt lat="45.46493" lon="3.23615">
        <ele>408</ele>
        <time>2012-08-08T11:12:33Z</time>
      </trkpt>
      <trkpt lat="45.46509" lon="3.23601">
        <ele>411</ele>
        <time>2012-08-08T11:12:36Z</time>
      </trkpt>
      <trkpt lat="45.46529" lon="3.23582">
        <ele>411</ele>
        <time>2012-08-08T11:12:40Z</time>
      </trkpt>
      <trkpt lat="45.46543" lon="3.23565">
        <ele>412</ele>
        <time>2012-08-08T11:12:43Z</time>
      </trkpt>
      <trkpt lat="45.46556" lon="3.23543">
        <ele>412</ele>
        <time>2012-08-08T11:12:47Z</time>
      </trkpt>
      <trkpt lat="45.46571" lon="3.23521">
        <ele>412</ele>
        <time>2012-08-08T11:12:51Z</time>
      </trkpt>
      <trkpt lat="45.46583" lon="3.23498">
        <ele>412</ele>
        <time>2012-08-08T11:12:55Z</time>
      </trkpt>
      <trkpt lat="45.46596" lon="3.23478">
        <ele>413</ele>
        <time>2012-08-08T11:12:58Z</time>
      </trkpt>
      <trkpt lat="45.46612" lon="3.23459">
        <ele>413</ele>
        <time>2012-08-08T11:13:04Z</time>
      </trkpt>
      <trkpt lat="45.46631" lon="3.23454">
        <ele>413</ele>
        <time>2012-08-08T11:13:08Z</time>
      </trkpt>
      <trkpt lat="45.4665" lon="3.23443">
        <ele>413</ele>
        <time>2012-08-08T11:13:12Z</time>
      </trkpt>
      <trkpt lat="45.46669" lon="3.23435">
        <ele>414</ele>
        <time>2012-08-08T11:13:16Z</time>
      </trkpt>
      <trkpt lat="45.46688" lon="3.23427">
        <ele>414</ele>
        <time>2012-08-08T11:13:20Z</time>
      </trkpt>
      <trkpt lat="45.46709" lon="3.23419">
        <ele>414</ele>
        <time>2012-08-08T11:13:24Z</time>
      </trkpt>
      <trkpt lat="45.46727" lon="3.23409">
        <ele>413</ele>
        <time>2012-08-08T11:13:27Z</time>
      </trkpt>
      <trkpt lat="45.46746" lon="3.23396">
        <ele>413</ele>
        <time>2012-08-08T11:13:30Z</time>
      </trkpt>
      <trkpt lat="45.46769" lon="3.2338">
        <ele>413</ele>
        <time>2012-08-08T11:13:35Z</time>
      </trkpt>
      <trkpt lat="45.46788" lon="3.23369">
        <ele>413</ele>
        <time>2012-08-08T11:13:37Z</time>
      </trkpt>
      <trkpt lat="45.46807" lon="3.23355">
        <ele>412</ele>
        <time>2012-08-08T11:13:42Z</time>
      </trkpt>
      <trkpt lat="45.46827" lon="3.23344">
        <ele>411</ele>
        <time>2012-08-08T11:13:45Z</time>
      </trkpt>
      <trkpt lat="45.46848" lon="3.23337">
        <ele>412</ele>
        <time>2012-08-08T11:13:50Z</time>
      </trkpt>
      <trkpt lat="45.46867" lon="3.23328">
        <ele>409</ele>
        <time>2012-08-08T11:13:54Z</time>
      </trkpt>
      <trkpt lat="45.46886" lon="3.23321">
        <ele>408</ele>
        <time>2012-08-08T11:13:57Z</time>
      </trkpt>
      <trkpt lat="45.4691" lon="3.23311">
        <ele>409</ele>
        <time>2012-08-08T11:14:00Z</time>
      </trkpt>
      <trkpt lat="45.4693" lon="3.2329">
        <ele>407</ele>
        <time>2012-08-08T11:14:03Z</time>
      </trkpt>
      <trkpt lat="45.46947" lon="3.23271">
        <ele>406</ele>
        <time>2012-08-08T11:14:06Z</time>
      </trkpt>
      <trkpt lat="45.46965" lon="3.23252">
        <ele>405</ele>
        <time>2012-08-08T11:14:09Z</time>
      </trkpt>
      <trkpt lat="45.46983" lon="3.23233">
        <ele>404</ele>
        <time>2012-08-08T11:14:12Z</time>
      </trkpt>
      <trkpt lat="45.47" lon="3.23213">
        <ele>404</ele>
        <time>2012-08-08T11:14:15Z</time>
      </trkpt>
      <trkpt lat="45.47019" lon="3.23199">
        <ele>403</ele>
        <time>2012-08-08T11:14:18Z</time>
      </trkpt>
      <trkpt lat="45.47036" lon="3.2318">
        <ele>403</ele>
        <time>2012-08-08T11:14:21Z</time>
      </trkpt>
      <trkpt lat="45.47054" lon="3.23164">
        <ele>403</ele>
        <time>2012-08-08T11:14:24Z</time>
      </trkpt>
      <trkpt lat="45.47069" lon="3.23148">
        <ele>403</ele>
        <time>2012-08-08T11:14:27Z</time>
      </trkpt>
      <trkpt lat="45.47088" lon="3.23124">
        <ele>403</ele>
        <time>2012-08-08T11:14:31Z</time>
      </trkpt>
      <trkpt lat="45.47104" lon="3.23103">
        <ele>403</ele>
        <time>2012-08-08T11:14:35Z</time>
      </trkpt>
      <trkpt lat="45.47121" lon="3.23087">
        <ele>403</ele>
        <time>2012-08-08T11:14:38Z</time>
      </trkpt>
      <trkpt lat="45.47137" lon="3.2307">
        <ele>404</ele>
        <time>2012-08-08T11:14:42Z</time>
      </trkpt>
      <trkpt lat="45.47148" lon="3.23047">
        <ele>404</ele>
        <time>2012-08-08T11:14:46Z</time>
      </trkpt>
      <trkpt lat="45.47144" lon="3.23019">
        <ele>405</ele>
        <time>2012-08-08T11:14:51Z</time>
      </trkpt>
      <trkpt lat="45.47136" lon="3.22996">
        <ele>405</ele>
        <time>2012-08-08T11:14:55Z</time>
      </trkpt>
      <trkpt lat="45.47126" lon="3.22969">
        <ele>405</ele>
        <time>2012-08-08T11:14:59Z</time>
      </trkpt>
      <trkpt lat="45.47114" lon="3.22942">
        <ele>405</ele>
        <time>2012-08-08T11:15:03Z</time>
      </trkpt>
      <trkpt lat="45.47103" lon="3.22913">
        <ele>405</ele>
        <time>2012-08-08T11:15:07Z</time>
      </trkpt>
      <trkpt lat="45.47091" lon="3.22886">
        <ele>406</ele>
        <time>2012-08-08T11:15:11Z</time>
      </trkpt>
      <trkpt lat="45.47083" lon="3.22863">
        <ele>403</ele>
        <time>2012-08-08T11:15:14Z</time>
      </trkpt>
      <trkpt lat="45.47079" lon="3.22838">
        <ele>404</ele>
        <time>2012-08-08T11:15:17Z</time>
      </trkpt>
      <trkpt lat="45.47078" lon="3.22812">
        <ele>404</ele>
        <time>2012-08-08T11:15:20Z</time>
      </trkpt>
      <trkpt lat="45.47078" lon="3.22778">
        <ele>404</ele>
        <time>2012-08-08T11:15:24Z</time>
      </trkpt>
      <trkpt lat="45.47077" lon="3.22751">
        <ele>405</ele>
        <time>2012-08-08T11:15:27Z</time>
      </trkpt>
      <trkpt lat="45.47079" lon="3.22717">
        <ele>406</ele>
        <time>2012-08-08T11:15:31Z</time>
      </trkpt>
      <trkpt lat="45.47079" lon="3.2269">
        <ele>406</ele>
        <time>2012-08-08T11:15:34Z</time>
      </trkpt>
      <trkpt lat="45.47079" lon="3.22658">
        <ele>407</ele>
        <time>2012-08-08T11:15:38Z</time>
      </trkpt>
      <trkpt lat="45.47079" lon="3.22632">
        <ele>407</ele>
        <time>2012-08-08T11:15:41Z</time>
      </trkpt>
      <trkpt lat="45.4708" lon="3.22599">
        <ele>407</ele>
        <time>2012-08-08T11:15:45Z</time>
      </trkpt>
      <trkpt lat="45.47081" lon="3.22573">
        <ele>407</ele>
        <time>2012-08-08T11:15:48Z</time>
      </trkpt>
      <trkpt lat="45.47083" lon="3.22548">
        <ele>407</ele>
        <time>2012-08-08T11:15:51Z</time>
      </trkpt>
      <trkpt lat="45.47088" lon="3.22521">
        <ele>408</ele>
        <time>2012-08-08T11:15:54Z</time>
      </trkpt>
      <trkpt lat="45.47096" lon="3.22496">
        <ele>407</ele>
        <time>2012-08-08T11:15:57Z</time>
      </trkpt>
      <trkpt lat="45.47103" lon="3.22472">
        <ele>408</ele>
        <time>2012-08-08T11:16:00Z</time>
      </trkpt>
      <trkpt lat="45.47116" lon="3.22442">
        <ele>408</ele>
        <time>2012-08-08T11:16:04Z</time>
      </trkpt>
      <trkpt lat="45.47127" lon="3.22421">
        <ele>408</ele>
        <time>2012-08-08T11:16:07Z</time>
      </trkpt>
      <trkpt lat="45.47133" lon="3.22394">
        <ele>407</ele>
        <time>2012-08-08T11:16:10Z</time>
      </trkpt>
      <trkpt lat="45.47141" lon="3.2237">
        <ele>407</ele>
        <time>2012-08-08T11:16:12Z</time>
      </trkpt>
      <trkpt lat="45.47149" lon="3.2234">
        <ele>408</ele>
        <time>2012-08-08T11:16:16Z</time>
      </trkpt>
      <trkpt lat="45.47159" lon="3.22313">
        <ele>408</ele>
        <time>2012-08-08T11:16:21Z</time>
      </trkpt>
      <trkpt lat="45.47173" lon="3.22286">
        <ele>410</ele>
        <time>2012-08-08T11:16:25Z</time>
      </trkpt>
      <trkpt lat="45.47193" lon="3.22273">
        <ele>410</ele>
        <time>2012-08-08T11:16:29Z</time>
      </trkpt>
      <trkpt lat="45.47214" lon="3.22257">
        <ele>410</ele>
        <time>2012-08-08T11:16:33Z</time>
      </trkpt>
      <trkpt lat="45.47234" lon="3.22239">
        <ele>410</ele>
        <time>2012-08-08T11:16:37Z</time>
      </trkpt>
      <trkpt lat="45.47254" lon="3.22222">
        <ele>412</ele>
        <time>2012-08-08T11:16:41Z</time>
      </trkpt>
      <trkpt lat="45.47274" lon="3.22206">
        <ele>413</ele>
        <time>2012-08-08T11:16:45Z</time>
      </trkpt>
      <trkpt lat="45.47292" lon="3.22189">
        <ele>413</ele>
        <time>2012-08-08T11:16:49Z</time>
      </trkpt>
      <trkpt lat="45.47308" lon="3.22174">
        <ele>414</ele>
        <time>2012-08-08T11:16:52Z</time>
      </trkpt>
      <trkpt lat="45.47328" lon="3.22159">
        <ele>413</ele>
        <time>2012-08-08T11:16:56Z</time>
      </trkpt>
      <trkpt lat="45.47348" lon="3.22144">
        <ele>414</ele>
        <time>2012-08-08T11:17:00Z</time>
      </trkpt>
      <trkpt lat="45.47365" lon="3.22126">
        <ele>414</ele>
        <time>2012-08-08T11:17:04Z</time>
      </trkpt>
      <trkpt lat="45.47385" lon="3.22114">
        <ele>414</ele>
        <time>2012-08-08T11:17:08Z</time>
      </trkpt>
      <trkpt lat="45.47405" lon="3.22108">
        <ele>414</ele>
        <time>2012-08-08T11:17:12Z</time>
      </trkpt>
      <trkpt lat="45.47426" lon="3.22098">
        <ele>416</ele>
        <time>2012-08-08T11:17:17Z</time>
      </trkpt>
      <trkpt lat="45.47444" lon="3.22093">
        <ele>417</ele>
        <time>2012-08-08T11:17:22Z</time>
      </trkpt>
      <trkpt lat="45.4746" lon="3.22079">
        <ele>414</ele>
        <time>2012-08-08T11:18:30Z</time>
      </trkpt>
      <trkpt lat="45.47481" lon="3.2207">
        <ele>414</ele>
        <time>2012-08-08T11:18:35Z</time>
      </trkpt>
      <trkpt lat="45.47501" lon="3.22066">
        <ele>416</ele>
        <time>2012-08-08T11:18:39Z</time>
      </trkpt>
      <trkpt lat="45.47519" lon="3.22058">
        <ele>416</ele>
        <time>2012-08-08T11:18:43Z</time>
      </trkpt>
      <trkpt lat="45.47537" lon="3.22052">
        <ele>416</ele>
        <time>2012-08-08T11:18:47Z</time>
      </trkpt>
      <trkpt lat="45.47557" lon="3.22046">
        <ele>416</ele>
        <time>2012-08-08T11:18:51Z</time>
      </trkpt>
      <trkpt lat="45.47579" lon="3.2204">
        <ele>416</ele>
        <time>2012-08-08T11:18:55Z</time>
      </trkpt>
      <trkpt lat="45.476" lon="3.22035">
        <ele>418</ele>
        <time>2012-08-08T11:18:59Z</time>
      </trkpt>
      <trkpt lat="45.47622" lon="3.22031">
        <ele>418</ele>
        <time>2012-08-08T11:19:03Z</time>
      </trkpt>
      <trkpt lat="45.47644" lon="3.22028">
        <ele>418</ele>
        <time>2012-08-08T11:19:07Z</time>
      </trkpt>
      <trkpt lat="45.47667" lon="3.22029">
        <ele>418</ele>
        <time>2012-08-08T11:19:11Z</time>
      </trkpt>
      <trkpt lat="45.47689" lon="3.22029">
        <ele>420</ele>
        <time>2012-08-08T11:19:15Z</time>
      </trkpt>
      <trkpt lat="45.47712" lon="3.22031">
        <ele>421</ele>
        <time>2012-08-08T11:19:19Z</time>
      </trkpt>
      <trkpt lat="45.47733" lon="3.22031">
        <ele>421</ele>
        <time>2012-08-08T11:19:23Z</time>
      </trkpt>
      <trkpt lat="45.47757" lon="3.22033">
        <ele>422</ele>
        <time>2012-08-08T11:19:27Z</time>
      </trkpt>
      <trkpt lat="45.47778" lon="3.22036">
        <ele>422</ele>
        <time>2012-08-08T11:19:31Z</time>
      </trkpt>
      <trkpt lat="45.478" lon="3.22039">
        <ele>422</ele>
        <time>2012-08-08T11:19:35Z</time>
      </trkpt>
      <trkpt lat="45.47818" lon="3.22043">
        <ele>423</ele>
        <time>2012-08-08T11:19:39Z</time>
      </trkpt>
      <trkpt lat="45.47839" lon="3.22049">
        <ele>424</ele>
        <time>2012-08-08T11:19:43Z</time>
      </trkpt>
      <trkpt lat="45.4786" lon="3.22051">
        <ele>424</ele>
        <time>2012-08-08T11:19:47Z</time>
      </trkpt>
      <trkpt lat="45.47879" lon="3.22052">
        <ele>424</ele>
        <time>2012-08-08T11:19:50Z</time>
      </trkpt>
      <trkpt lat="45.47897" lon="3.2206">
        <ele>425</ele>
        <time>2012-08-08T11:19:54Z</time>
      </trkpt>
      <trkpt lat="45.47916" lon="3.22062">
        <ele>425</ele>
        <time>2012-08-08T11:19:56Z</time>
      </trkpt>
      <trkpt lat="45.47939" lon="3.22073">
        <ele>426</ele>
        <time>2012-08-08T11:20:00Z</time>
      </trkpt>
      <trkpt lat="45.47959" lon="3.22074">
        <ele>426</ele>
        <time>2012-08-08T11:20:06Z</time>
      </trkpt>
      <trkpt lat="45.47982" lon="3.22074">
        <ele>426</ele>
        <time>2012-08-08T11:20:11Z</time>
      </trkpt>
      <trkpt lat="45.48" lon="3.22072">
        <ele>427</ele>
        <time>2012-08-08T11:20:13Z</time>
      </trkpt>
      <trkpt lat="45.4802" lon="3.2207">
        <ele>426</ele>
        <time>2012-08-08T11:20:16Z</time>
      </trkpt>
      <trkpt lat="45.48041" lon="3.22074">
        <ele>426</ele>
        <time>2012-08-08T11:20:19Z</time>
      </trkpt>
      <trkpt lat="45.48063" lon="3.22081">
        <ele>426</ele>
        <time>2012-08-08T11:20:22Z</time>
      </trkpt>
      <trkpt lat="45.48083" lon="3.22088">
        <ele>428</ele>
        <time>2012-08-08T11:20:26Z</time>
      </trkpt>
      <trkpt lat="45.48103" lon="3.22089">
        <ele>430</ele>
        <time>2012-08-08T11:20:30Z</time>
      </trkpt>
      <trkpt lat="45.48124" lon="3.22092">
        <ele>431</ele>
        <time>2012-08-08T11:20:34Z</time>
      </trkpt>
      <trkpt lat="45.48144" lon="3.22088">
        <ele>430</ele>
        <time>2012-08-08T11:20:39Z</time>
      </trkpt>
      <trkpt lat="45.48163" lon="3.2209">
        <ele>430</ele>
        <time>2012-08-08T11:20:44Z</time>
      </trkpt>
      <trkpt lat="45.48183" lon="3.2209">
        <ele>431</ele>
        <time>2012-08-08T11:20:47Z</time>
      </trkpt>
      <trkpt lat="45.48206" lon="3.22087">
        <ele>432</ele>
        <time>2012-08-08T11:20:52Z</time>
      </trkpt>
      <trkpt lat="45.48226" lon="3.22091">
        <ele>432</ele>
        <time>2012-08-08T11:20:56Z</time>
      </trkpt>
      <trkpt lat="45.48247" lon="3.22093">
        <ele>431</ele>
        <time>2012-08-08T11:21:00Z</time>
      </trkpt>
      <trkpt lat="45.48266" lon="3.22098">
        <ele>432</ele>
        <time>2012-08-08T11:21:04Z</time>
      </trkpt>
      <trkpt lat="45.48286" lon="3.22102">
        <ele>432</ele>
        <time>2012-08-08T11:21:11Z</time>
      </trkpt>
      <trkpt lat="45.48306" lon="3.22105">
        <ele>432</ele>
        <time>2012-08-08T11:21:16Z</time>
      </trkpt>
      <trkpt lat="45.48327" lon="3.22105">
        <ele>432</ele>
        <time>2012-08-08T11:21:19Z</time>
      </trkpt>
      <trkpt lat="45.48345" lon="3.22103">
        <ele>432</ele>
        <time>2012-08-08T11:21:22Z</time>
      </trkpt>
      <trkpt lat="45.48368" lon="3.22097">
        <ele>432</ele>
        <time>2012-08-08T11:21:26Z</time>
      </trkpt>
      <trkpt lat="45.48389" lon="3.22089">
        <ele>432</ele>
        <time>2012-08-08T11:21:30Z</time>
      </trkpt>
      <trkpt lat="45.48411" lon="3.22081">
        <ele>431</ele>
        <time>2012-08-08T11:21:34Z</time>
      </trkpt>
      <trkpt lat="45.48429" lon="3.22074">
        <ele>433</ele>
        <time>2012-08-08T11:21:38Z</time>
      </trkpt>
      <trkpt lat="45.48449" lon="3.22068">
        <ele>433</ele>
        <time>2012-08-08T11:21:42Z</time>
      </trkpt>
      <trkpt lat="45.48469" lon="3.22061">
        <ele>434</ele>
        <time>2012-08-08T11:21:46Z</time>
      </trkpt>
      <trkpt lat="45.48488" lon="3.22055">
        <ele>434</ele>
        <time>2012-08-08T11:21:50Z</time>
      </trkpt>
      <trkpt lat="45.48506" lon="3.22048">
        <ele>438</ele>
        <time>2012-08-08T11:21:54Z</time>
      </trkpt>
      <trkpt lat="45.48518" lon="3.22073">
        <ele>438</ele>
        <time>2012-08-08T11:22:00Z</time>
      </trkpt>
      <trkpt lat="45.48521" lon="3.22099">
        <ele>438</ele>
        <time>2012-08-08T11:22:04Z</time>
      </trkpt>
      <trkpt lat="45.48523" lon="3.22127">
        <ele>439</ele>
        <time>2012-08-08T11:22:08Z</time>
      </trkpt>
      <trkpt lat="45.48526" lon="3.22153">
        <ele>439</ele>
        <time>2012-08-08T11:22:12Z</time>
      </trkpt>
      <trkpt lat="45.48528" lon="3.22184">
        <ele>441</ele>
        <time>2012-08-08T11:22:17Z</time>
      </trkpt>
      <trkpt lat="45.48528" lon="3.22213">
        <ele>442</ele>
        <time>2012-08-08T11:22:22Z</time>
      </trkpt>
      <trkpt lat="45.48526" lon="3.22241">
        <ele>442</ele>
        <time>2012-08-08T11:22:28Z</time>
      </trkpt>
      <trkpt lat="45.48539" lon="3.22262">
        <ele>446</ele>
        <time>2012-08-08T11:22:34Z</time>
      </trkpt>
      <trkpt lat="45.48558" lon="3.22272">
        <ele>447</ele>
        <time>2012-08-08T11:22:40Z</time>
      </trkpt>
      <trkpt lat="45.48578" lon="3.22284">
        <ele>447</ele>
        <time>2012-08-08T11:22:46Z</time>
      </trkpt>
      <trkpt lat="45.48597" lon="3.22297">
        <ele>449</ele>
        <time>2012-08-08T11:22:53Z</time>
      </trkpt>
      <trkpt lat="45.48615" lon="3.22304">
        <ele>450</ele>
        <time>2012-08-08T11:22:59Z</time>
      </trkpt>
      <trkpt lat="45.48633" lon="3.22311">
        <ele>450</ele>
        <time>2012-08-08T11:23:05Z</time>
      </trkpt>
      <trkpt lat="45.48652" lon="3.22315">
        <ele>451</ele>
        <time>2012-08-08T11:23:11Z</time>
      </trkpt>
      <trkpt lat="45.48672" lon="3.22317">
        <ele>453</ele>
        <time>2012-08-08T11:23:17Z</time>
      </trkpt>
      <trkpt lat="45.4869" lon="3.2232">
        <ele>453</ele>
        <time>2012-08-08T11:23:22Z</time>
      </trkpt>
      <trkpt lat="45.4871" lon="3.22323">
        <ele>454</ele>
        <time>2012-08-08T11:23:28Z</time>
      </trkpt>
      <trkpt lat="45.48728" lon="3.22326">
        <ele>455</ele>
        <time>2012-08-08T11:23:33Z</time>
      </trkpt>
      <trkpt lat="45.48749" lon="3.22326">
        <ele>457</ele>
        <time>2012-08-08T11:23:38Z</time>
      </trkpt>
      <trkpt lat="45.48767" lon="3.22332">
        <ele>458</ele>
        <time>2012-08-08T11:23:44Z</time>
      </trkpt>
      <trkpt lat="45.48786" lon="3.22336">
        <ele>463</ele>
        <time>2012-08-08T11:23:49Z</time>
      </trkpt>
      <trkpt lat="45.48806" lon="3.22342">
        <ele>463</ele>
        <time>2012-08-08T11:23:55Z</time>
      </trkpt>
      <trkpt lat="45.48826" lon="3.22349">
        <ele>463</ele>
        <time>2012-08-08T11:24:02Z</time>
      </trkpt>
      <trkpt lat="45.48844" lon="3.22357">
        <ele>466</ele>
        <time>2012-08-08T11:24:08Z</time>
      </trkpt>
      <trkpt lat="45.48863" lon="3.22361">
        <ele>467</ele>
        <time>2012-08-08T11:24:13Z</time>
      </trkpt>
      <trkpt lat="45.48882" lon="3.22365">
        <ele>467</ele>
        <time>2012-08-08T11:24:20Z</time>
      </trkpt>
      <trkpt lat="45.48901" lon="3.22375">
        <ele>468</ele>
        <time>2012-08-08T11:24:25Z</time>
      </trkpt>
      <trkpt lat="45.48919" lon="3.22384">
        <ele>470</ele>
        <time>2012-08-08T11:24:31Z</time>
      </trkpt>
      <trkpt lat="45.48939" lon="3.22394">
        <ele>471</ele>
        <time>2012-08-08T11:24:38Z</time>
      </trkpt>
      <trkpt lat="45.48961" lon="3.22393">
        <ele>471</ele>
        <time>2012-08-08T11:24:44Z</time>
      </trkpt>
      <trkpt lat="45.4898" lon="3.22389">
        <ele>471</ele>
        <time>2012-08-08T11:24:49Z</time>
      </trkpt>
      <trkpt lat="45.48998" lon="3.22383">
        <ele>471</ele>
        <time>2012-08-08T11:24:53Z</time>
      </trkpt>
      <trkpt lat="45.49016" lon="3.22376">
        <ele>473</ele>
        <time>2012-08-08T11:24:57Z</time>
      </trkpt>
      <trkpt lat="45.49035" lon="3.22373">
        <ele>473</ele>
        <time>2012-08-08T11:25:03Z</time>
      </trkpt>
      <trkpt lat="45.49053" lon="3.22373">
        <ele>474</ele>
        <time>2012-08-08T11:25:08Z</time>
      </trkpt>
      <trkpt lat="45.49072" lon="3.2237">
        <ele>474</ele>
        <time>2012-08-08T11:25:13Z</time>
      </trkpt>
      <trkpt lat="45.49091" lon="3.22369">
        <ele>477</ele>
        <time>2012-08-08T11:25:18Z</time>
      </trkpt>
      <trkpt lat="45.4911" lon="3.22366">
        <ele>477</ele>
        <time>2012-08-08T11:25:23Z</time>
      </trkpt>
      <trkpt lat="45.4913" lon="3.22367">
        <ele>478</ele>
        <time>2012-08-08T11:25:28Z</time>
      </trkpt>
      <trkpt lat="45.4915" lon="3.22367">
        <ele>478</ele>
        <time>2012-08-08T11:25:33Z</time>
      </trkpt>
      <trkpt lat="45.49168" lon="3.22357">
        <ele>480</ele>
        <time>2012-08-08T11:25:38Z</time>
      </trkpt>
      <trkpt lat="45.49187" lon="3.22348">
        <ele>480</ele>
        <time>2012-08-08T11:25:43Z</time>
      </trkpt>
      <trkpt lat="45.49207" lon="3.22345">
        <ele>480</ele>
        <time>2012-08-08T11:25:47Z</time>
      </trkpt>
      <trkpt lat="45.49228" lon="3.22344">
        <ele>481</ele>
        <time>2012-08-08T11:25:53Z</time>
      </trkpt>
      <trkpt lat="45.49249" lon="3.2234">
        <ele>480</ele>
        <time>2012-08-08T11:25:58Z</time>
      </trkpt>
      <trkpt lat="45.49268" lon="3.22339">
        <ele>482</ele>
        <time>2012-08-08T11:26:02Z</time>
      </trkpt>
      <trkpt lat="45.49289" lon="3.22335">
        <ele>483</ele>
        <time>2012-08-08T11:26:09Z</time>
      </trkpt>
      <trkpt lat="45.49292" lon="3.22304">
        <ele>477</ele>
        <time>2012-08-08T11:26:14Z</time>
      </trkpt>
      <trkpt lat="45.49293" lon="3.2227">
        <ele>476</ele>
        <time>2012-08-08T11:26:18Z</time>
      </trkpt>
      <trkpt lat="45.49309" lon="3.22251">
        <ele>476</ele>
        <time>2012-08-08T11:26:23Z</time>
      </trkpt>
      <trkpt lat="45.49328" lon="3.22245">
        <ele>474</ele>
        <time>2012-08-08T11:26:27Z</time>
      </trkpt>
      <trkpt lat="45.49348" lon="3.2224">
        <ele>473</ele>
        <time>2012-08-08T11:26:31Z</time>
      </trkpt>
      <trkpt lat="45.49365" lon="3.2223">
        <ele>473</ele>
        <time>2012-08-08T11:26:35Z</time>
      </trkpt>
      <trkpt lat="45.49383" lon="3.22222">
        <ele>473</ele>
        <time>2012-08-08T11:26:39Z</time>
      </trkpt>
      <trkpt lat="45.49405" lon="3.22216">
        <ele>473</ele>
        <time>2012-08-08T11:26:42Z</time>
      </trkpt>
      <trkpt lat="45.49427" lon="3.2221">
        <ele>473</ele>
        <time>2012-08-08T11:26:47Z</time>
      </trkpt>
      <trkpt lat="45.49449" lon="3.22203">
        <ele>473</ele>
        <time>2012-08-08T11:26:52Z</time>
      </trkpt>
      <trkpt lat="45.49467" lon="3.22202">
        <ele>473</ele>
        <time>2012-08-08T11:26:56Z</time>
      </trkpt>
      <trkpt lat="45.49485" lon="3.22197">
        <ele>473</ele>
        <time>2012-08-08T11:27:01Z</time>
      </trkpt>
      <trkpt lat="45.49505" lon="3.22197">
        <ele>474</ele>
        <time>2012-08-08T11:27:05Z</time>
      </trkpt>
      <trkpt lat="45.49525" lon="3.22197">
        <ele>475</ele>
        <time>2012-08-08T11:27:09Z</time>
      </trkpt>
      <trkpt lat="45.49547" lon="3.22191">
        <ele>475</ele>
        <time>2012-08-08T11:27:15Z</time>
      </trkpt>
      <trkpt lat="45.49568" lon="3.22189">
        <ele>475</ele>
        <time>2012-08-08T11:27:19Z</time>
      </trkpt>
      <trkpt lat="45.49588" lon="3.22183">
        <ele>475</ele>
        <time>2012-08-08T11:27:24Z</time>
      </trkpt>
      <trkpt lat="45.49612" lon="3.22187">
        <ele>476</ele>
        <time>2012-08-08T11:27:28Z</time>
      </trkpt>
      <trkpt lat="45.49631" lon="3.22187">
        <ele>476</ele>
        <time>2012-08-08T11:27:32Z</time>
      </trkpt>
      <trkpt lat="45.49652" lon="3.22187">
        <ele>476</ele>
        <time>2012-08-08T11:27:36Z</time>
      </trkpt>
      <trkpt lat="45.49672" lon="3.22184">
        <ele>476</ele>
        <time>2012-08-08T11:27:41Z</time>
      </trkpt>
      <trkpt lat="45.49692" lon="3.22189">
        <ele>477</ele>
        <time>2012-08-08T11:27:45Z</time>
      </trkpt>
      <trkpt lat="45.4971" lon="3.22195">
        <ele>477</ele>
        <time>2012-08-08T11:27:49Z</time>
      </trkpt>
      <trkpt lat="45.49729" lon="3.22198">
        <ele>477</ele>
        <time>2012-08-08T11:27:53Z</time>
      </trkpt>
      <trkpt lat="45.49751" lon="3.22203">
        <ele>478</ele>
        <time>2012-08-08T11:27:58Z</time>
      </trkpt>
      <trkpt lat="45.49773" lon="3.22201">
        <ele>478</ele>
        <time>2012-08-08T11:28:02Z</time>
      </trkpt>
      <trkpt lat="45.49795" lon="3.22191">
        <ele>478</ele>
        <time>2012-08-08T11:28:07Z</time>
      </trkpt>
      <trkpt lat="45.49813" lon="3.22184">
        <ele>478</ele>
        <time>2012-08-08T11:28:11Z</time>
      </trkpt>
      <trkpt lat="45.49833" lon="3.22179">
        <ele>477</ele>
        <time>2012-08-08T11:28:15Z</time>
      </trkpt>
      <trkpt lat="45.49854" lon="3.22179">
        <ele>479</ele>
        <time>2012-08-08T11:28:20Z</time>
      </trkpt>
      <trkpt lat="45.49877" lon="3.2218">
        <ele>480</ele>
        <time>2012-08-08T11:28:25Z</time>
      </trkpt>
      <trkpt lat="45.49897" lon="3.22181">
        <ele>480</ele>
        <time>2012-08-08T11:28:30Z</time>
      </trkpt>
      <trkpt lat="45.49917" lon="3.22184">
        <ele>481</ele>
        <time>2012-08-08T11:28:35Z</time>
      </trkpt>
      <trkpt lat="45.49937" lon="3.22184">
        <ele>482</ele>
        <time>2012-08-08T11:28:42Z</time>
      </trkpt>
      <trkpt lat="45.49958" lon="3.22183">
        <ele>482</ele>
        <time>2012-08-08T11:28:48Z</time>
      </trkpt>
      <trkpt lat="45.49978" lon="3.22185">
        <ele>483</ele>
        <time>2012-08-08T11:28:54Z</time>
      </trkpt>
      <trkpt lat="45.49997" lon="3.22188">
        <ele>483</ele>
        <time>2012-08-08T11:28:59Z</time>
      </trkpt>
      <trkpt lat="45.50015" lon="3.22192">
        <ele>485</ele>
        <time>2012-08-08T11:29:04Z</time>
      </trkpt>
      <trkpt lat="45.50032" lon="3.22197">
        <ele>486</ele>
        <time>2012-08-08T11:29:09Z</time>
      </trkpt>
      <trkpt lat="45.50047" lon="3.2218">
        <ele>486</ele>
        <time>2012-08-08T11:29:15Z</time>
      </trkpt>
      <trkpt lat="45.50064" lon="3.22168">
        <ele>487</ele>
        <time>2012-08-08T11:29:22Z</time>
      </trkpt>
      <trkpt lat="45.50076" lon="3.22193">
        <ele>487</ele>
        <time>2012-08-08T11:29:30Z</time>
      </trkpt>
      <trkpt lat="45.50088" lon="3.22215">
        <ele>492</ele>
        <time>2012-08-08T11:29:36Z</time>
      </trkpt>
      <trkpt lat="45.50096" lon="3.22241">
        <ele>492</ele>
        <time>2012-08-08T11:29:43Z</time>
      </trkpt>
      <trkpt lat="45.50102" lon="3.22266">
        <ele>495</ele>
        <time>2012-08-08T11:29:50Z</time>
      </trkpt>
      <trkpt lat="45.50113" lon="3.22289">
        <ele>497</ele>
        <time>2012-08-08T11:29:56Z</time>
      </trkpt>
      <trkpt lat="45.50128" lon="3.22307">
        <ele>498</ele>
        <time>2012-08-08T11:30:07Z</time>
      </trkpt>
      <trkpt lat="45.50146" lon="3.2231">
        <ele>499</ele>
        <time>2012-08-08T11:30:13Z</time>
      </trkpt>
      <trkpt lat="45.50164" lon="3.22321">
        <ele>500</ele>
        <time>2012-08-08T11:30:20Z</time>
      </trkpt>
      <trkpt lat="45.5018" lon="3.22334">
        <ele>504</ele>
        <time>2012-08-08T11:30:26Z</time>
      </trkpt>
      <trkpt lat="45.50196" lon="3.22348">
        <ele>505</ele>
        <time>2012-08-08T11:30:33Z</time>
      </trkpt>
      <trkpt lat="45.50214" lon="3.22359">
        <ele>506</ele>
        <time>2012-08-08T11:30:39Z</time>
      </trkpt>
      <trkpt lat="45.5023" lon="3.22375">
        <ele>507</ele>
        <time>2012-08-08T11:30:46Z</time>
      </trkpt>
      <trkpt lat="45.50247" lon="3.22387">
        <ele>507</ele>
        <time>2012-08-08T11:30:53Z</time>
      </trkpt>
      <trkpt lat="45.50265" lon="3.22399">
        <ele>510</ele>
        <time>2012-08-08T11:31:00Z</time>
      </trkpt>
      <trkpt lat="45.50285" lon="3.22406">
        <ele>511</ele>
        <time>2012-08-08T11:31:08Z</time>
      </trkpt>
      <trkpt lat="45.50302" lon="3.22421">
        <ele>514</ele>
        <time>2012-08-08T11:31:14Z</time>
      </trkpt>
      <trkpt lat="45.50319" lon="3.22432">
        <ele>514</ele>
        <time>2012-08-08T11:31:20Z</time>
      </trkpt>
      <trkpt lat="45.50331" lon="3.22455">
        <ele>516</ele>
        <time>2012-08-08T11:31:28Z</time>
      </trkpt>
      <trkpt lat="45.5035" lon="3.22465">
        <ele>518</ele>
        <time>2012-08-08T11:31:34Z</time>
      </trkpt>
      <trkpt lat="45.50369" lon="3.2248">
        <ele>519</ele>
        <time>2012-08-08T11:31:42Z</time>
      </trkpt>
      <trkpt lat="45.50387" lon="3.22468">
        <ele>519</ele>
        <time>2012-08-08T11:31:52Z</time>
      </trkpt>
      <trkpt lat="45.50392" lon="3.22441">
        <ele>519</ele>
        <time>2012-08-08T11:31:57Z</time>
      </trkpt>
      <trkpt lat="45.50397" lon="3.22412">
        <ele>520</ele>
        <time>2012-08-08T11:32:03Z</time>
      </trkpt>
      <trkpt lat="45.504" lon="3.22384">
        <ele>521</ele>
        <time>2012-08-08T11:32:09Z</time>
      </trkpt>
      <trkpt lat="45.50404" lon="3.22355">
        <ele>522</ele>
        <time>2012-08-08T11:32:15Z</time>
      </trkpt>
      <trkpt lat="45.50407" lon="3.2233">
        <ele>525</ele>
        <time>2012-08-08T11:32:20Z</time>
      </trkpt>
      <trkpt lat="45.50409" lon="3.22303">
        <ele>524</ele>
        <time>2012-08-08T11:32:26Z</time>
      </trkpt>
      <trkpt lat="45.50412" lon="3.22276">
        <ele>526</ele>
        <time>2012-08-08T11:32:34Z</time>
      </trkpt>
      <trkpt lat="45.50416" lon="3.22247">
        <ele>530</ele>
        <time>2012-08-08T11:32:42Z</time>
      </trkpt>
      <trkpt lat="45.50421" lon="3.22218">
        <ele>535</ele>
        <time>2012-08-08T11:32:49Z</time>
      </trkpt>
      <trkpt lat="45.50425" lon="3.22193">
        <ele>537</ele>
        <time>2012-08-08T11:32:56Z</time>
      </trkpt>
    </trkseg>
  </trk>
</gpx>